PWSweather.com
Personal Weather Stations
Station Observations
ESTGRALPAZ
Santa Fe, Santa FeAR 3000

Santa FeSanta FeAR 3000

Lat: -31.6280555556, Lon: -60.6908333333

Elevation: 69

Station Type: WH1081

http://www.estaciongralpaz.com.ar

High Low Average
Temperature 98.4°F36.9°C 74.3°F23.5°C 84.3°F29.1°C
Dew Point 72.8°F22.7°C 63.9°F17.7°C 68.4°F20.2°C
Winds 15.9 mph 25.6 kmh 0.7 mph 1.1 kmh 7.0 mph SE11.3 kmh SE
Wind Gusts 22.8 mph36.7 kmh 4.5 mph7.2 kmh 13.0 mph20.9 kmh
Humidity 84% 33% 61%
Pressure 29.74 in1007.1 mb 29.57 in1001.4 mb -
Precipitation 0.00 in0.0 mm - -
Hour Temp Dew Point Humidity Winds Wind Gusts Pressure Precip Precip Rate Daily Precip Total
12:00 AM 77.4°F25.2°C 68.5°F20.3°C 74% 4.5 mph N7.2 kmh N 7.6 mph12.2 kmh 29.72 in1006.4 mb 0.00 in0.0 mm 0.00 in0.0 mm 0.00 in0.0 mm
12:01 AM 77.4°F25.2°C 68.5°F20.3°C 74% 4.5 mph N7.2 kmh N 7.6 mph12.2 kmh 29.72 in1006.4 mb 0.00 in0.0 mm 0.00 in0.0 mm 0.00 in0.0 mm
12:02 AM 77.4°F25.2°C 68.5°F20.3°C 74% 3.1 mph N5.0 kmh N 7.6 mph12.2 kmh 29.72 in1006.4 mb 0.00 in0.0 mm 0.00 in0.0 mm 0.00 in0.0 mm
12:03 AM 77.4°F25.2°C 68.5°F20.3°C 74% 3.8 mph N6.1 kmh N 7.6 mph12.2 kmh 29.72 in1006.4 mb 0.00 in0.0 mm 0.00 in0.0 mm 0.00 in0.0 mm
12:04 AM 77.4°F25.2°C 68.5°F20.3°C 74% 3.8 mph N6.1 kmh N 7.6 mph12.2 kmh 29.72 in1006.4 mb 0.00 in0.0 mm 0.00 in0.0 mm 0.00 in0.0 mm
12:05 AM 77.5°F25.3°C 68.6°F20.3°C 74% 3.8 mph N6.1 kmh N 7.6 mph12.2 kmh 29.72 in1006.4 mb 0.00 in0.0 mm 0.00 in0.0 mm 0.00 in0.0 mm
12:06 AM 77.5°F25.3°C 68.2°F20.1°C 73% 2.2 mph N3.5 kmh N 7.6 mph12.2 kmh 29.72 in1006.4 mb 0.00 in0.0 mm 0.00 in0.0 mm 0.00 in0.0 mm
12:07 AM 77.5°F25.3°C 68.2°F20.1°C 73% 3.1 mph N5.0 kmh N 7.6 mph12.2 kmh 29.72 in1006.4 mb 0.00 in0.0 mm 0.00 in0.0 mm 0.00 in0.0 mm
12:08 AM 77.5°F25.3°C 68.2°F20.1°C 73% 3.8 mph NNE6.1 kmh NNE 6.9 mph11.1 kmh 29.72 in1006.4 mb 0.00 in0.0 mm 0.00 in0.0 mm 0.00 in0.0 mm
12:09 AM 77.5°F25.3°C 68.2°F20.1°C 73% 5.4 mph NNE8.7 kmh NNE 6.9 mph11.1 kmh 29.72 in1006.4 mb 0.00 in0.0 mm 0.00 in0.0 mm 0.00 in0.0 mm
12:10 AM 77.5°F25.3°C 68.2°F20.1°C 73% 3.1 mph NNE5.0 kmh NNE 6.9 mph11.1 kmh 29.72 in1006.4 mb 0.00 in0.0 mm 0.00 in0.0 mm 0.00 in0.0 mm
12:11 AM 77.5°F25.3°C 68.2°F20.1°C 73% 3.8 mph NE6.1 kmh NE 6.9 mph11.1 kmh 29.72 in1006.4 mb 0.00 in0.0 mm 0.00 in0.0 mm 0.00 in0.0 mm
12:12 AM 77.5°F25.3°C 68.2°F20.1°C 73% 3.8 mph NNE6.1 kmh NNE 6.9 mph11.1 kmh 29.72 in1006.4 mb 0.00 in0.0 mm 0.00 in0.0 mm 0.00 in0.0 mm
12:13 AM 77.5°F25.3°C 68.2°F20.1°C 73% 3.1 mph NNE5.0 kmh NNE 6.9 mph11.1 kmh 29.72 in1006.4 mb 0.00 in0.0 mm 0.00 in0.0 mm 0.00 in0.0 mm
12:14 AM 77.5°F25.3°C 68.2°F20.1°C 73% 3.8 mph NNE6.1 kmh NNE 6.9 mph11.1 kmh 29.72 in1006.4 mb 0.00 in0.0 mm 0.00 in0.0 mm 0.00 in0.0 mm
12:15 AM 77.5°F25.3°C 68.2°F20.1°C 73% 3.1 mph NNE5.0 kmh NNE 6.9 mph11.1 kmh 29.72 in1006.4 mb 0.00 in0.0 mm 0.00 in0.0 mm 0.00 in0.0 mm
12:16 AM 77.5°F25.3°C 68.2°F20.1°C 73% 3.8 mph NNE6.1 kmh NNE 6.9 mph11.1 kmh 29.72 in1006.4 mb 0.00 in0.0 mm 0.00 in0.0 mm 0.00 in0.0 mm
12:17 AM 77.5°F25.3°C 68.2°F20.1°C 73% 1.6 mph NNE2.6 kmh NNE 6.9 mph11.1 kmh 29.73 in1006.8 mb 0.00 in0.0 mm 0.00 in0.0 mm 0.00 in0.0 mm
12:18 AM 77.5°F25.3°C 68.2°F20.1°C 73% 2.2 mph NNE3.5 kmh NNE 6.9 mph11.1 kmh 29.72 in1006.4 mb 0.00 in0.0 mm 0.00 in0.0 mm 0.00 in0.0 mm
12:19 AM 77.5°F25.3°C 68.2°F20.1°C 73% 1.6 mph NNE2.6 kmh NNE 6.0 mph9.7 kmh 29.72 in1006.4 mb 0.00 in0.0 mm 0.00 in0.0 mm 0.00 in0.0 mm
12:20 AM 77.5°F25.3°C 68.2°F20.1°C 73% 1.6 mph NNE2.6 kmh NNE 6.0 mph9.7 kmh 29.72 in1006.4 mb 0.00 in0.0 mm 0.00 in0.0 mm 0.00 in0.0 mm
12:21 AM 77.5°F25.3°C 68.2°F20.1°C 73% 0.7 mph N1.1 kmh N 6.0 mph9.7 kmh 29.72 in1006.4 mb 0.00 in0.0 mm 0.00 in0.0 mm 0.00 in0.0 mm
12:22 AM 77.5°F25.3°C 68.2°F20.1°C 73% 0.7 mph NNE1.1 kmh NNE 6.0 mph9.7 kmh 29.72 in1006.4 mb 0.00 in0.0 mm 0.00 in0.0 mm 0.00 in0.0 mm
12:23 AM 77.4°F25.2°C 68.1°F20.1°C 73% 2.2 mph N3.5 kmh N 6.0 mph9.7 kmh 29.72 in1006.4 mb 0.00 in0.0 mm 0.00 in0.0 mm 0.00 in0.0 mm
12:24 AM 77.4°F25.2°C 68.1°F20.1°C 73% 1.6 mph N2.6 kmh N 6.0 mph9.7 kmh 29.72 in1006.4 mb 0.00 in0.0 mm 0.00 in0.0 mm 0.00 in0.0 mm
12:25 AM 77.4°F25.2°C 68.1°F20.1°C 73% 4.5 mph NNE7.2 kmh NNE 6.0 mph9.7 kmh 29.72 in1006.4 mb 0.00 in0.0 mm 0.00 in0.0 mm 0.00 in0.0 mm
12:26 AM 77.4°F25.2°C 68.1°F20.1°C 73% 4.5 mph N7.2 kmh N 6.9 mph11.1 kmh 29.72 in1006.4 mb 0.00 in0.0 mm 0.00 in0.0 mm 0.00 in0.0 mm
12:27 AM 77.4°F25.2°C 68.1°F20.1°C 73% 1.6 mph N2.6 kmh N 6.9 mph11.1 kmh 29.72 in1006.4 mb 0.00 in0.0 mm 0.00 in0.0 mm 0.00 in0.0 mm
12:28 AM 77.4°F25.2°C 68.1°F20.1°C 73% 2.2 mph NNE3.5 kmh NNE 6.9 mph11.1 kmh 29.71 in1006.1 mb 0.00 in0.0 mm 0.00 in0.0 mm 0.00 in0.0 mm
12:29 AM 77.4°F25.2°C 68.5°F20.3°C 74% 2.2 mph NNE3.5 kmh NNE 6.9 mph11.1 kmh 29.71 in1006.1 mb 0.00 in0.0 mm 0.00 in0.0 mm 0.00 in0.0 mm
12:30 AM 77.2°F25.1°C 68.3°F20.2°C 74% 1.6 mph NNE2.6 kmh NNE 6.9 mph11.1 kmh 29.71 in1006.1 mb 0.00 in0.0 mm 0.00 in0.0 mm 0.00 in0.0 mm
12:31 AM 77.2°F25.1°C 68.3°F20.2°C 74% 2.2 mph NNE3.5 kmh NNE 6.9 mph11.1 kmh 29.72 in1006.4 mb 0.00 in0.0 mm 0.00 in0.0 mm 0.00 in0.0 mm
12:32 AM 77.2°F25.1°C 68.3°F20.2°C 74% 3.1 mph NNE5.0 kmh NNE 6.9 mph11.1 kmh 29.72 in1006.4 mb 0.00 in0.0 mm 0.00 in0.0 mm 0.00 in0.0 mm
12:33 AM 77.2°F25.1°C 68.3°F20.2°C 74% 2.2 mph NNE3.5 kmh NNE 6.9 mph11.1 kmh 29.72 in1006.4 mb 0.00 in0.0 mm 0.00 in0.0 mm 0.00 in0.0 mm
12:34 AM 77.2°F25.1°C 68.3°F20.2°C 74% 2.2 mph NNE3.5 kmh NNE 6.9 mph11.1 kmh 29.72 in1006.4 mb 0.00 in0.0 mm 0.00 in0.0 mm 0.00 in0.0 mm
12:35 AM 77.2°F25.1°C 68.3°F20.2°C 74% 3.1 mph NNE5.0 kmh NNE 6.9 mph11.1 kmh 29.71 in1006.1 mb 0.00 in0.0 mm 0.00 in0.0 mm 0.00 in0.0 mm
12:36 AM 77.2°F25.1°C 68.3°F20.2°C 74% 3.8 mph NNE6.1 kmh NNE 6.9 mph11.1 kmh 29.72 in1006.4 mb 0.00 in0.0 mm 0.00 in0.0 mm 0.00 in0.0 mm
12:37 AM 77.2°F25.1°C 68.7°F20.4°C 75% 3.8 mph NNE6.1 kmh NNE 5.4 mph8.7 kmh 29.72 in1006.4 mb 0.00 in0.0 mm 0.00 in0.0 mm 0.00 in0.0 mm
12:38 AM 77.0°F25.0°C 68.5°F20.3°C 75% 4.5 mph NNE7.2 kmh NNE 6.0 mph9.7 kmh 29.71 in1006.1 mb 0.00 in0.0 mm 0.00 in0.0 mm 0.00 in0.0 mm
12:39 AM 77.0°F25.0°C 68.5°F20.3°C 75% 2.2 mph N3.5 kmh N 6.0 mph9.7 kmh 29.71 in1006.1 mb 0.00 in0.0 mm 0.00 in0.0 mm 0.00 in0.0 mm
12:40 AM 77.0°F25.0°C 68.5°F20.3°C 75% 3.8 mph N6.1 kmh N 6.0 mph9.7 kmh 29.72 in1006.4 mb 0.00 in0.0 mm 0.00 in0.0 mm 0.00 in0.0 mm
12:41 AM 77.0°F25.0°C 68.5°F20.3°C 75% 3.8 mph N6.1 kmh N 6.0 mph9.7 kmh 29.71 in1006.1 mb 0.00 in0.0 mm 0.00 in0.0 mm 0.00 in0.0 mm
12:42 AM 77.0°F25.0°C 68.5°F20.3°C 75% 3.8 mph N6.1 kmh N 7.6 mph12.2 kmh 29.71 in1006.1 mb 0.00 in0.0 mm 0.00 in0.0 mm 0.00 in0.0 mm
12:43 AM 77.0°F25.0°C 68.5°F20.3°C 75% 4.5 mph N7.2 kmh N 7.6 mph12.2 kmh 29.71 in1006.1 mb 0.00 in0.0 mm 0.00 in0.0 mm 0.00 in0.0 mm
12:44 AM 77.0°F25.0°C 68.5°F20.3°C 75% 3.8 mph N6.1 kmh N 7.6 mph12.2 kmh 29.72 in1006.4 mb 0.00 in0.0 mm 0.00 in0.0 mm 0.00 in0.0 mm
12:45 AM 77.0°F25.0°C 68.5°F20.3°C 75% 1.6 mph N2.6 kmh N 7.6 mph12.2 kmh 29.71 in1006.1 mb 0.00 in0.0 mm 0.00 in0.0 mm 0.00 in0.0 mm
12:46 AM 77.0°F25.0°C 68.5°F20.3°C 75% 1.6 mph N2.6 kmh N 7.6 mph12.2 kmh 29.71 in1006.1 mb 0.00 in0.0 mm 0.00 in0.0 mm 0.00 in0.0 mm
12:47 AM 77.0°F25.0°C 68.5°F20.3°C 75% 3.1 mph N5.0 kmh N 7.6 mph12.2 kmh 29.71 in1006.1 mb 0.00 in0.0 mm 0.00 in0.0 mm 0.00 in0.0 mm
12:48 AM 77.0°F25.0°C 68.5°F20.3°C 75% 2.2 mph N3.5 kmh N 7.6 mph12.2 kmh 29.71 in1006.1 mb 0.00 in0.0 mm 0.00 in0.0 mm 0.00 in0.0 mm
12:49 AM 77.0°F25.0°C 68.5°F20.3°C 75% 3.1 mph N5.0 kmh N 7.6 mph12.2 kmh 29.71 in1006.1 mb 0.00 in0.0 mm 0.00 in0.0 mm 0.00 in0.0 mm
12:50 AM 77.0°F25.0°C 68.5°F20.3°C 75% 3.1 mph N5.0 kmh N 7.6 mph12.2 kmh 29.72 in1006.4 mb 0.00 in0.0 mm 0.00 in0.0 mm 0.00 in0.0 mm
12:51 AM 77.0°F25.0°C 68.5°F20.3°C 75% 2.2 mph NNE3.5 kmh NNE 7.6 mph12.2 kmh 29.71 in1006.1 mb 0.00 in0.0 mm 0.00 in0.0 mm 0.00 in0.0 mm
12:52 AM 77.0°F25.0°C 68.5°F20.3°C 75% 2.2 mph NNE3.5 kmh NNE 7.6 mph12.2 kmh 29.71 in1006.1 mb 0.00 in0.0 mm 0.00 in0.0 mm 0.00 in0.0 mm
12:53 AM 77.0°F25.0°C 68.5°F20.3°C 75% 1.6 mph NNE2.6 kmh NNE 7.6 mph12.2 kmh 29.71 in1006.1 mb 0.00 in0.0 mm 0.00 in0.0 mm 0.00 in0.0 mm
12:54 AM 77.0°F25.0°C 68.9°F20.5°C 76% 1.6 mph NNE2.6 kmh NNE 6.0 mph9.7 kmh 29.73 in1006.8 mb 0.00 in0.0 mm 0.00 in0.0 mm 0.00 in0.0 mm
12:55 AM 77.0°F25.0°C 68.9°F20.5°C 76% 3.1 mph NNE5.0 kmh NNE 5.4 mph8.7 kmh 29.71 in1006.1 mb 0.00 in0.0 mm 0.00 in0.0 mm 0.00 in0.0 mm
12:56 AM 76.8°F24.9°C 69.1°F20.6°C 77% 1.6 mph NNE2.6 kmh NNE 5.4 mph8.7 kmh 29.72 in1006.4 mb 0.00 in0.0 mm 0.00 in0.0 mm 0.00 in0.0 mm
12:57 AM 76.8°F24.9°C 69.1°F20.6°C 77% 2.2 mph NE3.5 kmh NE 5.4 mph8.7 kmh 29.72 in1006.4 mb 0.00 in0.0 mm 0.00 in0.0 mm 0.00 in0.0 mm
12:58 AM 76.8°F24.9°C 69.1°F20.6°C 77% 3.1 mph NNE5.0 kmh NNE 5.4 mph8.7 kmh 29.71 in1006.1 mb 0.00 in0.0 mm 0.00 in0.0 mm 0.00 in0.0 mm
12:59 AM 76.8°F24.9°C 69.1°F20.6°C 77% 3.1 mph NE5.0 kmh NE 5.4 mph8.7 kmh 29.71 in1006.1 mb 0.00 in0.0 mm 0.00 in0.0 mm 0.00 in0.0 mm
01:00 AM 76.8°F24.9°C 69.1°F20.6°C 77% 2.2 mph NE3.5 kmh NE 5.4 mph8.7 kmh 29.71 in1006.1 mb 0.00 in0.0 mm 0.00 in0.0 mm 0.00 in0.0 mm
01:01 AM 76.8°F24.9°C 69.1°F20.6°C 77% 3.1 mph NNE5.0 kmh NNE 4.5 mph7.2 kmh 29.71 in1006.1 mb 0.00 in0.0 mm 0.00 in0.0 mm 0.00 in0.0 mm
01:02 AM 76.8°F24.9°C 69.1°F20.6°C 77% 2.2 mph NNE3.5 kmh NNE 4.5 mph7.2 kmh 29.72 in1006.4 mb 0.00 in0.0 mm 0.00 in0.0 mm 0.00 in0.0 mm
01:03 AM 76.8°F24.9°C 69.5°F20.8°C 78% 2.2 mph NNE3.5 kmh NNE 4.5 mph7.2 kmh 29.71 in1006.1 mb 0.00 in0.0 mm 0.00 in0.0 mm 0.00 in0.0 mm
01:04 AM 76.8°F24.9°C 69.5°F20.8°C 78% 3.1 mph NNE5.0 kmh NNE 4.5 mph7.2 kmh 29.72 in1006.4 mb 0.00 in0.0 mm 0.00 in0.0 mm 0.00 in0.0 mm
01:05 AM 76.8°F24.9°C 69.5°F20.8°C 78% 2.2 mph NNE3.5 kmh NNE 6.0 mph9.7 kmh 29.72 in1006.4 mb 0.00 in0.0 mm 0.00 in0.0 mm 0.00 in0.0 mm
01:06 AM 76.8°F24.9°C 69.5°F20.8°C 78% 3.8 mph NE6.1 kmh NE 6.0 mph9.7 kmh 29.72 in1006.4 mb 0.00 in0.0 mm 0.00 in0.0 mm 0.00 in0.0 mm
01:07 AM 76.6°F24.8°C 69.3°F20.7°C 78% 3.1 mph NNE5.0 kmh NNE 6.0 mph9.7 kmh 29.71 in1006.1 mb 0.00 in0.0 mm 0.00 in0.0 mm 0.00 in0.0 mm
01:08 AM 76.8°F24.9°C 69.5°F20.8°C 78% 3.1 mph NNE5.0 kmh NNE 6.0 mph9.7 kmh 29.71 in1006.1 mb 0.00 in0.0 mm 0.00 in0.0 mm 0.00 in0.0 mm
01:09 AM 76.8°F24.9°C 69.5°F20.8°C 78% 2.2 mph NNE3.5 kmh NNE 6.0 mph9.7 kmh 29.71 in1006.1 mb 0.00 in0.0 mm 0.00 in0.0 mm 0.00 in0.0 mm
01:10 AM 76.8°F24.9°C 69.5°F20.8°C 78% 6.0 mph NNE9.7 kmh NNE 7.6 mph12.2 kmh 29.72 in1006.4 mb 0.00 in0.0 mm 0.00 in0.0 mm 0.00 in0.0 mm
01:11 AM 76.8°F24.9°C 69.5°F20.8°C 78% 3.1 mph NNE5.0 kmh NNE 7.6 mph12.2 kmh 29.72 in1006.4 mb 0.00 in0.0 mm 0.00 in0.0 mm 0.00 in0.0 mm
01:12 AM 76.8°F24.9°C 69.5°F20.8°C 78% 2.2 mph NNE3.5 kmh NNE 7.6 mph12.2 kmh 29.72 in1006.4 mb 0.00 in0.0 mm 0.00 in0.0 mm 0.00 in0.0 mm
01:13 AM 76.8°F24.9°C 69.5°F20.8°C 78% 3.8 mph NNE6.1 kmh NNE 7.6 mph12.2 kmh 29.72 in1006.4 mb 0.00 in0.0 mm 0.00 in0.0 mm 0.00 in0.0 mm
01:14 AM 76.8°F24.9°C 69.5°F20.8°C 78% 3.8 mph NNE6.1 kmh NNE 7.6 mph12.2 kmh 29.72 in1006.4 mb 0.00 in0.0 mm 0.00 in0.0 mm 0.00 in0.0 mm
01:15 AM 76.8°F24.9°C 69.5°F20.8°C 78% 3.8 mph N6.1 kmh N 7.6 mph12.2 kmh 29.71 in1006.1 mb 0.00 in0.0 mm 0.00 in0.0 mm 0.00 in0.0 mm
01:16 AM 76.8°F24.9°C 69.1°F20.6°C 77% 4.5 mph N7.2 kmh N 7.6 mph12.2 kmh 29.72 in1006.4 mb 0.00 in0.0 mm 0.00 in0.0 mm 0.00 in0.0 mm
01:17 AM 76.8°F24.9°C 69.1°F20.6°C 77% 4.5 mph N7.2 kmh N 9.2 mph14.8 kmh 29.72 in1006.4 mb 0.00 in0.0 mm 0.00 in0.0 mm 0.00 in0.0 mm
01:18 AM 76.8°F24.9°C 69.1°F20.6°C 77% 0.7 mph N1.1 kmh N 9.2 mph14.8 kmh 29.72 in1006.4 mb 0.00 in0.0 mm 0.00 in0.0 mm 0.00 in0.0 mm
01:19 AM 77.0°F25.0°C 68.9°F20.5°C 76% 1.6 mph N2.6 kmh N 9.2 mph14.8 kmh 29.72 in1006.4 mb 0.00 in0.0 mm 0.00 in0.0 mm 0.00 in0.0 mm
01:20 AM 77.0°F25.0°C 68.9°F20.5°C 76% 2.2 mph N3.5 kmh N 9.2 mph14.8 kmh 29.72 in1006.4 mb 0.00 in0.0 mm 0.00 in0.0 mm 0.00 in0.0 mm
01:21 AM 77.0°F25.0°C 68.9°F20.5°C 76% 3.1 mph N5.0 kmh N 9.2 mph14.8 kmh 29.71 in1006.1 mb 0.00 in0.0 mm 0.00 in0.0 mm 0.00 in0.0 mm
01:22 AM 77.0°F25.0°C 68.9°F20.5°C 76% 0.7 mph N1.1 kmh N 9.2 mph14.8 kmh 29.72 in1006.4 mb 0.00 in0.0 mm 0.00 in0.0 mm 0.00 in0.0 mm
01:23 AM 76.8°F24.9°C 69.1°F20.6°C 77% 2.2 mph N3.5 kmh N 9.2 mph14.8 kmh 29.72 in1006.4 mb 0.00 in0.0 mm 0.00 in0.0 mm 0.00 in0.0 mm
01:24 AM 76.8°F24.9°C 69.1°F20.6°C 77% 2.2 mph N3.5 kmh N 9.2 mph14.8 kmh 29.72 in1006.4 mb 0.00 in0.0 mm 0.00 in0.0 mm 0.00 in0.0 mm
01:25 AM 76.8°F24.9°C 69.1°F20.6°C 77% 1.6 mph N2.6 kmh N 9.2 mph14.8 kmh 29.71 in1006.1 mb 0.00 in0.0 mm 0.00 in0.0 mm 0.00 in0.0 mm
01:26 AM 76.6°F24.8°C 68.9°F20.5°C 77% 1.6 mph NNE2.6 kmh NNE 9.2 mph14.8 kmh 29.72 in1006.4 mb 0.00 in0.0 mm 0.00 in0.0 mm 0.00 in0.0 mm
01:27 AM 76.6°F24.8°C 69.3°F20.7°C 78% 3.1 mph NNE5.0 kmh NNE 6.9 mph11.1 kmh 29.71 in1006.1 mb 0.00 in0.0 mm 0.00 in0.0 mm 0.00 in0.0 mm
01:28 AM 76.6°F24.8°C 69.3°F20.7°C 78% 4.5 mph NNE7.2 kmh NNE 5.4 mph8.7 kmh 29.71 in1006.1 mb 0.00 in0.0 mm 0.00 in0.0 mm 0.00 in0.0 mm
01:29 AM 76.6°F24.8°C 69.3°F20.7°C 78% 5.4 mph NNE8.7 kmh NNE 6.0 mph9.7 kmh 29.72 in1006.4 mb 0.00 in0.0 mm 0.00 in0.0 mm 0.00 in0.0 mm
01:30 AM 76.6°F24.8°C 69.3°F20.7°C 78% 3.1 mph NNE5.0 kmh NNE 6.0 mph9.7 kmh 29.71 in1006.1 mb 0.00 in0.0 mm 0.00 in0.0 mm 0.00 in0.0 mm
01:31 AM 76.6°F24.8°C 69.3°F20.7°C 78% 3.8 mph NNE6.1 kmh NNE 6.0 mph9.7 kmh 29.72 in1006.4 mb 0.00 in0.0 mm 0.00 in0.0 mm 0.00 in0.0 mm
01:32 AM 76.6°F24.8°C 69.3°F20.7°C 78% 3.8 mph N6.1 kmh N 6.9 mph11.1 kmh 29.71 in1006.1 mb 0.00 in0.0 mm 0.00 in0.0 mm 0.00 in0.0 mm
01:33 AM 76.6°F24.8°C 69.3°F20.7°C 78% 4.5 mph N7.2 kmh N 6.9 mph11.1 kmh 29.71 in1006.1 mb 0.00 in0.0 mm 0.00 in0.0 mm 0.00 in0.0 mm
01:34 AM 76.6°F24.8°C 69.3°F20.7°C 78% 4.5 mph N7.2 kmh N 6.9 mph11.1 kmh 29.71 in1006.1 mb 0.00 in0.0 mm 0.00 in0.0 mm 0.00 in0.0 mm
01:35 AM 76.6°F24.8°C 69.3°F20.7°C 78% 4.5 mph NNE7.2 kmh NNE 6.9 mph11.1 kmh 29.71 in1006.1 mb 0.00 in0.0 mm 0.00 in0.0 mm 0.00 in0.0 mm
01:36 AM 76.6°F24.8°C 69.3°F20.7°C 78% 2.2 mph N3.5 kmh N 6.9 mph11.1 kmh 29.71 in1006.1 mb 0.00 in0.0 mm 0.00 in0.0 mm 0.00 in0.0 mm
01:37 AM 76.6°F24.8°C 69.3°F20.7°C 78% 3.8 mph N6.1 kmh N 6.9 mph11.1 kmh 29.71 in1006.1 mb 0.00 in0.0 mm 0.00 in0.0 mm 0.00 in0.0 mm
01:38 AM 76.6°F24.8°C 69.3°F20.7°C 78% 4.5 mph N7.2 kmh N 7.6 mph12.2 kmh 29.71 in1006.1 mb 0.00 in0.0 mm 0.00 in0.0 mm 0.00 in0.0 mm
01:39 AM 76.6°F24.8°C 69.3°F20.7°C 78% 4.5 mph N7.2 kmh N 7.6 mph12.2 kmh 29.71 in1006.1 mb 0.00 in0.0 mm 0.00 in0.0 mm 0.00 in0.0 mm
01:40 AM 76.6°F24.8°C 69.3°F20.7°C 78% 2.2 mph N3.5 kmh N 7.6 mph12.2 kmh 29.71 in1006.1 mb 0.00 in0.0 mm 0.00 in0.0 mm 0.00 in0.0 mm
01:41 AM 76.6°F24.8°C 69.3°F20.7°C 78% 3.1 mph N5.0 kmh N 7.6 mph12.2 kmh 29.71 in1006.1 mb 0.00 in0.0 mm 0.00 in0.0 mm 0.00 in0.0 mm
01:42 AM 76.8°F24.9°C 69.1°F20.6°C 77% 3.8 mph N6.1 kmh N 7.6 mph12.2 kmh 29.71 in1006.1 mb 0.00 in0.0 mm 0.00 in0.0 mm 0.00 in0.0 mm
01:43 AM 76.8°F24.9°C 69.1°F20.6°C 77% 3.8 mph N6.1 kmh N 7.6 mph12.2 kmh 29.71 in1006.1 mb 0.00 in0.0 mm 0.00 in0.0 mm 0.00 in0.0 mm
01:44 AM 76.8°F24.9°C 69.1°F20.6°C 77% 5.4 mph N8.7 kmh N 7.6 mph12.2 kmh 29.71 in1006.1 mb 0.00 in0.0 mm 0.00 in0.0 mm 0.00 in0.0 mm
01:45 AM 76.8°F24.9°C 69.1°F20.6°C 77% 5.4 mph N8.7 kmh N 7.6 mph12.2 kmh 29.71 in1006.1 mb 0.00 in0.0 mm 0.00 in0.0 mm 0.00 in0.0 mm
01:46 AM 76.8°F24.9°C 69.1°F20.6°C 77% 4.5 mph N7.2 kmh N 8.3 mph13.4 kmh 29.71 in1006.1 mb 0.00 in0.0 mm 0.00 in0.0 mm 0.00 in0.0 mm
01:47 AM 76.8°F24.9°C 69.1°F20.6°C 77% 4.5 mph N7.2 kmh N 8.3 mph13.4 kmh 29.71 in1006.1 mb 0.00 in0.0 mm 0.00 in0.0 mm 0.00 in0.0 mm
01:48 AM 76.8°F24.9°C 68.7°F20.4°C 76% 5.4 mph N8.7 kmh N 8.3 mph13.4 kmh 29.71 in1006.1 mb 0.00 in0.0 mm 0.00 in0.0 mm 0.00 in0.0 mm
01:49 AM 77.0°F25.0°C 68.5°F20.3°C 75% 4.5 mph N7.2 kmh N 8.3 mph13.4 kmh 29.71 in1006.1 mb 0.00 in0.0 mm 0.00 in0.0 mm 0.00 in0.0 mm
01:50 AM 77.0°F25.0°C 68.5°F20.3°C 75% 3.8 mph N6.1 kmh N 8.3 mph13.4 kmh 29.71 in1006.1 mb 0.00 in0.0 mm 0.00 in0.0 mm 0.00 in0.0 mm
01:51 AM 77.0°F25.0°C 68.5°F20.3°C 75% 3.8 mph N6.1 kmh N 8.3 mph13.4 kmh 29.71 in1006.1 mb 0.00 in0.0 mm 0.00 in0.0 mm 0.00 in0.0 mm
01:52 AM 77.0°F25.0°C 68.5°F20.3°C 75% 3.1 mph N5.0 kmh N 8.3 mph13.4 kmh 29.70 in1005.8 mb 0.00 in0.0 mm 0.00 in0.0 mm 0.00 in0.0 mm
01:53 AM 77.0°F25.0°C 68.5°F20.3°C 75% 4.5 mph N7.2 kmh N 8.3 mph13.4 kmh 29.71 in1006.1 mb 0.00 in0.0 mm 0.00 in0.0 mm 0.00 in0.0 mm
01:54 AM 77.0°F25.0°C 68.5°F20.3°C 75% 3.8 mph N6.1 kmh N 8.3 mph13.4 kmh 29.71 in1006.1 mb 0.00 in0.0 mm 0.00 in0.0 mm 0.00 in0.0 mm
01:55 AM 77.0°F25.0°C 68.5°F20.3°C 75% 5.4 mph N8.7 kmh N 8.3 mph13.4 kmh 29.70 in1005.8 mb 0.00 in0.0 mm 0.00 in0.0 mm 0.00 in0.0 mm
01:56 AM 77.0°F25.0°C 68.5°F20.3°C 75% 5.4 mph N8.7 kmh N 8.3 mph13.4 kmh 29.71 in1006.1 mb 0.00 in0.0 mm 0.00 in0.0 mm 0.00 in0.0 mm
01:57 AM 77.0°F25.0°C 68.5°F20.3°C 75% 3.8 mph N6.1 kmh N 8.3 mph13.4 kmh 29.70 in1005.8 mb 0.00 in0.0 mm 0.00 in0.0 mm 0.00 in0.0 mm
01:58 AM 77.0°F25.0°C 68.1°F20.1°C 74% 3.1 mph N5.0 kmh N 8.3 mph13.4 kmh 29.71 in1006.1 mb 0.00 in0.0 mm 0.00 in0.0 mm 0.00 in0.0 mm
01:59 AM 77.0°F25.0°C 68.1°F20.1°C 74% 5.4 mph N8.7 kmh N 8.3 mph13.4 kmh 29.71 in1006.1 mb 0.00 in0.0 mm 0.00 in0.0 mm 0.00 in0.0 mm
02:00 AM 77.0°F25.0°C 68.1°F20.1°C 74% 6.9 mph N11.1 kmh N 9.2 mph14.8 kmh 29.70 in1005.8 mb 0.00 in0.0 mm 0.00 in0.0 mm 0.00 in0.0 mm
02:01 AM 77.0°F25.0°C 68.1°F20.1°C 74% 5.4 mph N8.7 kmh N 9.2 mph14.8 kmh 29.71 in1006.1 mb 0.00 in0.0 mm 0.00 in0.0 mm 0.00 in0.0 mm
02:02 AM 77.0°F25.0°C 68.1°F20.1°C 74% 3.1 mph N5.0 kmh N 9.2 mph14.8 kmh 29.70 in1005.8 mb 0.00 in0.0 mm 0.00 in0.0 mm 0.00 in0.0 mm
02:03 AM 77.0°F25.0°C 68.1°F20.1°C 74% 3.8 mph N6.1 kmh N 9.2 mph14.8 kmh 29.70 in1005.8 mb 0.00 in0.0 mm 0.00 in0.0 mm 0.00 in0.0 mm
02:04 AM 77.0°F25.0°C 68.1°F20.1°C 74% 4.5 mph N7.2 kmh N 9.2 mph14.8 kmh 29.71 in1006.1 mb 0.00 in0.0 mm 0.00 in0.0 mm 0.00 in0.0 mm
02:05 AM 77.0°F25.0°C 68.1°F20.1°C 74% 4.5 mph N7.2 kmh N 9.2 mph14.8 kmh 29.70 in1005.8 mb 0.00 in0.0 mm 0.00 in0.0 mm 0.00 in0.0 mm
02:06 AM 77.0°F25.0°C 68.1°F20.1°C 74% 6.0 mph N9.7 kmh N 9.2 mph14.8 kmh 29.70 in1005.8 mb 0.00 in0.0 mm 0.00 in0.0 mm 0.00 in0.0 mm
02:07 AM 77.0°F25.0°C 68.1°F20.1°C 74% 3.8 mph N6.1 kmh N 9.2 mph14.8 kmh 29.70 in1005.8 mb 0.00 in0.0 mm 0.00 in0.0 mm 0.00 in0.0 mm
02:08 AM 77.0°F25.0°C 68.1°F20.1°C 74% 4.5 mph N7.2 kmh N 9.2 mph14.8 kmh 29.71 in1006.1 mb 0.00 in0.0 mm 0.00 in0.0 mm 0.00 in0.0 mm
02:09 AM 77.0°F25.0°C 68.1°F20.1°C 74% 6.0 mph N9.7 kmh N 9.2 mph14.8 kmh 29.71 in1006.1 mb 0.00 in0.0 mm 0.00 in0.0 mm 0.00 in0.0 mm
02:10 AM 76.8°F24.9°C 68.3°F20.2°C 75% 3.8 mph N6.1 kmh N 8.3 mph13.4 kmh 29.70 in1005.8 mb 0.00 in0.0 mm 0.00 in0.0 mm 0.00 in0.0 mm
02:11 AM 76.8°F24.9°C 68.3°F20.2°C 75% 2.2 mph N3.5 kmh N 8.3 mph13.4 kmh 29.71 in1006.1 mb 0.00 in0.0 mm 0.00 in0.0 mm 0.00 in0.0 mm
02:12 AM 76.8°F24.9°C 68.3°F20.2°C 75% 3.8 mph NNE6.1 kmh NNE 8.3 mph13.4 kmh 29.70 in1005.8 mb 0.00 in0.0 mm 0.00 in0.0 mm 0.00 in0.0 mm
02:13 AM 76.8°F24.9°C 68.3°F20.2°C 75% 2.2 mph NNE3.5 kmh NNE 8.3 mph13.4 kmh 29.70 in1005.8 mb 0.00 in0.0 mm 0.00 in0.0 mm 0.00 in0.0 mm
02:14 AM 76.8°F24.9°C 68.3°F20.2°C 75% 1.6 mph NNE2.6 kmh NNE 8.3 mph13.4 kmh 29.70 in1005.8 mb 0.00 in0.0 mm 0.00 in0.0 mm 0.00 in0.0 mm
02:15 AM 76.6°F24.8°C 68.6°F20.3°C 76% 1.6 mph NNE2.6 kmh NNE 8.3 mph13.4 kmh 29.70 in1005.8 mb 0.00 in0.0 mm 0.00 in0.0 mm 0.00 in0.0 mm
02:16 AM 76.6°F24.8°C 68.6°F20.3°C 76% 2.2 mph NNE3.5 kmh NNE 8.3 mph13.4 kmh 29.71 in1006.1 mb 0.00 in0.0 mm 0.00 in0.0 mm 0.00 in0.0 mm
02:17 AM 76.6°F24.8°C 68.6°F20.3°C 76% 1.6 mph NNE2.6 kmh NNE 7.6 mph12.2 kmh 29.70 in1005.8 mb 0.00 in0.0 mm 0.00 in0.0 mm 0.00 in0.0 mm
02:18 AM 76.5°F24.7°C 68.4°F20.2°C 76% 1.6 mph NNE2.6 kmh NNE 7.6 mph12.2 kmh 29.70 in1005.8 mb 0.00 in0.0 mm 0.00 in0.0 mm 0.00 in0.0 mm
02:19 AM 76.3°F24.6°C 68.6°F20.3°C 77% 1.6 mph NNE2.6 kmh NNE 5.4 mph8.7 kmh 29.70 in1005.8 mb 0.00 in0.0 mm 0.00 in0.0 mm 0.00 in0.0 mm
02:20 AM 76.3°F24.6°C 68.6°F20.3°C 77% 1.6 mph NNE2.6 kmh NNE 5.4 mph8.7 kmh 29.70 in1005.8 mb 0.00 in0.0 mm 0.00 in0.0 mm 0.00 in0.0 mm
02:21 AM 76.1°F24.5°C 68.8°F20.4°C 78% 2.2 mph NE3.5 kmh NE 4.5 mph7.2 kmh 29.70 in1005.8 mb 0.00 in0.0 mm 0.00 in0.0 mm 0.00 in0.0 mm
02:22 AM 76.1°F24.5°C 68.8°F20.4°C 78% 1.6 mph NE2.6 kmh NE 4.5 mph7.2 kmh 29.70 in1005.8 mb 0.00 in0.0 mm 0.00 in0.0 mm 0.00 in0.0 mm
02:23 AM 75.9°F24.4°C 69.0°F20.6°C 79% 2.2 mph NNE3.5 kmh NNE 4.5 mph7.2 kmh 29.70 in1005.8 mb 0.00 in0.0 mm 0.00 in0.0 mm 0.00 in0.0 mm
02:24 AM 75.9°F24.4°C 69.0°F20.6°C 79% 2.2 mph NNE3.5 kmh NNE 4.5 mph7.2 kmh 29.70 in1005.8 mb 0.00 in0.0 mm 0.00 in0.0 mm 0.00 in0.0 mm
02:25 AM 75.7°F24.3°C 68.8°F20.4°C 79% 3.1 mph NNE5.0 kmh NNE 4.5 mph7.2 kmh 29.70 in1005.8 mb 0.00 in0.0 mm 0.00 in0.0 mm 0.00 in0.0 mm
02:26 AM 75.7°F24.3°C 68.8°F20.4°C 79% 1.6 mph NNE2.6 kmh NNE 4.5 mph7.2 kmh 29.70 in1005.8 mb 0.00 in0.0 mm 0.00 in0.0 mm 0.00 in0.0 mm
02:27 AM 75.7°F24.3°C 69.2°F20.7°C 80% 3.1 mph NNE5.0 kmh NNE 5.4 mph8.7 kmh 29.70 in1005.8 mb 0.00 in0.0 mm 0.00 in0.0 mm 0.00 in0.0 mm
02:28 AM 75.7°F24.3°C 69.2°F20.7°C 80% 4.5 mph NNE7.2 kmh NNE 5.4 mph8.7 kmh 29.70 in1005.8 mb 0.00 in0.0 mm 0.00 in0.0 mm 0.00 in0.0 mm
02:29 AM 75.6°F24.2°C 69.0°F20.6°C 80% 2.2 mph N3.5 kmh N 5.4 mph8.7 kmh 29.70 in1005.8 mb 0.00 in0.0 mm 0.00 in0.0 mm 0.00 in0.0 mm
02:30 AM 75.6°F24.2°C 69.0°F20.6°C 80% 2.2 mph NNE3.5 kmh NNE 5.4 mph8.7 kmh 29.70 in1005.8 mb 0.00 in0.0 mm 0.00 in0.0 mm 0.00 in0.0 mm
02:31 AM 75.6°F24.2°C 69.0°F20.6°C 80% 3.8 mph N6.1 kmh N 6.0 mph9.7 kmh 29.70 in1005.8 mb 0.00 in0.0 mm 0.00 in0.0 mm 0.00 in0.0 mm
02:32 AM 75.6°F24.2°C 69.4°F20.8°C 81% 3.1 mph N5.0 kmh N 6.0 mph9.7 kmh 29.70 in1005.8 mb 0.00 in0.0 mm 0.00 in0.0 mm 0.00 in0.0 mm
02:33 AM 75.6°F24.2°C 69.4°F20.8°C 81% 3.1 mph N5.0 kmh N 6.0 mph9.7 kmh 29.70 in1005.8 mb 0.00 in0.0 mm 0.00 in0.0 mm 0.00 in0.0 mm
02:34 AM 75.6°F24.2°C 69.4°F20.8°C 81% 3.8 mph NNE6.1 kmh NNE 6.0 mph9.7 kmh 29.70 in1005.8 mb 0.00 in0.0 mm 0.00 in0.0 mm 0.00 in0.0 mm
02:35 AM 75.7°F24.3°C 69.5°F20.8°C 81% 5.4 mph N8.7 kmh N 9.2 mph14.8 kmh 29.70 in1005.8 mb 0.00 in0.0 mm 0.00 in0.0 mm 0.00 in0.0 mm
02:36 AM 75.7°F24.3°C 69.5°F20.8°C 81% 5.4 mph N8.7 kmh N 9.2 mph14.8 kmh 29.70 in1005.8 mb 0.00 in0.0 mm 0.00 in0.0 mm 0.00 in0.0 mm
02:37 AM 75.7°F24.3°C 69.5°F20.8°C 81% 3.8 mph N6.1 kmh N 9.2 mph14.8 kmh 29.69 in1005.4 mb 0.00 in0.0 mm 0.00 in0.0 mm 0.00 in0.0 mm
02:38 AM 75.7°F24.3°C 69.5°F20.8°C 81% 5.4 mph N8.7 kmh N 9.2 mph14.8 kmh 29.70 in1005.8 mb 0.00 in0.0 mm 0.00 in0.0 mm 0.00 in0.0 mm
02:39 AM 75.9°F24.4°C 69.3°F20.7°C 80% 4.5 mph N7.2 kmh N 9.2 mph14.8 kmh 29.70 in1005.8 mb 0.00 in0.0 mm 0.00 in0.0 mm 0.00 in0.0 mm
02:40 AM 75.9°F24.4°C 69.3°F20.7°C 80% 4.5 mph N7.2 kmh N 9.2 mph14.8 kmh 29.70 in1005.8 mb 0.00 in0.0 mm 0.00 in0.0 mm 0.00 in0.0 mm
02:41 AM 75.9°F24.4°C 69.3°F20.7°C 80% 4.5 mph N7.2 kmh N 9.2 mph14.8 kmh 29.69 in1005.4 mb 0.00 in0.0 mm 0.00 in0.0 mm 0.00 in0.0 mm
02:42 AM 75.9°F24.4°C 69.3°F20.7°C 80% 4.5 mph N7.2 kmh N 9.2 mph14.8 kmh 29.69 in1005.4 mb 0.00 in0.0 mm 0.00 in0.0 mm 0.00 in0.0 mm
02:43 AM 75.9°F24.4°C 69.3°F20.7°C 80% 3.8 mph N6.1 kmh N 9.2 mph14.8 kmh 29.70 in1005.8 mb 0.00 in0.0 mm 0.00 in0.0 mm 0.00 in0.0 mm
02:44 AM 75.9°F24.4°C 69.0°F20.6°C 79% 4.5 mph N7.2 kmh N 9.2 mph14.8 kmh 29.69 in1005.4 mb 0.00 in0.0 mm 0.00 in0.0 mm 0.00 in0.0 mm
02:45 AM 75.9°F24.4°C 69.0°F20.6°C 79% 4.5 mph N7.2 kmh N 8.3 mph13.4 kmh 29.70 in1005.8 mb 0.00 in0.0 mm 0.00 in0.0 mm 0.00 in0.0 mm
02:46 AM 75.9°F24.4°C 69.0°F20.6°C 79% 5.4 mph N8.7 kmh N 7.6 mph12.2 kmh 29.70 in1005.8 mb 0.00 in0.0 mm 0.00 in0.0 mm 0.00 in0.0 mm
02:47 AM 76.1°F24.5°C 69.2°F20.7°C 79% 3.8 mph N6.1 kmh N 7.6 mph12.2 kmh 29.69 in1005.4 mb 0.00 in0.0 mm 0.00 in0.0 mm 0.00 in0.0 mm
02:48 AM 76.1°F24.5°C 69.2°F20.7°C 79% 3.8 mph N6.1 kmh N 7.6 mph12.2 kmh 29.70 in1005.8 mb 0.00 in0.0 mm 0.00 in0.0 mm 0.00 in0.0 mm
02:49 AM 76.1°F24.5°C 69.2°F20.7°C 79% 4.5 mph N7.2 kmh N 7.6 mph12.2 kmh 29.70 in1005.8 mb 0.00 in0.0 mm 0.00 in0.0 mm 0.00 in0.0 mm
02:50 AM 75.9°F24.4°C 69.0°F20.6°C 79% 3.1 mph N5.0 kmh N 7.6 mph12.2 kmh 29.70 in1005.8 mb 0.00 in0.0 mm 0.00 in0.0 mm 0.00 in0.0 mm
02:51 AM 75.9°F24.4°C 69.0°F20.6°C 79% 2.2 mph N3.5 kmh N 7.6 mph12.2 kmh 29.69 in1005.4 mb 0.00 in0.0 mm 0.00 in0.0 mm 0.00 in0.0 mm
02:52 AM 75.9°F24.4°C 69.0°F20.6°C 79% 5.4 mph N8.7 kmh N 7.6 mph12.2 kmh 29.70 in1005.8 mb 0.00 in0.0 mm 0.00 in0.0 mm 0.00 in0.0 mm
02:53 AM 75.9°F24.4°C 68.6°F20.3°C 78% 3.8 mph N6.1 kmh N 7.6 mph12.2 kmh 29.69 in1005.4 mb 0.00 in0.0 mm 0.00 in0.0 mm 0.00 in0.0 mm
02:54 AM 75.9°F24.4°C 68.6°F20.3°C 78% 5.4 mph N8.7 kmh N 8.3 mph13.4 kmh 29.70 in1005.8 mb 0.00 in0.0 mm 0.00 in0.0 mm 0.00 in0.0 mm
02:55 AM 75.9°F24.4°C 68.6°F20.3°C 78% 5.4 mph N8.7 kmh N 9.2 mph14.8 kmh 29.69 in1005.4 mb 0.00 in0.0 mm 0.00 in0.0 mm 0.00 in0.0 mm
02:56 AM 75.9°F24.4°C 68.6°F20.3°C 78% 5.4 mph N8.7 kmh N 9.2 mph14.8 kmh 29.70 in1005.8 mb 0.00 in0.0 mm 0.00 in0.0 mm 0.00 in0.0 mm
02:57 AM 75.9°F24.4°C 68.6°F20.3°C 78% 4.5 mph N7.2 kmh N 9.2 mph14.8 kmh 29.69 in1005.4 mb 0.00 in0.0 mm 0.00 in0.0 mm 0.00 in0.0 mm
02:58 AM 75.9°F24.4°C 68.6°F20.3°C 78% 3.8 mph N6.1 kmh N 9.2 mph14.8 kmh 29.70 in1005.8 mb 0.00 in0.0 mm 0.00 in0.0 mm 0.00 in0.0 mm
02:59 AM 75.9°F24.4°C 68.6°F20.3°C 78% 5.4 mph N8.7 kmh N 9.2 mph14.8 kmh 29.69 in1005.4 mb 0.00 in0.0 mm 0.00 in0.0 mm 0.00 in0.0 mm
03:00 AM 75.9°F24.4°C 68.6°F20.3°C 78% 3.8 mph N6.1 kmh N 9.2 mph14.8 kmh 29.70 in1005.8 mb 0.00 in0.0 mm 0.00 in0.0 mm 0.00 in0.0 mm
03:01 AM 75.9°F24.4°C 68.6°F20.3°C 78% 4.5 mph N7.2 kmh N 9.2 mph14.8 kmh 29.69 in1005.4 mb 0.00 in0.0 mm 0.00 in0.0 mm 0.00 in0.0 mm
03:02 AM 75.9°F24.4°C 68.6°F20.3°C 78% 4.5 mph N7.2 kmh N 9.2 mph14.8 kmh 29.70 in1005.8 mb 0.00 in0.0 mm 0.00 in0.0 mm 0.00 in0.0 mm
03:03 AM 75.9°F24.4°C 68.6°F20.3°C 78% 3.8 mph N6.1 kmh N 9.2 mph14.8 kmh 29.69 in1005.4 mb 0.00 in0.0 mm 0.00 in0.0 mm 0.00 in0.0 mm
03:04 AM 75.9°F24.4°C 68.6°F20.3°C 78% 3.8 mph N6.1 kmh N 9.2 mph14.8 kmh 29.69 in1005.4 mb 0.00 in0.0 mm 0.00 in0.0 mm 0.00 in0.0 mm
03:05 AM 75.9°F24.4°C 68.6°F20.3°C 78% 3.1 mph N5.0 kmh N 9.2 mph14.8 kmh 29.69 in1005.4 mb 0.00 in0.0 mm 0.00 in0.0 mm 0.00 in0.0 mm
03:06 AM 75.9°F24.4°C 68.6°F20.3°C 78% 3.8 mph N6.1 kmh N 8.3 mph13.4 kmh 29.70 in1005.8 mb 0.00 in0.0 mm 0.00 in0.0 mm 0.00 in0.0 mm
03:07 AM 75.9°F24.4°C 68.6°F20.3°C 78% 5.4 mph N8.7 kmh N 7.6 mph12.2 kmh 29.70 in1005.8 mb 0.00 in0.0 mm 0.00 in0.0 mm 0.00 in0.0 mm
03:08 AM 75.9°F24.4°C 68.6°F20.3°C 78% 6.0 mph N9.7 kmh N 7.6 mph12.2 kmh 29.69 in1005.4 mb 0.00 in0.0 mm 0.00 in0.0 mm 0.00 in0.0 mm
03:09 AM 75.9°F24.4°C 68.6°F20.3°C 78% 3.8 mph N6.1 kmh N 7.6 mph12.2 kmh 29.70 in1005.8 mb 0.00 in0.0 mm 0.00 in0.0 mm 0.00 in0.0 mm
03:10 AM 75.9°F24.4°C 68.6°F20.3°C 78% 5.4 mph N8.7 kmh N 7.6 mph12.2 kmh 29.69 in1005.4 mb 0.00 in0.0 mm 0.00 in0.0 mm 0.00 in0.0 mm
03:11 AM 75.9°F24.4°C 68.6°F20.3°C 78% 5.4 mph N8.7 kmh N 7.6 mph12.2 kmh 29.69 in1005.4 mb 0.00 in0.0 mm 0.00 in0.0 mm 0.00 in0.0 mm
03:12 AM 75.9°F24.4°C 68.6°F20.3°C 78% 3.8 mph N6.1 kmh N 7.6 mph12.2 kmh 29.70 in1005.8 mb 0.00 in0.0 mm 0.00 in0.0 mm 0.00 in0.0 mm
03:13 AM 75.9°F24.4°C 68.6°F20.3°C 78% 4.5 mph N7.2 kmh N 7.6 mph12.2 kmh 29.70 in1005.8 mb 0.00 in0.0 mm 0.00 in0.0 mm 0.00 in0.0 mm
03:14 AM 75.9°F24.4°C 68.6°F20.3°C 78% 3.8 mph N6.1 kmh N 7.6 mph12.2 kmh 29.69 in1005.4 mb 0.00 in0.0 mm 0.00 in0.0 mm 0.00 in0.0 mm
03:15 AM 75.9°F24.4°C 68.6°F20.3°C 78% 3.1 mph N5.0 kmh N 7.6 mph12.2 kmh 29.69 in1005.4 mb 0.00 in0.0 mm 0.00 in0.0 mm 0.00 in0.0 mm
03:16 AM 75.9°F24.4°C 68.6°F20.3°C 78% 3.1 mph N5.0 kmh N 7.6 mph12.2 kmh 29.69 in1005.4 mb 0.00 in0.0 mm 0.00 in0.0 mm 0.00 in0.0 mm
03:17 AM 75.9°F24.4°C 68.6°F20.3°C 78% 4.5 mph N7.2 kmh N 7.6 mph12.2 kmh 29.69 in1005.4 mb 0.00 in0.0 mm 0.00 in0.0 mm 0.00 in0.0 mm
03:18 AM 75.9°F24.4°C 68.6°F20.3°C 78% 3.1 mph N5.0 kmh N 7.6 mph12.2 kmh 29.69 in1005.4 mb 0.00 in0.0 mm 0.00 in0.0 mm 0.00 in0.0 mm
03:19 AM 75.9°F24.4°C 68.6°F20.3°C 78% 3.8 mph N6.1 kmh N 7.6 mph12.2 kmh 29.69 in1005.4 mb 0.00 in0.0 mm 0.00 in0.0 mm 0.00 in0.0 mm
03:20 AM 75.9°F24.4°C 68.6°F20.3°C 78% 5.4 mph N8.7 kmh N 7.6 mph12.2 kmh 29.69 in1005.4 mb 0.00 in0.0 mm 0.00 in0.0 mm 0.00 in0.0 mm
03:21 AM 75.9°F24.4°C 68.6°F20.3°C 78% 3.8 mph N6.1 kmh N 7.6 mph12.2 kmh 29.70 in1005.8 mb 0.00 in0.0 mm 0.00 in0.0 mm 0.00 in0.0 mm
03:22 AM 75.9°F24.4°C 68.6°F20.3°C 78% 3.8 mph N6.1 kmh N 7.6 mph12.2 kmh 29.69 in1005.4 mb 0.00 in0.0 mm 0.00 in0.0 mm 0.00 in0.0 mm
03:23 AM 75.9°F24.4°C 68.6°F20.3°C 78% 5.4 mph N8.7 kmh N 7.6 mph12.2 kmh 29.69 in1005.4 mb 0.00 in0.0 mm 0.00 in0.0 mm 0.00 in0.0 mm
03:24 AM 75.9°F24.4°C 68.6°F20.3°C 78% 5.4 mph N8.7 kmh N 7.6 mph12.2 kmh 29.70 in1005.8 mb 0.00 in0.0 mm 0.00 in0.0 mm 0.00 in0.0 mm
03:25 AM 75.9°F24.4°C 68.6°F20.3°C 78% 3.1 mph N5.0 kmh N 7.6 mph12.2 kmh 29.69 in1005.4 mb 0.00 in0.0 mm 0.00 in0.0 mm 0.00 in0.0 mm
03:26 AM 75.9°F24.4°C 68.6°F20.3°C 78% 6.0 mph NNE9.7 kmh NNE 8.3 mph13.4 kmh 29.69 in1005.4 mb 0.00 in0.0 mm 0.00 in0.0 mm 0.00 in0.0 mm
03:27 AM 75.9°F24.4°C 68.6°F20.3°C 78% 5.4 mph NNE8.7 kmh NNE 8.3 mph13.4 kmh 29.69 in1005.4 mb 0.00 in0.0 mm 0.00 in0.0 mm 0.00 in0.0 mm
03:28 AM 75.9°F24.4°C 68.6°F20.3°C 78% 3.8 mph NNE6.1 kmh NNE 8.3 mph13.4 kmh 29.70 in1005.8 mb 0.00 in0.0 mm 0.00 in0.0 mm 0.00 in0.0 mm
03:29 AM 75.9°F24.4°C 68.6°F20.3°C 78% 3.1 mph NNE5.0 kmh NNE 8.3 mph13.4 kmh 29.70 in1005.8 mb 0.00 in0.0 mm 0.00 in0.0 mm 0.00 in0.0 mm
03:30 AM 75.9°F24.4°C 68.6°F20.3°C 78% 6.9 mph NNE11.1 kmh NNE 8.3 mph13.4 kmh 29.69 in1005.4 mb 0.00 in0.0 mm 0.00 in0.0 mm 0.00 in0.0 mm
03:31 AM 75.9°F24.4°C 68.6°F20.3°C 78% 5.4 mph NNE8.7 kmh NNE 8.3 mph13.4 kmh 29.69 in1005.4 mb 0.00 in0.0 mm 0.00 in0.0 mm 0.00 in0.0 mm
03:32 AM 75.9°F24.4°C 68.6°F20.3°C 78% 5.4 mph NNE8.7 kmh NNE 8.3 mph13.4 kmh 29.70 in1005.8 mb 0.00 in0.0 mm 0.00 in0.0 mm 0.00 in0.0 mm
03:33 AM 75.9°F24.4°C 68.6°F20.3°C 78% 3.8 mph NNE6.1 kmh NNE 8.3 mph13.4 kmh 29.70 in1005.8 mb 0.00 in0.0 mm 0.00 in0.0 mm 0.00 in0.0 mm
03:34 AM 75.9°F24.4°C 68.6°F20.3°C 78% 3.8 mph N6.1 kmh N 8.3 mph13.4 kmh 29.69 in1005.4 mb 0.00 in0.0 mm 0.00 in0.0 mm 0.00 in0.0 mm
03:35 AM 75.9°F24.4°C 68.6°F20.3°C 78% 4.5 mph N7.2 kmh N 8.3 mph13.4 kmh 29.70 in1005.8 mb 0.00 in0.0 mm 0.00 in0.0 mm 0.00 in0.0 mm
03:36 AM 75.9°F24.4°C 68.6°F20.3°C 78% 5.4 mph N8.7 kmh N 8.3 mph13.4 kmh 29.70 in1005.8 mb 0.00 in0.0 mm 0.00 in0.0 mm 0.00 in0.0 mm
03:37 AM 75.9°F24.4°C 68.6°F20.3°C 78% 3.1 mph N5.0 kmh N 8.3 mph13.4 kmh 29.69 in1005.4 mb 0.00 in0.0 mm 0.00 in0.0 mm 0.00 in0.0 mm
03:38 AM 75.9°F24.4°C 68.6°F20.3°C 78% 4.5 mph N7.2 kmh N 8.3 mph13.4 kmh 29.69 in1005.4 mb 0.00 in0.0 mm 0.00 in0.0 mm 0.00 in0.0 mm
03:39 AM 75.7°F24.3°C 68.4°F20.2°C 78% 4.5 mph N7.2 kmh N 8.3 mph13.4 kmh 29.69 in1005.4 mb 0.00 in0.0 mm 0.00 in0.0 mm 0.00 in0.0 mm
03:40 AM 75.7°F24.3°C 68.4°F20.2°C 78% 4.5 mph N7.2 kmh N 8.3 mph13.4 kmh 29.69 in1005.4 mb 0.00 in0.0 mm 0.00 in0.0 mm 0.00 in0.0 mm
03:41 AM 75.7°F24.3°C 68.1°F20.1°C 77% 5.4 mph N8.7 kmh N 7.6 mph12.2 kmh 29.70 in1005.8 mb 0.00 in0.0 mm 0.00 in0.0 mm 0.00 in0.0 mm
03:42 AM 75.7°F24.3°C 68.1°F20.1°C 77% 4.5 mph N7.2 kmh N 7.6 mph12.2 kmh 29.69 in1005.4 mb 0.00 in0.0 mm 0.00 in0.0 mm 0.00 in0.0 mm
03:43 AM 75.7°F24.3°C 68.1°F20.1°C 77% 6.0 mph N9.7 kmh N 8.3 mph13.4 kmh 29.70 in1005.8 mb 0.00 in0.0 mm 0.00 in0.0 mm 0.00 in0.0 mm
03:44 AM 75.7°F24.3°C 68.1°F20.1°C 77% 4.5 mph N7.2 kmh N 8.3 mph13.4 kmh 29.69 in1005.4 mb 0.00 in0.0 mm 0.00 in0.0 mm 0.00 in0.0 mm
03:45 AM 75.7°F24.3°C 68.1°F20.1°C 77% 5.4 mph N8.7 kmh N 8.3 mph13.4 kmh 29.69 in1005.4 mb 0.00 in0.0 mm 0.00 in0.0 mm 0.00 in0.0 mm
03:46 AM 75.7°F24.3°C 68.1°F20.1°C 77% 4.5 mph N7.2 kmh N 8.3 mph13.4 kmh 29.70 in1005.8 mb 0.00 in0.0 mm 0.00 in0.0 mm 0.00 in0.0 mm
03:47 AM 75.7°F24.3°C 68.1°F20.1°C 77% 4.5 mph N7.2 kmh N 8.3 mph13.4 kmh 29.69 in1005.4 mb 0.00 in0.0 mm 0.00 in0.0 mm 0.00 in0.0 mm
03:48 AM 75.7°F24.3°C 68.1°F20.1°C 77% 4.5 mph N7.2 kmh N 8.3 mph13.4 kmh 29.70 in1005.8 mb 0.00 in0.0 mm 0.00 in0.0 mm 0.00 in0.0 mm
03:49 AM 75.7°F24.3°C 68.1°F20.1°C 77% 3.8 mph N6.1 kmh N 8.3 mph13.4 kmh 29.70 in1005.8 mb 0.00 in0.0 mm 0.00 in0.0 mm 0.00 in0.0 mm
03:50 AM 75.7°F24.3°C 68.1°F20.1°C 77% 5.4 mph N8.7 kmh N 9.2 mph14.8 kmh 29.70 in1005.8 mb 0.00 in0.0 mm 0.00 in0.0 mm 0.00 in0.0 mm
03:51 AM 75.7°F24.3°C 68.1°F20.1°C 77% 6.0 mph N9.7 kmh N 9.2 mph14.8 kmh 29.70 in1005.8 mb 0.00 in0.0 mm 0.00 in0.0 mm 0.00 in0.0 mm
03:52 AM 75.7°F24.3°C 68.1°F20.1°C 77% 1.6 mph N2.6 kmh N 9.2 mph14.8 kmh 29.69 in1005.4 mb 0.00 in0.0 mm 0.00 in0.0 mm 0.00 in0.0 mm
03:53 AM 75.7°F24.3°C 68.1°F20.1°C 77% 5.4 mph N8.7 kmh N 9.2 mph14.8 kmh 29.69 in1005.4 mb 0.00 in0.0 mm 0.00 in0.0 mm 0.00 in0.0 mm
03:54 AM 75.6°F24.2°C 67.9°F19.9°C 77% 4.5 mph N7.2 kmh N 9.2 mph14.8 kmh 29.70 in1005.8 mb 0.00 in0.0 mm 0.00 in0.0 mm 0.00 in0.0 mm
03:55 AM 75.6°F24.2°C 67.9°F19.9°C 77% 5.4 mph N8.7 kmh N 9.2 mph14.8 kmh 29.69 in1005.4 mb 0.00 in0.0 mm 0.00 in0.0 mm 0.00 in0.0 mm
03:56 AM 75.6°F24.2°C 67.9°F19.9°C 77% 6.0 mph N9.7 kmh N 9.2 mph14.8 kmh 29.69 in1005.4 mb 0.00 in0.0 mm 0.00 in0.0 mm 0.00 in0.0 mm
03:57 AM 75.6°F24.2°C 67.9°F19.9°C 77% 5.4 mph N8.7 kmh N 9.2 mph14.8 kmh 29.69 in1005.4 mb 0.00 in0.0 mm 0.00 in0.0 mm 0.00 in0.0 mm
03:58 AM 75.6°F24.2°C 67.9°F19.9°C 77% 5.4 mph N8.7 kmh N 9.8 mph15.8 kmh 29.69 in1005.4 mb 0.00 in0.0 mm 0.00 in0.0 mm 0.00 in0.0 mm
03:59 AM 75.6°F24.2°C 67.9°F19.9°C 77% 4.5 mph N7.2 kmh N 9.8 mph15.8 kmh 29.70 in1005.8 mb 0.00 in0.0 mm 0.00 in0.0 mm 0.00 in0.0 mm
04:00 AM 75.6°F24.2°C 67.9°F19.9°C 77% 4.5 mph N7.2 kmh N 9.8 mph15.8 kmh 29.70 in1005.8 mb 0.00 in0.0 mm 0.00 in0.0 mm 0.00 in0.0 mm
04:01 AM 75.6°F24.2°C 67.9°F19.9°C 77% 6.0 mph N9.7 kmh N 9.8 mph15.8 kmh 29.70 in1005.8 mb 0.00 in0.0 mm 0.00 in0.0 mm 0.00 in0.0 mm
04:02 AM 75.6°F24.2°C 67.9°F19.9°C 77% 3.8 mph N6.1 kmh N 9.8 mph15.8 kmh 29.70 in1005.8 mb 0.00 in0.0 mm 0.00 in0.0 mm 0.00 in0.0 mm
04:03 AM 75.6°F24.2°C 67.9°F19.9°C 77% 3.8 mph N6.1 kmh N 9.8 mph15.8 kmh 29.69 in1005.4 mb 0.00 in0.0 mm 0.00 in0.0 mm 0.00 in0.0 mm
04:04 AM 75.6°F24.2°C 67.9°F19.9°C 77% 5.4 mph N8.7 kmh N 9.8 mph15.8 kmh 29.69 in1005.4 mb 0.00 in0.0 mm 0.00 in0.0 mm 0.00 in0.0 mm
04:05 AM 75.6°F24.2°C 67.9°F19.9°C 77% 4.5 mph N7.2 kmh N 9.8 mph15.8 kmh 29.70 in1005.8 mb 0.00 in0.0 mm 0.00 in0.0 mm 0.00 in0.0 mm
04:06 AM 75.4°F24.1°C 67.7°F19.8°C 77% 4.5 mph N7.2 kmh N 9.8 mph15.8 kmh 29.69 in1005.4 mb 0.00 in0.0 mm 0.00 in0.0 mm 0.00 in0.0 mm
04:07 AM 75.4°F24.1°C 67.7°F19.8°C 77% 4.5 mph N7.2 kmh N 9.8 mph15.8 kmh 29.69 in1005.4 mb 0.00 in0.0 mm 0.00 in0.0 mm 0.00 in0.0 mm
04:08 AM 75.4°F24.1°C 67.7°F19.8°C 77% 4.5 mph N7.2 kmh N 9.8 mph15.8 kmh 29.70 in1005.8 mb 0.00 in0.0 mm 0.00 in0.0 mm 0.00 in0.0 mm
04:09 AM 75.4°F24.1°C 67.7°F19.8°C 77% 4.5 mph N7.2 kmh N 9.8 mph15.8 kmh 29.70 in1005.8 mb 0.00 in0.0 mm 0.00 in0.0 mm 0.00 in0.0 mm
04:10 AM 75.4°F24.1°C 67.7°F19.8°C 77% 3.8 mph NNE6.1 kmh NNE 9.8 mph15.8 kmh 29.70 in1005.8 mb 0.00 in0.0 mm 0.00 in0.0 mm 0.00 in0.0 mm
04:11 AM 75.4°F24.1°C 67.7°F19.8°C 77% 4.5 mph N7.2 kmh N 9.8 mph15.8 kmh 29.70 in1005.8 mb 0.00 in0.0 mm 0.00 in0.0 mm 0.00 in0.0 mm
04:12 AM 75.2°F24.0°C 67.5°F19.7°C 77% 3.1 mph NNE5.0 kmh NNE 9.2 mph14.8 kmh 29.70 in1005.8 mb 0.00 in0.0 mm 0.00 in0.0 mm 0.00 in0.0 mm
04:13 AM 75.2°F24.0°C 67.5°F19.7°C 77% 3.1 mph N5.0 kmh N 9.2 mph14.8 kmh 29.70 in1005.8 mb 0.00 in0.0 mm 0.00 in0.0 mm 0.00 in0.0 mm
04:14 AM 75.2°F24.0°C 67.5°F19.7°C 77% 3.1 mph N5.0 kmh N 9.2 mph14.8 kmh 29.70 in1005.8 mb 0.00 in0.0 mm 0.00 in0.0 mm 0.00 in0.0 mm
04:15 AM 75.2°F24.0°C 67.5°F19.7°C 77% 3.8 mph NNE6.1 kmh NNE 9.2 mph14.8 kmh 29.70 in1005.8 mb 0.00 in0.0 mm 0.00 in0.0 mm 0.00 in0.0 mm
04:16 AM 75.2°F24.0°C 67.5°F19.7°C 77% 3.8 mph NNE6.1 kmh NNE 9.2 mph14.8 kmh 29.70 in1005.8 mb 0.00 in0.0 mm 0.00 in0.0 mm 0.00 in0.0 mm
04:17 AM 75.2°F24.0°C 67.5°F19.7°C 77% 3.1 mph NNE5.0 kmh NNE 9.2 mph14.8 kmh 29.70 in1005.8 mb 0.00 in0.0 mm 0.00 in0.0 mm 0.00 in0.0 mm
04:18 AM 75.0°F23.9°C 67.7°F19.8°C 78% 5.4 mph NNE8.7 kmh NNE 7.6 mph12.2 kmh 29.70 in1005.8 mb 0.00 in0.0 mm 0.00 in0.0 mm 0.00 in0.0 mm
04:19 AM 75.0°F23.9°C 67.7°F19.8°C 78% 5.4 mph NNE8.7 kmh NNE 7.6 mph12.2 kmh 29.70 in1005.8 mb 0.00 in0.0 mm 0.00 in0.0 mm 0.00 in0.0 mm
04:20 AM 75.0°F23.9°C 67.7°F19.8°C 78% 3.8 mph NNE6.1 kmh NNE 7.6 mph12.2 kmh 29.70 in1005.8 mb 0.00 in0.0 mm 0.00 in0.0 mm 0.00 in0.0 mm
04:21 AM 75.0°F23.9°C 68.1°F20.1°C 79% 6.0 mph NNE9.7 kmh NNE 8.3 mph13.4 kmh 29.70 in1005.8 mb 0.00 in0.0 mm 0.00 in0.0 mm 0.00 in0.0 mm
04:22 AM 75.0°F23.9°C 68.1°F20.1°C 79% 3.8 mph N6.1 kmh N 8.3 mph13.4 kmh 29.69 in1005.4 mb 0.00 in0.0 mm 0.00 in0.0 mm 0.00 in0.0 mm
04:23 AM 75.0°F23.9°C 68.1°F20.1°C 79% 3.1 mph N5.0 kmh N 8.3 mph13.4 kmh 29.70 in1005.8 mb 0.00 in0.0 mm 0.00 in0.0 mm 0.00 in0.0 mm
04:24 AM 75.0°F23.9°C 68.1°F20.1°C 79% 3.1 mph NNE5.0 kmh NNE 8.3 mph13.4 kmh 29.70 in1005.8 mb 0.00 in0.0 mm 0.00 in0.0 mm 0.00 in0.0 mm
04:25 AM 75.0°F23.9°C 68.1°F20.1°C 79% 3.8 mph NNE6.1 kmh NNE 8.3 mph13.4 kmh 29.69 in1005.4 mb 0.00 in0.0 mm 0.00 in0.0 mm 0.00 in0.0 mm
04:26 AM 75.0°F23.9°C 68.1°F20.1°C 79% 5.4 mph NNE8.7 kmh NNE 8.3 mph13.4 kmh 29.70 in1005.8 mb 0.00 in0.0 mm 0.00 in0.0 mm 0.00 in0.0 mm
04:27 AM 75.0°F23.9°C 68.1°F20.1°C 79% 3.8 mph N6.1 kmh N 8.3 mph13.4 kmh 29.69 in1005.4 mb 0.00 in0.0 mm 0.00 in0.0 mm 0.00 in0.0 mm
04:28 AM 75.0°F23.9°C 68.1°F20.1°C 79% 3.1 mph N5.0 kmh N 8.3 mph13.4 kmh 29.70 in1005.8 mb 0.00 in0.0 mm 0.00 in0.0 mm 0.00 in0.0 mm
04:29 AM 75.0°F23.9°C 68.1°F20.1°C 79% 6.0 mph NNE9.7 kmh NNE 8.3 mph13.4 kmh 29.69 in1005.4 mb 0.00 in0.0 mm 0.00 in0.0 mm 0.00 in0.0 mm
04:30 AM 74.8°F23.8°C 67.9°F19.9°C 79% 3.8 mph NNE6.1 kmh NNE 8.3 mph13.4 kmh 29.70 in1005.8 mb 0.00 in0.0 mm 0.00 in0.0 mm 0.00 in0.0 mm
04:31 AM 74.8°F23.8°C 67.9°F19.9°C 79% 5.4 mph NNE8.7 kmh NNE 7.6 mph12.2 kmh 29.70 in1005.8 mb 0.00 in0.0 mm 0.00 in0.0 mm 0.00 in0.0 mm
04:32 AM 74.8°F23.8°C 67.9°F19.9°C 79% 5.4 mph NNE8.7 kmh NNE 7.6 mph12.2 kmh 29.70 in1005.8 mb 0.00 in0.0 mm 0.00 in0.0 mm 0.00 in0.0 mm
04:33 AM 74.8°F23.8°C 67.9°F19.9°C 79% 3.8 mph NNE6.1 kmh NNE 7.6 mph12.2 kmh 29.70 in1005.8 mb 0.00 in0.0 mm 0.00 in0.0 mm 0.00 in0.0 mm
04:34 AM 74.8°F23.8°C 67.9°F19.9°C 79% 3.1 mph NNE5.0 kmh NNE 7.6 mph12.2 kmh 29.69 in1005.4 mb 0.00 in0.0 mm 0.00 in0.0 mm 0.00 in0.0 mm
04:35 AM 74.8°F23.8°C 67.9°F19.9°C 79% 4.5 mph NNE7.2 kmh NNE 7.6 mph12.2 kmh 29.69 in1005.4 mb 0.00 in0.0 mm 0.00 in0.0 mm 0.00 in0.0 mm
04:36 AM 74.8°F23.8°C 67.9°F19.9°C 79% 5.4 mph NNE8.7 kmh NNE 7.6 mph12.2 kmh 29.70 in1005.8 mb 0.00 in0.0 mm 0.00 in0.0 mm 0.00 in0.0 mm
04:37 AM 74.8°F23.8°C 67.9°F19.9°C 79% 2.2 mph NNE3.5 kmh NNE 7.6 mph12.2 kmh 29.70 in1005.8 mb 0.00 in0.0 mm 0.00 in0.0 mm 0.00 in0.0 mm
04:38 AM 74.8°F23.8°C 67.9°F19.9°C 79% 4.5 mph NNE7.2 kmh NNE 7.6 mph12.2 kmh 29.70 in1005.8 mb 0.00 in0.0 mm 0.00 in0.0 mm 0.00 in0.0 mm
04:39 AM 74.8°F23.8°C 67.9°F19.9°C 79% 4.5 mph NNE7.2 kmh NNE 8.3 mph13.4 kmh 29.70 in1005.8 mb 0.00 in0.0 mm 0.00 in0.0 mm 0.00 in0.0 mm
04:40 AM 74.8°F23.8°C 67.9°F19.9°C 79% 5.4 mph NNE8.7 kmh NNE 8.3 mph13.4 kmh 29.69 in1005.4 mb 0.00 in0.0 mm 0.00 in0.0 mm 0.00 in0.0 mm
04:41 AM 74.8°F23.8°C 67.9°F19.9°C 79% 3.8 mph NNE6.1 kmh NNE 8.3 mph13.4 kmh 29.70 in1005.8 mb 0.00 in0.0 mm 0.00 in0.0 mm 0.00 in0.0 mm
04:42 AM 74.8°F23.8°C 67.9°F19.9°C 79% 5.4 mph N8.7 kmh N 8.3 mph13.4 kmh 29.70 in1005.8 mb 0.00 in0.0 mm 0.00 in0.0 mm 0.00 in0.0 mm
04:43 AM 74.8°F23.8°C 67.9°F19.9°C 79% 5.4 mph N8.7 kmh N 8.3 mph13.4 kmh 29.70 in1005.8 mb 0.00 in0.0 mm 0.00 in0.0 mm 0.00 in0.0 mm
04:44 AM 74.8°F23.8°C 67.9°F19.9°C 79% 4.5 mph N7.2 kmh N 8.3 mph13.4 kmh 29.69 in1005.4 mb 0.00 in0.0 mm 0.00 in0.0 mm 0.00 in0.0 mm
04:45 AM 74.8°F23.8°C 67.9°F19.9°C 79% 3.8 mph N6.1 kmh N 8.3 mph13.4 kmh 29.69 in1005.4 mb 0.00 in0.0 mm 0.00 in0.0 mm 0.00 in0.0 mm
04:46 AM 74.8°F23.8°C 67.9°F19.9°C 79% 4.5 mph N7.2 kmh N 8.3 mph13.4 kmh 29.69 in1005.4 mb 0.00 in0.0 mm 0.00 in0.0 mm 0.00 in0.0 mm
04:47 AM 74.8°F23.8°C 67.9°F19.9°C 79% 4.5 mph N7.2 kmh N 8.3 mph13.4 kmh 29.69 in1005.4 mb 0.00 in0.0 mm 0.00 in0.0 mm 0.00 in0.0 mm
04:48 AM 74.8°F23.8°C 67.9°F19.9°C 79% 4.5 mph N7.2 kmh N 8.3 mph13.4 kmh 29.70 in1005.8 mb 0.00 in0.0 mm 0.00 in0.0 mm 0.00 in0.0 mm
04:49 AM 74.8°F23.8°C 67.9°F19.9°C 79% 5.4 mph N8.7 kmh N 8.3 mph13.4 kmh 29.70 in1005.8 mb 0.00 in0.0 mm 0.00 in0.0 mm 0.00 in0.0 mm
04:50 AM 74.8°F23.8°C 67.9°F19.9°C 79% 4.5 mph N7.2 kmh N 8.3 mph13.4 kmh 29.69 in1005.4 mb 0.00 in0.0 mm 0.00 in0.0 mm 0.00 in0.0 mm
04:51 AM 74.8°F23.8°C 67.9°F19.9°C 79% 3.8 mph N6.1 kmh N 8.3 mph13.4 kmh 29.70 in1005.8 mb 0.00 in0.0 mm 0.00 in0.0 mm 0.00 in0.0 mm
04:52 AM 74.8°F23.8°C 67.9°F19.9°C 79% 3.8 mph N6.1 kmh N 8.3 mph13.4 kmh 29.70 in1005.8 mb 0.00 in0.0 mm 0.00 in0.0 mm 0.00 in0.0 mm
04:53 AM 74.8°F23.8°C 67.9°F19.9°C 79% 4.5 mph N7.2 kmh N 8.3 mph13.4 kmh 29.70 in1005.8 mb 0.00 in0.0 mm 0.00 in0.0 mm 0.00 in0.0 mm
04:54 AM 75.0°F23.9°C 68.5°F20.3°C 80% 7.6 mph N12.2 kmh N 10.7 mph17.2 kmh 29.70 in1005.8 mb 0.00 in0.0 mm 0.00 in0.0 mm 0.00 in0.0 mm
04:55 AM 75.0°F23.9°C 68.5°F20.3°C 80% 4.5 mph N7.2 kmh N 10.7 mph17.2 kmh 29.70 in1005.8 mb 0.00 in0.0 mm 0.00 in0.0 mm 0.00 in0.0 mm
04:56 AM 75.0°F23.9°C 68.5°F20.3°C 80% 6.9 mph N11.1 kmh N 10.7 mph17.2 kmh 29.70 in1005.8 mb 0.00 in0.0 mm 0.00 in0.0 mm 0.00 in0.0 mm
04:57 AM 75.0°F23.9°C 68.5°F20.3°C 80% 4.5 mph N7.2 kmh N 10.7 mph17.2 kmh 29.70 in1005.8 mb 0.00 in0.0 mm 0.00 in0.0 mm 0.00 in0.0 mm
04:58 AM 75.0°F23.9°C 68.5°F20.3°C 80% 6.9 mph N11.1 kmh N 10.7 mph17.2 kmh 29.70 in1005.8 mb 0.00 in0.0 mm 0.00 in0.0 mm 0.00 in0.0 mm
04:59 AM 75.0°F23.9°C 68.5°F20.3°C 80% 6.0 mph N9.7 kmh N 10.7 mph17.2 kmh 29.70 in1005.8 mb 0.00 in0.0 mm 0.00 in0.0 mm 0.00 in0.0 mm
05:00 AM 75.0°F23.9°C 68.5°F20.3°C 80% 3.8 mph N6.1 kmh N 10.7 mph17.2 kmh 29.70 in1005.8 mb 0.00 in0.0 mm 0.00 in0.0 mm 0.00 in0.0 mm
05:01 AM 75.0°F23.9°C 68.5°F20.3°C 80% 3.1 mph N5.0 kmh N 10.7 mph17.2 kmh 29.70 in1005.8 mb 0.00 in0.0 mm 0.00 in0.0 mm 0.00 in0.0 mm
05:02 AM 75.0°F23.9°C 68.5°F20.3°C 80% 6.0 mph N9.7 kmh N 10.7 mph17.2 kmh 29.70 in1005.8 mb 0.00 in0.0 mm 0.00 in0.0 mm 0.00 in0.0 mm
05:03 AM 75.0°F23.9°C 68.5°F20.3°C 80% 5.4 mph N8.7 kmh N 10.7 mph17.2 kmh 29.70 in1005.8 mb 0.00 in0.0 mm 0.00 in0.0 mm 0.00 in0.0 mm
05:04 AM 75.0°F23.9°C 68.5°F20.3°C 80% 4.5 mph N7.2 kmh N 10.7 mph17.2 kmh 29.70 in1005.8 mb 0.00 in0.0 mm 0.00 in0.0 mm 0.00 in0.0 mm
05:05 AM 75.0°F23.9°C 68.5°F20.3°C 80% 6.0 mph N9.7 kmh N 10.7 mph17.2 kmh 29.70 in1005.8 mb 0.00 in0.0 mm 0.00 in0.0 mm 0.00 in0.0 mm
05:06 AM 75.0°F23.9°C 68.5°F20.3°C 80% 6.0 mph N9.7 kmh N 9.2 mph14.8 kmh 29.70 in1005.8 mb 0.00 in0.0 mm 0.00 in0.0 mm 0.00 in0.0 mm
05:07 AM 75.0°F23.9°C 68.5°F20.3°C 80% 5.4 mph N8.7 kmh N 9.2 mph14.8 kmh 29.70 in1005.8 mb 0.00 in0.0 mm 0.00 in0.0 mm 0.00 in0.0 mm
05:08 AM 75.0°F23.9°C 68.5°F20.3°C 80% 3.8 mph N6.1 kmh N 9.2 mph14.8 kmh 29.70 in1005.8 mb 0.00 in0.0 mm 0.00 in0.0 mm 0.00 in0.0 mm
05:09 AM 74.8°F23.8°C 68.3°F20.2°C 80% 5.4 mph N8.7 kmh N 9.2 mph14.8 kmh 29.70 in1005.8 mb 0.00 in0.0 mm 0.00 in0.0 mm 0.00 in0.0 mm
05:10 AM 74.8°F23.8°C 68.3°F20.2°C 80% 5.4 mph N8.7 kmh N 9.2 mph14.8 kmh 29.70 in1005.8 mb 0.00 in0.0 mm 0.00 in0.0 mm 0.00 in0.0 mm
05:11 AM 74.8°F23.8°C 68.3°F20.2°C 80% 3.8 mph N6.1 kmh N 9.2 mph14.8 kmh 29.70 in1005.8 mb 0.00 in0.0 mm 0.00 in0.0 mm 0.00 in0.0 mm
05:12 AM 74.8°F23.8°C 68.3°F20.2°C 80% 4.5 mph N7.2 kmh N 9.2 mph14.8 kmh 29.70 in1005.8 mb 0.00 in0.0 mm 0.00 in0.0 mm 0.00 in0.0 mm
05:13 AM 74.7°F23.7°C 68.1°F20.1°C 80% 4.5 mph N7.2 kmh N 9.2 mph14.8 kmh 29.70 in1005.8 mb 0.00 in0.0 mm 0.00 in0.0 mm 0.00 in0.0 mm
05:14 AM 74.7°F23.7°C 68.1°F20.1°C 80% 3.1 mph N5.0 kmh N 9.2 mph14.8 kmh 29.70 in1005.8 mb 0.00 in0.0 mm 0.00 in0.0 mm 0.00 in0.0 mm
05:15 AM 74.7°F23.7°C 68.1°F20.1°C 80% 5.4 mph N8.7 kmh N 9.2 mph14.8 kmh 29.70 in1005.8 mb 0.00 in0.0 mm 0.00 in0.0 mm 0.00 in0.0 mm
05:16 AM 74.7°F23.7°C 68.1°F20.1°C 80% 6.0 mph N9.7 kmh N 9.2 mph14.8 kmh 29.70 in1005.8 mb 0.00 in0.0 mm 0.00 in0.0 mm 0.00 in0.0 mm
05:17 AM 74.7°F23.7°C 68.1°F20.1°C 80% 4.5 mph N7.2 kmh N 9.2 mph14.8 kmh 29.70 in1005.8 mb 0.00 in0.0 mm 0.00 in0.0 mm 0.00 in0.0 mm
05:18 AM 74.7°F23.7°C 68.1°F20.1°C 80% 4.5 mph N7.2 kmh N 9.8 mph15.8 kmh 29.70 in1005.8 mb 0.00 in0.0 mm 0.00 in0.0 mm 0.00 in0.0 mm
05:19 AM 74.7°F23.7°C 68.1°F20.1°C 80% 5.4 mph N8.7 kmh N 9.8 mph15.8 kmh 29.70 in1005.8 mb 0.00 in0.0 mm 0.00 in0.0 mm 0.00 in0.0 mm
05:20 AM 74.7°F23.7°C 68.1°F20.1°C 80% 3.8 mph N6.1 kmh N 9.8 mph15.8 kmh 29.70 in1005.8 mb 0.00 in0.0 mm 0.00 in0.0 mm 0.00 in0.0 mm
05:21 AM 74.7°F23.7°C 68.1°F20.1°C 80% 3.8 mph N6.1 kmh N 9.8 mph15.8 kmh 29.70 in1005.8 mb 0.00 in0.0 mm 0.00 in0.0 mm 0.00 in0.0 mm
05:22 AM 74.7°F23.7°C 68.5°F20.3°C 81% 6.0 mph N9.7 kmh N 9.8 mph15.8 kmh 29.70 in1005.8 mb 0.00 in0.0 mm 0.00 in0.0 mm 0.00 in0.0 mm
05:23 AM 74.7°F23.7°C 68.5°F20.3°C 81% 5.4 mph N8.7 kmh N 9.8 mph15.8 kmh 29.71 in1006.1 mb 0.00 in0.0 mm 0.00 in0.0 mm 0.00 in0.0 mm
05:24 AM 74.7°F23.7°C 68.5°F20.3°C 81% 6.0 mph N9.7 kmh N 9.8 mph15.8 kmh 29.70 in1005.8 mb 0.00 in0.0 mm 0.00 in0.0 mm 0.00 in0.0 mm
05:25 AM 74.7°F23.7°C 68.5°F20.3°C 81% 6.0 mph N9.7 kmh N 9.8 mph15.8 kmh 29.70 in1005.8 mb 0.00 in0.0 mm 0.00 in0.0 mm 0.00 in0.0 mm
05:26 AM 74.7°F23.7°C 68.5°F20.3°C 81% 5.4 mph N8.7 kmh N 9.8 mph15.8 kmh 29.70 in1005.8 mb 0.00 in0.0 mm 0.00 in0.0 mm 0.00 in0.0 mm
05:27 AM 74.7°F23.7°C 68.5°F20.3°C 81% 4.5 mph N7.2 kmh N 9.8 mph15.8 kmh 29.70 in1005.8 mb 0.00 in0.0 mm 0.00 in0.0 mm 0.00 in0.0 mm
05:28 AM 74.7°F23.7°C 68.5°F20.3°C 81% 7.6 mph N12.2 kmh N 9.2 mph14.8 kmh 29.70 in1005.8 mb 0.00 in0.0 mm 0.00 in0.0 mm 0.00 in0.0 mm
05:29 AM 74.7°F23.7°C 68.5°F20.3°C 81% 5.4 mph N8.7 kmh N 9.2 mph14.8 kmh 29.70 in1005.8 mb 0.00 in0.0 mm 0.00 in0.0 mm 0.00 in0.0 mm
05:30 AM 74.7°F23.7°C 68.5°F20.3°C 81% 3.8 mph N6.1 kmh N 9.2 mph14.8 kmh 29.71 in1006.1 mb 0.00 in0.0 mm 0.00 in0.0 mm 0.00 in0.0 mm
05:31 AM 74.7°F23.7°C 68.5°F20.3°C 81% 3.8 mph N6.1 kmh N 9.2 mph14.8 kmh 29.70 in1005.8 mb 0.00 in0.0 mm 0.00 in0.0 mm 0.00 in0.0 mm
05:32 AM 74.7°F23.7°C 68.5°F20.3°C 81% 6.9 mph N11.1 kmh N 9.2 mph14.8 kmh 29.70 in1005.8 mb 0.00 in0.0 mm 0.00 in0.0 mm 0.00 in0.0 mm
05:33 AM 74.7°F23.7°C 68.5°F20.3°C 81% 6.0 mph N9.7 kmh N 9.2 mph14.8 kmh 29.70 in1005.8 mb 0.00 in0.0 mm 0.00 in0.0 mm 0.00 in0.0 mm
05:34 AM 74.7°F23.7°C 68.8°F20.4°C 82% 3.8 mph N6.1 kmh N 9.2 mph14.8 kmh 29.71 in1006.1 mb 0.00 in0.0 mm 0.00 in0.0 mm 0.00 in0.0 mm
05:35 AM 74.7°F23.7°C 68.8°F20.4°C 82% 5.4 mph NNE8.7 kmh NNE 9.2 mph14.8 kmh 29.70 in1005.8 mb 0.00 in0.0 mm 0.00 in0.0 mm 0.00 in0.0 mm
05:36 AM 74.7°F23.7°C 68.8°F20.4°C 82% 4.5 mph NNE7.2 kmh NNE 9.2 mph14.8 kmh 29.70 in1005.8 mb 0.00 in0.0 mm 0.00 in0.0 mm 0.00 in0.0 mm
05:37 AM 74.7°F23.7°C 68.8°F20.4°C 82% 6.0 mph N9.7 kmh N 9.8 mph15.8 kmh 29.71 in1006.1 mb 0.00 in0.0 mm 0.00 in0.0 mm 0.00 in0.0 mm
05:38 AM 74.7°F23.7°C 68.8°F20.4°C 82% 3.8 mph NNE6.1 kmh NNE 9.8 mph15.8 kmh 29.71 in1006.1 mb 0.00 in0.0 mm 0.00 in0.0 mm 0.00 in0.0 mm
05:39 AM 74.3°F23.5°C 68.5°F20.3°C 82% 4.5 mph N7.2 kmh N 9.8 mph15.8 kmh 29.71 in1006.1 mb 0.00 in0.0 mm 0.00 in0.0 mm 0.00 in0.0 mm
05:40 AM 74.3°F23.5°C 68.5°F20.3°C 82% 4.5 mph N7.2 kmh N 9.8 mph15.8 kmh 29.71 in1006.1 mb 0.00 in0.0 mm 0.00 in0.0 mm 0.00 in0.0 mm
05:41 AM 74.3°F23.5°C 68.5°F20.3°C 82% 6.9 mph N11.1 kmh N 9.8 mph15.8 kmh 29.71 in1006.1 mb 0.00 in0.0 mm 0.00 in0.0 mm 0.00 in0.0 mm
05:42 AM 74.3°F23.5°C 68.5°F20.3°C 82% 6.0 mph N9.7 kmh N 9.8 mph15.8 kmh 29.70 in1005.8 mb 0.00 in0.0 mm 0.00 in0.0 mm 0.00 in0.0 mm
05:43 AM 74.3°F23.5°C 68.5°F20.3°C 82% 6.0 mph N9.7 kmh N 9.8 mph15.8 kmh 29.70 in1005.8 mb 0.00 in0.0 mm 0.00 in0.0 mm 0.00 in0.0 mm
05:44 AM 74.3°F23.5°C 68.5°F20.3°C 82% 3.1 mph N5.0 kmh N 9.8 mph15.8 kmh 29.70 in1005.8 mb 0.00 in0.0 mm 0.00 in0.0 mm 0.00 in0.0 mm
05:45 AM 74.3°F23.5°C 68.5°F20.3°C 82% 3.8 mph N6.1 kmh N 9.8 mph15.8 kmh 29.70 in1005.8 mb 0.00 in0.0 mm 0.00 in0.0 mm 0.00 in0.0 mm
05:46 AM 74.3°F23.5°C 68.5°F20.3°C 82% 7.6 mph N12.2 kmh N 12.1 mph19.5 kmh 29.71 in1006.1 mb 0.00 in0.0 mm 0.00 in0.0 mm 0.00 in0.0 mm
05:47 AM 74.3°F23.5°C 68.5°F20.3°C 82% 6.9 mph N11.1 kmh N 12.1 mph19.5 kmh 29.71 in1006.1 mb 0.00 in0.0 mm 0.00 in0.0 mm 0.00 in0.0 mm
05:48 AM 74.3°F23.5°C 68.5°F20.3°C 82% 4.5 mph N7.2 kmh N 12.1 mph19.5 kmh 29.70 in1005.8 mb 0.00 in0.0 mm 0.00 in0.0 mm 0.00 in0.0 mm
05:49 AM 74.3°F23.5°C 68.5°F20.3°C 82% 4.5 mph N7.2 kmh N 12.1 mph19.5 kmh 29.70 in1005.8 mb 0.00 in0.0 mm 0.00 in0.0 mm 0.00 in0.0 mm
05:50 AM 74.3°F23.5°C 68.8°F20.4°C 83% 4.5 mph N7.2 kmh N 12.1 mph19.5 kmh 29.71 in1006.1 mb 0.00 in0.0 mm 0.00 in0.0 mm 0.00 in0.0 mm
05:51 AM 74.3°F23.5°C 68.8°F20.4°C 83% 4.5 mph N7.2 kmh N 12.1 mph19.5 kmh 29.71 in1006.1 mb 0.00 in0.0 mm 0.00 in0.0 mm 0.00 in0.0 mm
05:52 AM 74.3°F23.5°C 68.8°F20.4°C 83% 6.9 mph N11.1 kmh N 12.1 mph19.5 kmh 29.70 in1005.8 mb 0.00 in0.0 mm 0.00 in0.0 mm 0.00 in0.0 mm
05:53 AM 74.3°F23.5°C 68.8°F20.4°C 83% 5.4 mph N8.7 kmh N 12.1 mph19.5 kmh 29.71 in1006.1 mb 0.00 in0.0 mm 0.00 in0.0 mm 0.00 in0.0 mm
05:54 AM 74.3°F23.5°C 68.8°F20.4°C 83% 3.1 mph N5.0 kmh N 12.1 mph19.5 kmh 29.71 in1006.1 mb 0.00 in0.0 mm 0.00 in0.0 mm 0.00 in0.0 mm
05:55 AM 74.3°F23.5°C 68.8°F20.4°C 83% 4.5 mph N7.2 kmh N 12.1 mph19.5 kmh 29.70 in1005.8 mb 0.00 in0.0 mm 0.00 in0.0 mm 0.00 in0.0 mm
05:56 AM 74.3°F23.5°C 68.8°F20.4°C 83% 6.9 mph N11.1 kmh N 10.7 mph17.2 kmh 29.71 in1006.1 mb 0.00 in0.0 mm 0.00 in0.0 mm 0.00 in0.0 mm
05:57 AM 74.3°F23.5°C 68.8°F20.4°C 83% 3.8 mph N6.1 kmh N 10.7 mph17.2 kmh 29.71 in1006.1 mb 0.00 in0.0 mm 0.00 in0.0 mm 0.00 in0.0 mm
05:58 AM 74.3°F23.5°C 68.8°F20.4°C 83% 7.6 mph N12.2 kmh N 10.7 mph17.2 kmh 29.71 in1006.1 mb 0.00 in0.0 mm 0.00 in0.0 mm 0.00 in0.0 mm
05:59 AM 74.3°F23.5°C 68.8°F20.4°C 83% 4.5 mph N7.2 kmh N 10.7 mph17.2 kmh 29.71 in1006.1 mb 0.00 in0.0 mm 0.00 in0.0 mm 0.00 in0.0 mm
06:00 AM 74.3°F23.5°C 68.8°F20.4°C 83% 5.4 mph N8.7 kmh N 10.7 mph17.2 kmh 29.71 in1006.1 mb 0.00 in0.0 mm 0.00 in0.0 mm 0.00 in0.0 mm
06:01 AM 74.3°F23.5°C 68.8°F20.4°C 83% 3.8 mph N6.1 kmh N 10.7 mph17.2 kmh 29.71 in1006.1 mb 0.00 in0.0 mm 0.00 in0.0 mm 0.00 in0.0 mm
06:02 AM 74.3°F23.5°C 68.8°F20.4°C 83% 4.5 mph N7.2 kmh N 10.7 mph17.2 kmh 29.71 in1006.1 mb 0.00 in0.0 mm 0.00 in0.0 mm 0.00 in0.0 mm
06:03 AM 74.3°F23.5°C 68.8°F20.4°C 83% 6.9 mph N11.1 kmh N 10.7 mph17.2 kmh 29.71 in1006.1 mb 0.00 in0.0 mm 0.00 in0.0 mm 0.00 in0.0 mm
06:04 AM 74.3°F23.5°C 68.8°F20.4°C 83% 4.5 mph N7.2 kmh N 10.7 mph17.2 kmh 29.71 in1006.1 mb 0.00 in0.0 mm 0.00 in0.0 mm 0.00 in0.0 mm
06:05 AM 74.3°F23.5°C 68.8°F20.4°C 83% 5.4 mph N8.7 kmh N 10.7 mph17.2 kmh 29.71 in1006.1 mb 0.00 in0.0 mm 0.00 in0.0 mm 0.00 in0.0 mm
06:06 AM 74.3°F23.5°C 68.8°F20.4°C 83% 6.0 mph N9.7 kmh N 10.7 mph17.2 kmh 29.71 in1006.1 mb 0.00 in0.0 mm 0.00 in0.0 mm 0.00 in0.0 mm
06:07 AM 74.3°F23.5°C 68.8°F20.4°C 83% 3.8 mph N6.1 kmh N 9.8 mph15.8 kmh 29.71 in1006.1 mb 0.00 in0.0 mm 0.00 in0.0 mm 0.00 in0.0 mm
06:08 AM 74.3°F23.5°C 68.8°F20.4°C 83% 4.5 mph N7.2 kmh N 8.3 mph13.4 kmh 29.71 in1006.1 mb 0.00 in0.0 mm 0.00 in0.0 mm 0.00 in0.0 mm
06:09 AM 74.3°F23.5°C 68.8°F20.4°C 83% 5.4 mph N8.7 kmh N 8.3 mph13.4 kmh 29.71 in1006.1 mb 0.00 in0.0 mm 0.00 in0.0 mm 0.00 in0.0 mm
06:10 AM 74.3°F23.5°C 68.8°F20.4°C 83% 6.0 mph N9.7 kmh N 8.3 mph13.4 kmh 29.71 in1006.1 mb 0.00 in0.0 mm 0.00 in0.0 mm 0.00 in0.0 mm
06:11 AM 74.3°F23.5°C 69.2°F20.7°C 84% 6.0 mph N9.7 kmh N 8.3 mph13.4 kmh 29.71 in1006.1 mb 0.00 in0.0 mm 0.00 in0.0 mm 0.00 in0.0 mm
06:12 AM 74.3°F23.5°C 69.2°F20.7°C 84% 4.5 mph N7.2 kmh N 8.3 mph13.4 kmh 29.71 in1006.1 mb 0.00 in0.0 mm 0.00 in0.0 mm 0.00 in0.0 mm
06:13 AM 74.3°F23.5°C 69.2°F20.7°C 84% 3.1 mph N5.0 kmh N 8.3 mph13.4 kmh 29.71 in1006.1 mb 0.00 in0.0 mm 0.00 in0.0 mm 0.00 in0.0 mm
06:14 AM 74.3°F23.5°C 69.2°F20.7°C 84% 4.5 mph N7.2 kmh N 8.3 mph13.4 kmh 29.71 in1006.1 mb 0.00 in0.0 mm 0.00 in0.0 mm 0.00 in0.0 mm
06:15 AM 74.3°F23.5°C 69.2°F20.7°C 84% 3.8 mph N6.1 kmh N 8.3 mph13.4 kmh 29.71 in1006.1 mb 0.00 in0.0 mm 0.00 in0.0 mm 0.00 in0.0 mm
06:16 AM 74.3°F23.5°C 69.2°F20.7°C 84% 4.5 mph N7.2 kmh N 8.3 mph13.4 kmh 29.72 in1006.4 mb 0.00 in0.0 mm 0.00 in0.0 mm 0.00 in0.0 mm
06:17 AM 74.3°F23.5°C 69.2°F20.7°C 84% 6.0 mph N9.7 kmh N 8.3 mph13.4 kmh 29.71 in1006.1 mb 0.00 in0.0 mm 0.00 in0.0 mm 0.00 in0.0 mm
06:18 AM 74.7°F23.7°C 69.5°F20.8°C 84% 3.1 mph N5.0 kmh N 8.3 mph13.4 kmh 29.71 in1006.1 mb 0.00 in0.0 mm 0.00 in0.0 mm 0.00 in0.0 mm
06:19 AM 74.7°F23.7°C 69.5°F20.8°C 84% 5.4 mph N8.7 kmh N 8.3 mph13.4 kmh 29.71 in1006.1 mb 0.00 in0.0 mm 0.00 in0.0 mm 0.00 in0.0 mm
06:20 AM 74.7°F23.7°C 69.5°F20.8°C 84% 4.5 mph N7.2 kmh N 9.2 mph14.8 kmh 29.71 in1006.1 mb 0.00 in0.0 mm 0.00 in0.0 mm 0.00 in0.0 mm
06:21 AM 74.7°F23.7°C 69.5°F20.8°C 84% 6.0 mph N9.7 kmh N 9.2 mph14.8 kmh 29.71 in1006.1 mb 0.00 in0.0 mm 0.00 in0.0 mm 0.00 in0.0 mm
06:22 AM 74.7°F23.7°C 69.2°F20.7°C 83% 5.4 mph N8.7 kmh N 9.2 mph14.8 kmh 29.71 in1006.1 mb 0.00 in0.0 mm 0.00 in0.0 mm 0.00 in0.0 mm
06:23 AM 74.7°F23.7°C 69.2°F20.7°C 83% 6.0 mph N9.7 kmh N 10.7 mph17.2 kmh 29.71 in1006.1 mb 0.00 in0.0 mm 0.00 in0.0 mm 0.00 in0.0 mm
06:24 AM 74.7°F23.7°C 69.2°F20.7°C 83% 5.4 mph N8.7 kmh N 10.7 mph17.2 kmh 29.71 in1006.1 mb 0.00 in0.0 mm 0.00 in0.0 mm 0.00 in0.0 mm
06:25 AM 74.5°F23.6°C 69.0°F20.6°C 83% 6.0 mph N9.7 kmh N 10.7 mph17.2 kmh 29.71 in1006.1 mb 0.00 in0.0 mm 0.00 in0.0 mm 0.00 in0.0 mm
06:26 AM 74.7°F23.7°C 69.2°F20.7°C 83% 4.5 mph N7.2 kmh N 10.7 mph17.2 kmh 29.71 in1006.1 mb 0.00 in0.0 mm 0.00 in0.0 mm 0.00 in0.0 mm
06:27 AM 74.3°F23.5°C 68.8°F20.4°C 83% 7.6 mph N12.2 kmh N 12.1 mph19.5 kmh 29.72 in1006.4 mb 0.00 in0.0 mm 0.00 in0.0 mm 0.00 in0.0 mm
06:28 AM 74.3°F23.5°C 68.8°F20.4°C 83% 4.5 mph N7.2 kmh N 12.1 mph19.5 kmh 29.71 in1006.1 mb 0.00 in0.0 mm 0.00 in0.0 mm 0.00 in0.0 mm
06:29 AM 74.3°F23.5°C 68.8°F20.4°C 83% 6.9 mph N11.1 kmh N 12.1 mph19.5 kmh 29.72 in1006.4 mb 0.00 in0.0 mm 0.00 in0.0 mm 0.00 in0.0 mm
06:30 AM 74.7°F23.7°C 69.2°F20.7°C 83% 5.4 mph N8.7 kmh N 12.1 mph19.5 kmh 29.72 in1006.4 mb 0.00 in0.0 mm 0.00 in0.0 mm 0.00 in0.0 mm
06:31 AM 74.7°F23.7°C 69.2°F20.7°C 83% 6.0 mph N9.7 kmh N 12.1 mph19.5 kmh 29.71 in1006.1 mb 0.00 in0.0 mm 0.00 in0.0 mm 0.00 in0.0 mm
06:32 AM 74.7°F23.7°C 69.2°F20.7°C 83% 3.8 mph N6.1 kmh N 12.1 mph19.5 kmh 29.72 in1006.4 mb 0.00 in0.0 mm 0.00 in0.0 mm 0.00 in0.0 mm
06:33 AM 74.7°F23.7°C 69.2°F20.7°C 83% 4.5 mph N7.2 kmh N 12.1 mph19.5 kmh 29.72 in1006.4 mb 0.00 in0.0 mm 0.00 in0.0 mm 0.00 in0.0 mm
06:34 AM 74.7°F23.7°C 69.2°F20.7°C 83% 4.5 mph N7.2 kmh N 12.1 mph19.5 kmh 29.72 in1006.4 mb 0.00 in0.0 mm 0.00 in0.0 mm 0.00 in0.0 mm
06:35 AM 74.7°F23.7°C 69.2°F20.7°C 83% 6.9 mph N11.1 kmh N 12.1 mph19.5 kmh 29.72 in1006.4 mb 0.00 in0.0 mm 0.00 in0.0 mm 0.00 in0.0 mm
06:36 AM 74.7°F23.7°C 69.2°F20.7°C 83% 3.8 mph N6.1 kmh N 12.1 mph19.5 kmh 29.71 in1006.1 mb 0.00 in0.0 mm 0.00 in0.0 mm 0.00 in0.0 mm
06:37 AM 74.7°F23.7°C 69.2°F20.7°C 83% 3.8 mph N6.1 kmh N 9.8 mph15.8 kmh 29.72 in1006.4 mb 0.00 in0.0 mm 0.00 in0.0 mm 0.00 in0.0 mm
06:38 AM 74.7°F23.7°C 69.2°F20.7°C 83% 4.5 mph N7.2 kmh N 9.8 mph15.8 kmh 29.72 in1006.4 mb 0.00 in0.0 mm 0.00 in0.0 mm 0.00 in0.0 mm
06:39 AM 74.7°F23.7°C 69.2°F20.7°C 83% 6.0 mph N9.7 kmh N 9.8 mph15.8 kmh 29.72 in1006.4 mb 0.00 in0.0 mm 0.00 in0.0 mm 0.00 in0.0 mm
06:40 AM 74.7°F23.7°C 69.2°F20.7°C 83% 5.4 mph N8.7 kmh N 9.8 mph15.8 kmh 29.72 in1006.4 mb 0.00 in0.0 mm 0.00 in0.0 mm 0.00 in0.0 mm
06:41 AM 75.0°F23.9°C 69.5°F20.8°C 83% 5.4 mph N8.7 kmh N 9.8 mph15.8 kmh 29.72 in1006.4 mb 0.00 in0.0 mm 0.00 in0.0 mm 0.00 in0.0 mm
06:42 AM 75.0°F23.9°C 69.5°F20.8°C 83% 7.6 mph N12.2 kmh N 10.7 mph17.2 kmh 29.72 in1006.4 mb 0.00 in0.0 mm 0.00 in0.0 mm 0.00 in0.0 mm
06:43 AM 75.0°F23.9°C 69.5°F20.8°C 83% 4.5 mph N7.2 kmh N 10.7 mph17.2 kmh 29.72 in1006.4 mb 0.00 in0.0 mm 0.00 in0.0 mm 0.00 in0.0 mm
06:44 AM 75.2°F24.0°C 69.4°F20.8°C 82% 6.0 mph N9.7 kmh N 10.7 mph17.2 kmh 29.72 in1006.4 mb 0.00 in0.0 mm 0.00 in0.0 mm 0.00 in0.0 mm
06:45 AM 75.2°F24.0°C 69.4°F20.8°C 82% 6.0 mph NNE9.7 kmh NNE 10.7 mph17.2 kmh 29.71 in1006.1 mb 0.00 in0.0 mm 0.00 in0.0 mm 0.00 in0.0 mm
06:46 AM 75.4°F24.1°C 69.5°F20.8°C 82% 4.5 mph N7.2 kmh N 10.7 mph17.2 kmh 29.72 in1006.4 mb 0.00 in0.0 mm 0.00 in0.0 mm 0.00 in0.0 mm
06:47 AM 75.4°F24.1°C 69.5°F20.8°C 82% 5.4 mph N8.7 kmh N 10.7 mph17.2 kmh 29.72 in1006.4 mb 0.00 in0.0 mm 0.00 in0.0 mm 0.00 in0.0 mm
06:48 AM 75.6°F24.2°C 69.7°F20.9°C 82% 4.5 mph N7.2 kmh N 10.7 mph17.2 kmh 29.72 in1006.4 mb 0.00 in0.0 mm 0.00 in0.0 mm 0.00 in0.0 mm
06:49 AM 75.7°F24.3°C 69.9°F21.1°C 82% 3.8 mph N6.1 kmh N 10.7 mph17.2 kmh 29.72 in1006.4 mb 0.00 in0.0 mm 0.00 in0.0 mm 0.00 in0.0 mm
06:50 AM 75.9°F24.4°C 69.7°F20.9°C 81% 4.5 mph N7.2 kmh N 10.7 mph17.2 kmh 29.72 in1006.4 mb 0.00 in0.0 mm 0.00 in0.0 mm 0.00 in0.0 mm
06:51 AM 75.9°F24.4°C 69.7°F20.9°C 81% 6.0 mph N9.7 kmh N 10.7 mph17.2 kmh 29.72 in1006.4 mb 0.00 in0.0 mm 0.00 in0.0 mm 0.00 in0.0 mm
06:52 AM 76.1°F24.5°C 69.9°F21.1°C 81% 6.0 mph N9.7 kmh N 9.8 mph15.8 kmh 29.72 in1006.4 mb 0.00 in0.0 mm 0.00 in0.0 mm 0.00 in0.0 mm
06:53 AM 76.1°F24.5°C 69.9°F21.1°C 81% 7.6 mph N12.2 kmh N 10.7 mph17.2 kmh 29.72 in1006.4 mb 0.00 in0.0 mm 0.00 in0.0 mm 0.00 in0.0 mm
06:54 AM 76.3°F24.6°C 69.7°F20.9°C 80% 7.6 mph N12.2 kmh N 11.4 mph18.3 kmh 29.73 in1006.8 mb 0.00 in0.0 mm 0.00 in0.0 mm 0.00 in0.0 mm
06:55 AM 76.3°F24.6°C 69.7°F20.9°C 80% 6.9 mph N11.1 kmh N 11.4 mph18.3 kmh 29.72 in1006.4 mb 0.00 in0.0 mm 0.00 in0.0 mm 0.00 in0.0 mm
06:56 AM 76.3°F24.6°C 69.7°F20.9°C 80% 7.6 mph N12.2 kmh N 11.4 mph18.3 kmh 29.72 in1006.4 mb 0.00 in0.0 mm 0.00 in0.0 mm 0.00 in0.0 mm
06:57 AM 76.3°F24.6°C 69.7°F20.9°C 80% 9.2 mph N14.8 kmh N 11.4 mph18.3 kmh 29.72 in1006.4 mb 0.00 in0.0 mm 0.00 in0.0 mm 0.00 in0.0 mm
06:58 AM 76.3°F24.6°C 69.3°F20.7°C 79% 6.9 mph NNW11.1 kmh NNW 11.4 mph18.3 kmh 29.73 in1006.8 mb 0.00 in0.0 mm 0.00 in0.0 mm 0.00 in0.0 mm
06:59 AM 76.3°F24.6°C 69.3°F20.7°C 79% 6.0 mph NNW9.7 kmh NNW 11.4 mph18.3 kmh 29.72 in1006.4 mb 0.00 in0.0 mm 0.00 in0.0 mm 0.00 in0.0 mm
07:00 AM 76.3°F24.6°C 69.3°F20.7°C 79% 5.4 mph NNW8.7 kmh NNW 11.4 mph18.3 kmh 29.72 in1006.4 mb 0.00 in0.0 mm 0.00 in0.0 mm 0.00 in0.0 mm
07:01 AM 76.3°F24.6°C 69.3°F20.7°C 79% 9.8 mph NNW15.8 kmh NNW 13.0 mph20.9 kmh 29.72 in1006.4 mb 0.00 in0.0 mm 0.00 in0.0 mm 0.00 in0.0 mm
07:02 AM 76.5°F24.7°C 69.5°F20.8°C 79% 6.0 mph NNW9.7 kmh NNW 13.0 mph20.9 kmh 29.72 in1006.4 mb 0.00 in0.0 mm 0.00 in0.0 mm 0.00 in0.0 mm
07:03 AM 76.5°F24.7°C 69.5°F20.8°C 79% 3.8 mph N6.1 kmh N 13.0 mph20.9 kmh 29.72 in1006.4 mb 0.00 in0.0 mm 0.00 in0.0 mm 0.00 in0.0 mm
07:04 AM 76.5°F24.7°C 69.5°F20.8°C 79% 7.6 mph N12.2 kmh N 13.0 mph20.9 kmh 29.72 in1006.4 mb 0.00 in0.0 mm 0.00 in0.0 mm 0.00 in0.0 mm
07:05 AM 76.5°F24.7°C 69.5°F20.8°C 79% 6.0 mph N9.7 kmh N 13.0 mph20.9 kmh 29.72 in1006.4 mb 0.00 in0.0 mm 0.00 in0.0 mm 0.00 in0.0 mm
07:06 AM 76.6°F24.8°C 69.7°F20.9°C 79% 6.0 mph N9.7 kmh N 13.0 mph20.9 kmh 29.73 in1006.8 mb 0.00 in0.0 mm 0.00 in0.0 mm 0.00 in0.0 mm
07:07 AM 76.6°F24.8°C 69.7°F20.9°C 79% 5.4 mph N8.7 kmh N 13.0 mph20.9 kmh 29.72 in1006.4 mb 0.00 in0.0 mm 0.00 in0.0 mm 0.00 in0.0 mm
07:08 AM 76.6°F24.8°C 69.3°F20.7°C 78% 6.0 mph N9.7 kmh N 13.0 mph20.9 kmh 29.72 in1006.4 mb 0.00 in0.0 mm 0.00 in0.0 mm 0.00 in0.0 mm
07:09 AM 76.6°F24.8°C 69.3°F20.7°C 78% 5.4 mph N8.7 kmh N 13.0 mph20.9 kmh 29.73 in1006.8 mb 0.00 in0.0 mm 0.00 in0.0 mm 0.00 in0.0 mm
07:10 AM 76.8°F24.9°C 69.5°F20.8°C 78% 3.8 mph N6.1 kmh N 13.0 mph20.9 kmh 29.72 in1006.4 mb 0.00 in0.0 mm 0.00 in0.0 mm 0.00 in0.0 mm
07:11 AM 76.8°F24.9°C 69.5°F20.8°C 78% 5.4 mph N8.7 kmh N 12.1 mph19.5 kmh 29.73 in1006.8 mb 0.00 in0.0 mm 0.00 in0.0 mm 0.00 in0.0 mm
07:12 AM 76.8°F24.9°C 69.5°F20.8°C 78% 5.4 mph N8.7 kmh N 12.1 mph19.5 kmh 29.73 in1006.8 mb 0.00 in0.0 mm 0.00 in0.0 mm 0.00 in0.0 mm
07:13 AM 77.0°F25.0°C 69.3°F20.7°C 77% 7.6 mph N12.2 kmh N 12.1 mph19.5 kmh 29.72 in1006.4 mb 0.00 in0.0 mm 0.00 in0.0 mm 0.00 in0.0 mm
07:14 AM 77.0°F25.0°C 69.3°F20.7°C 77% 4.5 mph N7.2 kmh N 12.1 mph19.5 kmh 29.72 in1006.4 mb 0.00 in0.0 mm 0.00 in0.0 mm 0.00 in0.0 mm
07:15 AM 77.2°F25.1°C 69.5°F20.8°C 77% 5.4 mph N8.7 kmh N 12.1 mph19.5 kmh 29.73 in1006.8 mb 0.00 in0.0 mm 0.00 in0.0 mm 0.00 in0.0 mm
07:18 AM 77.2°F25.1°C 69.1°F20.6°C 76% 7.6 mph N12.2 kmh N 13.0 mph20.9 kmh 29.72 in1006.4 mb 0.00 in0.0 mm 0.00 in0.0 mm 0.00 in0.0 mm
07:19 AM 77.2°F25.1°C 69.1°F20.6°C 76% 6.9 mph NNW11.1 kmh NNW 13.0 mph20.9 kmh 29.73 in1006.8 mb 0.00 in0.0 mm 0.00 in0.0 mm 0.00 in0.0 mm
07:21 AM 77.2°F25.1°C 69.1°F20.6°C 76% 5.4 mph N8.7 kmh N 13.0 mph20.9 kmh 29.72 in1006.4 mb 0.00 in0.0 mm 0.00 in0.0 mm 0.00 in0.0 mm
07:22 AM 77.4°F25.2°C 69.2°F20.7°C 76% 8.3 mph N13.4 kmh N 13.0 mph20.9 kmh 29.73 in1006.8 mb 0.00 in0.0 mm 0.00 in0.0 mm 0.00 in0.0 mm
07:23 AM 77.4°F25.2°C 69.2°F20.7°C 76% 7.6 mph NNW12.2 kmh NNW 13.0 mph20.9 kmh 29.73 in1006.8 mb 0.00 in0.0 mm 0.00 in0.0 mm 0.00 in0.0 mm
07:24 AM 77.4°F25.2°C 69.2°F20.7°C 76% 5.4 mph NNW8.7 kmh NNW 13.0 mph20.9 kmh 29.73 in1006.8 mb 0.00 in0.0 mm 0.00 in0.0 mm 0.00 in0.0 mm
07:25 AM 77.4°F25.2°C 69.2°F20.7°C 76% 5.4 mph NNW8.7 kmh NNW 13.0 mph20.9 kmh 29.72 in1006.4 mb 0.00 in0.0 mm 0.00 in0.0 mm 0.00 in0.0 mm
07:26 AM 77.5°F25.3°C 69.4°F20.8°C 76% 6.0 mph N9.7 kmh N 13.0 mph20.9 kmh 29.72 in1006.4 mb 0.00 in0.0 mm 0.00 in0.0 mm 0.00 in0.0 mm
07:27 AM 77.5°F25.3°C 69.4°F20.8°C 76% 6.0 mph N9.7 kmh N 12.1 mph19.5 kmh 29.73 in1006.8 mb 0.00 in0.0 mm 0.00 in0.0 mm 0.00 in0.0 mm
07:28 AM 77.7°F25.4°C 69.6°F20.9°C 76% 7.6 mph N12.2 kmh N 12.1 mph19.5 kmh 29.73 in1006.8 mb 0.00 in0.0 mm 0.00 in0.0 mm 0.00 in0.0 mm
07:29 AM 77.7°F25.4°C 69.6°F20.9°C 76% 6.0 mph N9.7 kmh N 11.4 mph18.3 kmh 29.73 in1006.8 mb 0.00 in0.0 mm 0.00 in0.0 mm 0.00 in0.0 mm
07:30 AM 77.9°F25.5°C 69.8°F21.0°C 76% 6.0 mph N9.7 kmh N 10.7 mph17.2 kmh 29.73 in1006.8 mb 0.00 in0.0 mm 0.00 in0.0 mm 0.00 in0.0 mm
07:31 AM 77.9°F25.5°C 69.8°F21.0°C 76% 6.9 mph N11.1 kmh N 13.0 mph20.9 kmh 29.73 in1006.8 mb 0.00 in0.0 mm 0.00 in0.0 mm 0.00 in0.0 mm
07:32 AM 78.1°F25.6°C 69.6°F20.9°C 75% 7.6 mph N12.2 kmh N 13.0 mph20.9 kmh 29.73 in1006.8 mb 0.00 in0.0 mm 0.00 in0.0 mm 0.00 in0.0 mm
07:33 AM 78.1°F25.6°C 69.6°F20.9°C 75% 5.4 mph N8.7 kmh N 13.0 mph20.9 kmh 29.72 in1006.4 mb 0.00 in0.0 mm 0.00 in0.0 mm 0.00 in0.0 mm
07:34 AM 78.1°F25.6°C 69.6°F20.9°C 75% 7.6 mph N12.2 kmh N 13.0 mph20.9 kmh 29.73 in1006.8 mb 0.00 in0.0 mm 0.00 in0.0 mm 0.00 in0.0 mm
07:35 AM 78.3°F25.7°C 69.7°F20.9°C 75% 5.4 mph N8.7 kmh N 13.0 mph20.9 kmh 29.73 in1006.8 mb 0.00 in0.0 mm 0.00 in0.0 mm 0.00 in0.0 mm
07:36 AM 78.3°F25.7°C 69.7°F20.9°C 75% 5.4 mph N8.7 kmh N 13.0 mph20.9 kmh 29.73 in1006.8 mb 0.00 in0.0 mm 0.00 in0.0 mm 0.00 in0.0 mm
07:37 AM 78.3°F25.7°C 69.7°F20.9°C 75% 7.6 mph N12.2 kmh N 13.0 mph20.9 kmh 29.73 in1006.8 mb 0.00 in0.0 mm 0.00 in0.0 mm 0.00 in0.0 mm
07:38 AM 78.4°F25.8°C 69.9°F21.1°C 75% 5.4 mph N8.7 kmh N 13.0 mph20.9 kmh 29.73 in1006.8 mb 0.00 in0.0 mm 0.00 in0.0 mm 0.00 in0.0 mm
07:39 AM 78.4°F25.8°C 69.9°F21.1°C 75% 4.5 mph N7.2 kmh N 13.0 mph20.9 kmh 29.72 in1006.4 mb 0.00 in0.0 mm 0.00 in0.0 mm 0.00 in0.0 mm
07:40 AM 78.4°F25.8°C 69.9°F21.1°C 75% 5.4 mph N8.7 kmh N 13.0 mph20.9 kmh 29.73 in1006.8 mb 0.00 in0.0 mm 0.00 in0.0 mm 0.00 in0.0 mm
07:41 AM 78.8°F26.0°C 69.9°F21.1°C 74% 5.4 mph NNW8.7 kmh NNW 13.0 mph20.9 kmh 29.73 in1006.8 mb 0.00 in0.0 mm 0.00 in0.0 mm 0.00 in0.0 mm
07:42 AM 78.8°F26.0°C 69.5°F20.8°C 73% 6.0 mph N9.7 kmh N 11.4 mph18.3 kmh 29.73 in1006.8 mb 0.00 in0.0 mm 0.00 in0.0 mm 0.00 in0.0 mm
07:43 AM 79.0°F26.1°C 69.6°F20.9°C 73% 7.6 mph N12.2 kmh N 11.4 mph18.3 kmh 29.73 in1006.8 mb 0.00 in0.0 mm 0.00 in0.0 mm 0.00 in0.0 mm
07:44 AM 79.2°F26.2°C 69.8°F21.0°C 73% 8.3 mph N13.4 kmh N 11.4 mph18.3 kmh 29.73 in1006.8 mb 0.00 in0.0 mm 0.00 in0.0 mm 0.00 in0.0 mm
07:45 AM 79.2°F26.2°C 69.8°F21.0°C 73% 5.4 mph N8.7 kmh N 11.4 mph18.3 kmh 29.73 in1006.8 mb 0.00 in0.0 mm 0.00 in0.0 mm 0.00 in0.0 mm
07:46 AM 79.2°F26.2°C 69.8°F21.0°C 73% 9.2 mph N14.8 kmh N 12.1 mph19.5 kmh 29.73 in1006.8 mb 0.00 in0.0 mm 0.00 in0.0 mm 0.00 in0.0 mm
07:47 AM 79.3°F26.3°C 70.0°F21.1°C 73% 7.6 mph N12.2 kmh N 12.1 mph19.5 kmh 29.72 in1006.4 mb 0.00 in0.0 mm 0.00 in0.0 mm 0.00 in0.0 mm
07:48 AM 79.3°F26.3°C 70.0°F21.1°C 73% 5.4 mph N8.7 kmh N 12.1 mph19.5 kmh 29.73 in1006.8 mb 0.00 in0.0 mm 0.00 in0.0 mm 0.00 in0.0 mm
07:49 AM 79.3°F26.3°C 70.0°F21.1°C 73% 10.7 mph N17.2 kmh N 15.2 mph24.5 kmh 29.73 in1006.8 mb 0.00 in0.0 mm 0.00 in0.0 mm 0.00 in0.0 mm
07:50 AM 79.5°F26.4°C 69.7°F20.9°C 72% 8.3 mph N13.4 kmh N 15.2 mph24.5 kmh 29.73 in1006.8 mb 0.00 in0.0 mm 0.00 in0.0 mm 0.00 in0.0 mm
07:51 AM 79.5°F26.4°C 69.7°F20.9°C 72% 5.4 mph N8.7 kmh N 15.2 mph24.5 kmh 29.73 in1006.8 mb 0.00 in0.0 mm 0.00 in0.0 mm 0.00 in0.0 mm
07:52 AM 79.7°F26.5°C 69.9°F21.1°C 72% 6.0 mph N9.7 kmh N 15.2 mph24.5 kmh 29.73 in1006.8 mb 0.00 in0.0 mm 0.00 in0.0 mm 0.00 in0.0 mm
07:53 AM 79.7°F26.5°C 69.9°F21.1°C 72% 6.9 mph N11.1 kmh N 15.2 mph24.5 kmh 29.73 in1006.8 mb 0.00 in0.0 mm 0.00 in0.0 mm 0.00 in0.0 mm
07:54 AM 79.9°F26.6°C 70.1°F21.2°C 72% 6.9 mph N11.1 kmh N 15.2 mph24.5 kmh 29.73 in1006.8 mb 0.00 in0.0 mm 0.00 in0.0 mm 0.00 in0.0 mm
07:55 AM 80.1°F26.7°C 70.3°F21.3°C 72% 3.8 mph N6.1 kmh N 15.2 mph24.5 kmh 29.73 in1006.8 mb 0.00 in0.0 mm 0.00 in0.0 mm 0.00 in0.0 mm
07:56 AM 80.2°F26.8°C 70.4°F21.3°C 72% 4.5 mph N7.2 kmh N 15.2 mph24.5 kmh 29.73 in1006.8 mb 0.00 in0.0 mm 0.00 in0.0 mm 0.00 in0.0 mm
07:57 AM 80.4°F26.9°C 70.6°F21.4°C 72% 9.2 mph N14.8 kmh N 15.2 mph24.5 kmh 29.73 in1006.8 mb 0.00 in0.0 mm 0.00 in0.0 mm 0.00 in0.0 mm
07:58 AM 80.8°F27.1°C 70.6°F21.4°C 71% 3.8 mph N6.1 kmh N 15.2 mph24.5 kmh 29.73 in1006.8 mb 0.00 in0.0 mm 0.00 in0.0 mm 0.00 in0.0 mm
07:59 AM 80.8°F27.1°C 70.6°F21.4°C 71% 8.3 mph N13.4 kmh N 14.5 mph23.3 kmh 29.73 in1006.8 mb 0.00 in0.0 mm 0.00 in0.0 mm 0.00 in0.0 mm
08:00 AM 81.0°F27.2°C 70.3°F21.3°C 70% 6.9 mph N11.1 kmh N 14.5 mph23.3 kmh 29.73 in1006.8 mb 0.00 in0.0 mm 0.00 in0.0 mm 0.00 in0.0 mm
08:01 AM 81.0°F27.2°C 70.3°F21.3°C 70% 8.3 mph N13.4 kmh N 12.1 mph19.5 kmh 29.73 in1006.8 mb 0.00 in0.0 mm 0.00 in0.0 mm 0.00 in0.0 mm
08:02 AM 81.1°F27.3°C 70.1°F21.2°C 69% 7.6 mph N12.2 kmh N 12.1 mph19.5 kmh 29.73 in1006.8 mb 0.00 in0.0 mm 0.00 in0.0 mm 0.00 in0.0 mm
08:03 AM 81.1°F27.3°C 70.1°F21.2°C 69% 6.9 mph N11.1 kmh N 12.1 mph19.5 kmh 29.73 in1006.8 mb 0.00 in0.0 mm 0.00 in0.0 mm 0.00 in0.0 mm
08:04 AM 81.1°F27.3°C 70.1°F21.2°C 69% 5.4 mph N8.7 kmh N 12.1 mph19.5 kmh 29.73 in1006.8 mb 0.00 in0.0 mm 0.00 in0.0 mm 0.00 in0.0 mm
08:05 AM 81.1°F27.3°C 70.1°F21.2°C 69% 7.6 mph N12.2 kmh N 12.1 mph19.5 kmh 29.73 in1006.8 mb 0.00 in0.0 mm 0.00 in0.0 mm 0.00 in0.0 mm
08:06 AM 81.3°F27.4°C 70.2°F21.2°C 69% 6.9 mph NNW11.1 kmh NNW 12.1 mph19.5 kmh 29.73 in1006.8 mb 0.00 in0.0 mm 0.00 in0.0 mm 0.00 in0.0 mm
08:07 AM 81.3°F27.4°C 70.2°F21.2°C 69% 5.4 mph NNW8.7 kmh NNW 12.1 mph19.5 kmh 29.73 in1006.8 mb 0.00 in0.0 mm 0.00 in0.0 mm 0.00 in0.0 mm
08:08 AM 81.3°F27.4°C 70.2°F21.2°C 69% 4.5 mph NNW7.2 kmh NNW 12.1 mph19.5 kmh 29.73 in1006.8 mb 0.00 in0.0 mm 0.00 in0.0 mm 0.00 in0.0 mm
08:09 AM 81.5°F27.5°C 70.4°F21.3°C 69% 6.9 mph NNW11.1 kmh NNW 12.1 mph19.5 kmh 29.73 in1006.8 mb 0.00 in0.0 mm 0.00 in0.0 mm 0.00 in0.0 mm
08:10 AM 81.7°F27.6°C 70.1°F21.2°C 68% 6.9 mph NNW11.1 kmh NNW 12.1 mph19.5 kmh 29.73 in1006.8 mb 0.00 in0.0 mm 0.00 in0.0 mm 0.00 in0.0 mm
08:11 AM 81.7°F27.6°C 70.1°F21.2°C 68% 6.9 mph NNW11.1 kmh NNW 12.1 mph19.5 kmh 29.73 in1006.8 mb 0.00 in0.0 mm 0.00 in0.0 mm 0.00 in0.0 mm
08:12 AM 81.7°F27.6°C 70.1°F21.2°C 68% 6.0 mph NNW9.7 kmh NNW 12.1 mph19.5 kmh 29.73 in1006.8 mb 0.00 in0.0 mm 0.00 in0.0 mm 0.00 in0.0 mm
08:13 AM 81.9°F27.7°C 70.3°F21.3°C 68% 8.3 mph NNW13.4 kmh NNW 12.1 mph19.5 kmh 29.73 in1006.8 mb 0.00 in0.0 mm 0.00 in0.0 mm 0.00 in0.0 mm
08:14 AM 82.0°F27.8°C 70.5°F21.4°C 68% 6.0 mph NNW9.7 kmh NNW 12.1 mph19.5 kmh 29.73 in1006.8 mb 0.00 in0.0 mm 0.00 in0.0 mm 0.00 in0.0 mm
08:15 AM 82.0°F27.8°C 70.5°F21.4°C 68% 7.6 mph NNW12.2 kmh NNW 12.1 mph19.5 kmh 29.73 in1006.8 mb 0.00 in0.0 mm 0.00 in0.0 mm 0.00 in0.0 mm
08:16 AM 82.2°F27.9°C 70.2°F21.2°C 67% 8.3 mph NNW13.4 kmh NNW 12.1 mph19.5 kmh 29.73 in1006.8 mb 0.00 in0.0 mm 0.00 in0.0 mm 0.00 in0.0 mm
08:17 AM 82.2°F27.9°C 70.2°F21.2°C 67% 6.9 mph NNW11.1 kmh NNW 12.1 mph19.5 kmh 29.73 in1006.8 mb 0.00 in0.0 mm 0.00 in0.0 mm 0.00 in0.0 mm
08:18 AM 82.4°F28.0°C 70.0°F21.1°C 66% 7.6 mph NNW12.2 kmh NNW 13.0 mph20.9 kmh 29.73 in1006.8 mb 0.00 in0.0 mm 0.00 in0.0 mm 0.00 in0.0 mm
08:19 AM 82.4°F28.0°C 70.0°F21.1°C 66% 8.3 mph NNW13.4 kmh NNW 15.9 mph25.6 kmh 29.73 in1006.8 mb 0.00 in0.0 mm 0.00 in0.0 mm 0.00 in0.0 mm
08:20 AM 82.6°F28.1°C 70.1°F21.2°C 66% 8.3 mph NNW13.4 kmh NNW 15.9 mph25.6 kmh 29.73 in1006.8 mb 0.00 in0.0 mm 0.00 in0.0 mm 0.00 in0.0 mm
08:21 AM 82.6°F28.1°C 70.1°F21.2°C 66% 6.9 mph NNW11.1 kmh NNW 15.9 mph25.6 kmh 29.73 in1006.8 mb 0.00 in0.0 mm 0.00 in0.0 mm 0.00 in0.0 mm
08:22 AM 82.8°F28.2°C 70.3°F21.3°C 66% 6.0 mph NNW9.7 kmh NNW 15.9 mph25.6 kmh 29.73 in1006.8 mb 0.00 in0.0 mm 0.00 in0.0 mm 0.00 in0.0 mm
08:23 AM 82.8°F28.2°C 70.3°F21.3°C 66% 5.4 mph NNW8.7 kmh NNW 15.9 mph25.6 kmh 29.73 in1006.8 mb 0.00 in0.0 mm 0.00 in0.0 mm 0.00 in0.0 mm
08:24 AM 82.9°F28.3°C 70.5°F21.4°C 66% 7.6 mph NNW12.2 kmh NNW 15.9 mph25.6 kmh 29.73 in1006.8 mb 0.00 in0.0 mm 0.00 in0.0 mm 0.00 in0.0 mm
08:25 AM 82.9°F28.3°C 70.5°F21.4°C 66% 6.9 mph NNW11.1 kmh NNW 15.9 mph25.6 kmh 29.73 in1006.8 mb 0.00 in0.0 mm 0.00 in0.0 mm 0.00 in0.0 mm
08:26 AM 83.1°F28.4°C 70.2°F21.2°C 65% 8.3 mph N13.4 kmh N 15.9 mph25.6 kmh 29.73 in1006.8 mb 0.00 in0.0 mm 0.00 in0.0 mm 0.00 in0.0 mm
08:27 AM 83.1°F28.4°C 70.2°F21.2°C 65% 6.9 mph N11.1 kmh N 15.9 mph25.6 kmh 29.73 in1006.8 mb 0.00 in0.0 mm 0.00 in0.0 mm 0.00 in0.0 mm
08:28 AM 83.1°F28.4°C 70.2°F21.2°C 65% 9.8 mph NNW15.8 kmh NNW 15.9 mph25.6 kmh 29.73 in1006.8 mb 0.00 in0.0 mm 0.00 in0.0 mm 0.00 in0.0 mm
08:29 AM 83.1°F28.4°C 70.2°F21.2°C 65% 7.6 mph N12.2 kmh N 15.9 mph25.6 kmh 29.73 in1006.8 mb 0.00 in0.0 mm 0.00 in0.0 mm 0.00 in0.0 mm
08:30 AM 83.5°F28.6°C 70.5°F21.4°C 65% 7.6 mph N12.2 kmh N 13.0 mph20.9 kmh 29.73 in1006.8 mb 0.00 in0.0 mm 0.00 in0.0 mm 0.00 in0.0 mm
08:31 AM 83.5°F28.6°C 70.5°F21.4°C 65% 7.6 mph N12.2 kmh N 13.0 mph20.9 kmh 29.73 in1006.8 mb 0.00 in0.0 mm 0.00 in0.0 mm 0.00 in0.0 mm
08:32 AM 83.5°F28.6°C 70.5°F21.4°C 65% 9.2 mph NNW14.8 kmh NNW 13.0 mph20.9 kmh 29.73 in1006.8 mb 0.00 in0.0 mm 0.00 in0.0 mm 0.00 in0.0 mm
08:33 AM 83.5°F28.6°C 70.5°F21.4°C 65% 4.5 mph NNW7.2 kmh NNW 13.0 mph20.9 kmh 29.73 in1006.8 mb 0.00 in0.0 mm 0.00 in0.0 mm 0.00 in0.0 mm
08:34 AM 83.8°F28.8°C 70.9°F21.6°C 65% 6.0 mph NNW9.7 kmh NNW 13.0 mph20.9 kmh 29.73 in1006.8 mb 0.00 in0.0 mm 0.00 in0.0 mm 0.00 in0.0 mm
08:35 AM 84.0°F28.9°C 71.0°F21.7°C 65% 6.0 mph NNW9.7 kmh NNW 13.0 mph20.9 kmh 29.73 in1006.8 mb 0.00 in0.0 mm 0.00 in0.0 mm 0.00 in0.0 mm
08:36 AM 84.2°F29.0°C 70.8°F21.6°C 64% 6.0 mph NNW9.7 kmh NNW 13.0 mph20.9 kmh 29.73 in1006.8 mb 0.00 in0.0 mm 0.00 in0.0 mm 0.00 in0.0 mm
08:37 AM 84.2°F29.0°C 70.8°F21.6°C 64% 5.4 mph NNW8.7 kmh NNW 13.0 mph20.9 kmh 29.73 in1006.8 mb 0.00 in0.0 mm 0.00 in0.0 mm 0.00 in0.0 mm
08:38 AM 84.4°F29.1°C 70.5°F21.4°C 63% 7.6 mph N12.2 kmh N 12.1 mph19.5 kmh 29.73 in1006.8 mb 0.00 in0.0 mm 0.00 in0.0 mm 0.00 in0.0 mm
08:39 AM 84.6°F29.2°C 70.6°F21.4°C 63% 6.9 mph N11.1 kmh N 12.1 mph19.5 kmh 29.72 in1006.4 mb 0.00 in0.0 mm 0.00 in0.0 mm 0.00 in0.0 mm
08:40 AM 84.6°F29.2°C 70.6°F21.4°C 63% 7.6 mph NNW12.2 kmh NNW 12.1 mph19.5 kmh 29.73 in1006.8 mb 0.00 in0.0 mm 0.00 in0.0 mm 0.00 in0.0 mm
08:41 AM 84.7°F29.3°C 70.3°F21.3°C 62% 7.6 mph NNW12.2 kmh NNW 13.6 mph21.9 kmh 29.73 in1006.8 mb 0.00 in0.0 mm 0.00 in0.0 mm 0.00 in0.0 mm
08:42 AM 84.9°F29.4°C 70.5°F21.4°C 62% 4.5 mph NNW7.2 kmh NNW 13.6 mph21.9 kmh 29.73 in1006.8 mb 0.00 in0.0 mm 0.00 in0.0 mm 0.00 in0.0 mm
08:43 AM 84.9°F29.4°C 70.5°F21.4°C 62% 6.0 mph NNW9.7 kmh NNW 13.6 mph21.9 kmh 29.73 in1006.8 mb 0.00 in0.0 mm 0.00 in0.0 mm 0.00 in0.0 mm
08:44 AM 85.1°F29.5°C 70.7°F21.5°C 62% 8.3 mph NNW13.4 kmh NNW 13.6 mph21.9 kmh 29.73 in1006.8 mb 0.00 in0.0 mm 0.00 in0.0 mm 0.00 in0.0 mm
08:45 AM 85.3°F29.6°C 70.8°F21.6°C 62% 6.0 mph NNW9.7 kmh NNW 13.6 mph21.9 kmh 29.73 in1006.8 mb 0.00 in0.0 mm 0.00 in0.0 mm 0.00 in0.0 mm
08:46 AM 85.5°F29.7°C 70.5°F21.4°C 61% 8.3 mph NNW13.4 kmh NNW 13.6 mph21.9 kmh 29.73 in1006.8 mb 0.00 in0.0 mm 0.00 in0.0 mm 0.00 in0.0 mm
08:47 AM 85.5°F29.7°C 70.5°F21.4°C 61% 7.6 mph NNW12.2 kmh NNW 13.6 mph21.9 kmh 29.73 in1006.8 mb 0.00 in0.0 mm 0.00 in0.0 mm 0.00 in0.0 mm
08:48 AM 85.5°F29.7°C 70.5°F21.4°C 61% 7.6 mph NNW12.2 kmh NNW 13.6 mph21.9 kmh 29.73 in1006.8 mb 0.00 in0.0 mm 0.00 in0.0 mm 0.00 in0.0 mm
08:49 AM 85.5°F29.7°C 70.5°F21.4°C 61% 8.3 mph N13.4 kmh N 13.6 mph21.9 kmh 29.73 in1006.8 mb 0.00 in0.0 mm 0.00 in0.0 mm 0.00 in0.0 mm
08:50 AM 85.6°F29.8°C 70.2°F21.2°C 60% 6.0 mph N9.7 kmh N 13.6 mph21.9 kmh 29.73 in1006.8 mb 0.00 in0.0 mm 0.00 in0.0 mm 0.00 in0.0 mm
08:51 AM 85.6°F29.8°C 70.2°F21.2°C 60% 9.8 mph N15.8 kmh N 14.5 mph23.3 kmh 29.73 in1006.8 mb 0.00 in0.0 mm 0.00 in0.0 mm 0.00 in0.0 mm
08:52 AM 85.8°F29.9°C 70.4°F21.3°C 60% 13.0 mph N20.9 kmh N 17.4 mph28.0 kmh 29.73 in1006.8 mb 0.00 in0.0 mm 0.00 in0.0 mm 0.00 in0.0 mm
08:53 AM 85.8°F29.9°C 69.9°F21.1°C 59% 9.8 mph N15.8 kmh N 17.4 mph28.0 kmh 29.73 in1006.8 mb 0.00 in0.0 mm 0.00 in0.0 mm 0.00 in0.0 mm
08:54 AM 86.0°F30.0°C 69.1°F20.6°C 57% 8.3 mph NNW13.4 kmh NNW 17.4 mph28.0 kmh 29.73 in1006.8 mb 0.00 in0.0 mm 0.00 in0.0 mm 0.00 in0.0 mm
08:55 AM 86.0°F30.0°C 69.1°F20.6°C 57% 8.3 mph NNW13.4 kmh NNW 17.4 mph28.0 kmh 29.74 in1007.1 mb 0.00 in0.0 mm 0.00 in0.0 mm 0.00 in0.0 mm
08:56 AM 86.0°F30.0°C 69.1°F20.6°C 57% 6.0 mph N9.7 kmh N 17.4 mph28.0 kmh 29.74 in1007.1 mb 0.00 in0.0 mm 0.00 in0.0 mm 0.00 in0.0 mm
08:57 AM 86.2°F30.1°C 69.2°F20.7°C 57% 9.2 mph NNW14.8 kmh NNW 17.4 mph28.0 kmh 29.74 in1007.1 mb 0.00 in0.0 mm 0.00 in0.0 mm 0.00 in0.0 mm
08:58 AM 86.2°F30.1°C 68.7°F20.4°C 56% 10.7 mph NNW17.2 kmh NNW 17.4 mph28.0 kmh 29.74 in1007.1 mb 0.00 in0.0 mm 0.00 in0.0 mm 0.00 in0.0 mm
08:59 AM 86.4°F30.2°C 68.9°F20.5°C 56% 13.0 mph NNW20.9 kmh NNW 19.7 mph31.7 kmh 29.74 in1007.1 mb 0.00 in0.0 mm 0.00 in0.0 mm 0.00 in0.0 mm
09:00 AM 86.2°F30.1°C 68.7°F20.4°C 56% 10.7 mph NNW17.2 kmh NNW 19.7 mph31.7 kmh 29.73 in1006.8 mb 0.00 in0.0 mm 0.00 in0.0 mm 0.00 in0.0 mm
09:01 AM 86.2°F30.1°C 68.7°F20.4°C 56% 8.3 mph NNW13.4 kmh NNW 19.7 mph31.7 kmh 29.74 in1007.1 mb 0.00 in0.0 mm 0.00 in0.0 mm 0.00 in0.0 mm
09:02 AM 86.2°F30.1°C 68.7°F20.4°C 56% 9.8 mph NNW15.8 kmh NNW 19.7 mph31.7 kmh 29.74 in1007.1 mb 0.00 in0.0 mm 0.00 in0.0 mm 0.00 in0.0 mm
09:03 AM 86.2°F30.1°C 68.7°F20.4°C 56% 13.0 mph NW20.9 kmh NW 19.7 mph31.7 kmh 29.73 in1006.8 mb 0.00 in0.0 mm 0.00 in0.0 mm 0.00 in0.0 mm
09:04 AM 86.2°F30.1°C 68.2°F20.1°C 55% 13.6 mph NNW21.9 kmh NNW 19.7 mph31.7 kmh 29.74 in1007.1 mb 0.00 in0.0 mm 0.00 in0.0 mm 0.00 in0.0 mm
09:05 AM 86.2°F30.1°C 68.2°F20.1°C 55% 13.6 mph NW21.9 kmh NW 19.7 mph31.7 kmh 29.73 in1006.8 mb 0.00 in0.0 mm 0.00 in0.0 mm 0.00 in0.0 mm
09:06 AM 86.0°F30.0°C 68.5°F20.3°C 56% 11.4 mph NW18.3 kmh NW 19.7 mph31.7 kmh 29.73 in1006.8 mb 0.00 in0.0 mm 0.00 in0.0 mm 0.00 in0.0 mm
09:07 AM 86.0°F30.0°C 68.5°F20.3°C 56% 13.6 mph NW21.9 kmh NW 20.6 mph33.2 kmh 29.74 in1007.1 mb 0.00 in0.0 mm 0.00 in0.0 mm 0.00 in0.0 mm
09:08 AM 86.0°F30.0°C 68.5°F20.3°C 56% 9.2 mph NNW14.8 kmh NNW 20.6 mph33.2 kmh 29.74 in1007.1 mb 0.00 in0.0 mm 0.00 in0.0 mm 0.00 in0.0 mm
09:09 AM 86.2°F30.1°C 68.7°F20.4°C 56% 7.6 mph NNW12.2 kmh NNW 20.6 mph33.2 kmh 29.74 in1007.1 mb 0.00 in0.0 mm 0.00 in0.0 mm 0.00 in0.0 mm
09:10 AM 86.2°F30.1°C 68.7°F20.4°C 56% 8.3 mph NW13.4 kmh NW 20.6 mph33.2 kmh 29.73 in1006.8 mb 0.00 in0.0 mm 0.00 in0.0 mm 0.00 in0.0 mm
09:11 AM 86.4°F30.2°C 68.9°F20.5°C 56% 14.5 mph NW23.3 kmh NW 20.6 mph33.2 kmh 29.74 in1007.1 mb 0.00 in0.0 mm 0.00 in0.0 mm 0.00 in0.0 mm
09:12 AM 86.4°F30.2°C 68.3°F20.2°C 55% 8.3 mph NW13.4 kmh NW 20.6 mph33.2 kmh 29.74 in1007.1 mb 0.00 in0.0 mm 0.00 in0.0 mm 0.00 in0.0 mm
09:13 AM 86.5°F30.3°C 68.5°F20.3°C 55% 13.0 mph NNW20.9 kmh NNW 20.6 mph33.2 kmh 29.73 in1006.8 mb 0.00 in0.0 mm 0.00 in0.0 mm 0.00 in0.0 mm
09:14 AM 86.5°F30.3°C 68.5°F20.3°C 55% 9.8 mph NW15.8 kmh NW 20.6 mph33.2 kmh 29.74 in1007.1 mb 0.00 in0.0 mm 0.00 in0.0 mm 0.00 in0.0 mm
09:15 AM 86.5°F30.3°C 68.5°F20.3°C 55% 8.3 mph NNW13.4 kmh NNW 20.6 mph33.2 kmh 29.73 in1006.8 mb 0.00 in0.0 mm 0.00 in0.0 mm 0.00 in0.0 mm
09:16 AM 86.5°F30.3°C 68.5°F20.3°C 55% 6.9 mph NNW11.1 kmh NNW 20.6 mph33.2 kmh 29.74 in1007.1 mb 0.00 in0.0 mm 0.00 in0.0 mm 0.00 in0.0 mm
09:17 AM 86.7°F30.4°C 68.7°F20.4°C 55% 6.9 mph NW11.1 kmh NW 20.6 mph33.2 kmh 29.73 in1006.8 mb 0.00 in0.0 mm 0.00 in0.0 mm 0.00 in0.0 mm
09:18 AM 86.9°F30.5°C 68.8°F20.4°C 55% 7.6 mph NW12.2 kmh NW 20.6 mph33.2 kmh 29.73 in1006.8 mb 0.00 in0.0 mm 0.00 in0.0 mm 0.00 in0.0 mm
09:19 AM 87.1°F30.6°C 69.0°F20.6°C 55% 11.4 mph NW18.3 kmh NW 20.6 mph33.2 kmh 29.73 in1006.8 mb 0.00 in0.0 mm 0.00 in0.0 mm 0.00 in0.0 mm
09:20 AM 87.1°F30.6°C 69.0°F20.6°C 55% 8.3 mph NW13.4 kmh NW 20.6 mph33.2 kmh 29.73 in1006.8 mb 0.00 in0.0 mm 0.00 in0.0 mm 0.00 in0.0 mm
09:21 AM 87.3°F30.7°C 69.2°F20.7°C 55% 9.8 mph NNW15.8 kmh NNW 17.4 mph28.0 kmh 29.73 in1006.8 mb 0.00 in0.0 mm 0.00 in0.0 mm 0.00 in0.0 mm
09:22 AM 87.3°F30.7°C 69.2°F20.7°C 55% 6.9 mph NW11.1 kmh NW 15.9 mph25.6 kmh 29.73 in1006.8 mb 0.00 in0.0 mm 0.00 in0.0 mm 0.00 in0.0 mm
09:23 AM 87.3°F30.7°C 69.2°F20.7°C 55% 6.9 mph NW11.1 kmh NW 15.9 mph25.6 kmh 29.73 in1006.8 mb 0.00 in0.0 mm 0.00 in0.0 mm 0.00 in0.0 mm
09:24 AM 87.3°F30.7°C 69.2°F20.7°C 55% 6.0 mph NNW9.7 kmh NNW 15.9 mph25.6 kmh 29.73 in1006.8 mb 0.00 in0.0 mm 0.00 in0.0 mm 0.00 in0.0 mm
09:25 AM 87.4°F30.8°C 69.4°F20.8°C 55% 9.2 mph NNW14.8 kmh NNW 14.5 mph23.3 kmh 29.73 in1006.8 mb 0.00 in0.0 mm 0.00 in0.0 mm 0.00 in0.0 mm
09:26 AM 87.6°F30.9°C 69.5°F20.8°C 55% 6.0 mph NNW9.7 kmh NNW 14.5 mph23.3 kmh 29.73 in1006.8 mb 0.00 in0.0 mm 0.00 in0.0 mm 0.00 in0.0 mm
09:27 AM 87.6°F30.9°C 69.5°F20.8°C 55% 9.8 mph NW15.8 kmh NW 15.2 mph24.5 kmh 29.73 in1006.8 mb 0.00 in0.0 mm 0.00 in0.0 mm 0.00 in0.0 mm
09:28 AM 87.6°F30.9°C 69.0°F20.6°C 54% 10.7 mph NW17.2 kmh NW 16.8 mph27.0 kmh 29.73 in1006.8 mb 0.00 in0.0 mm 0.00 in0.0 mm 0.00 in0.0 mm
09:29 AM 87.8°F31.0°C 68.6°F20.3°C 53% 9.8 mph NNW15.8 kmh NNW 16.8 mph27.0 kmh 29.73 in1006.8 mb 0.00 in0.0 mm 0.00 in0.0 mm 0.00 in0.0 mm
09:30 AM 87.6°F30.9°C 69.0°F20.6°C 54% 10.7 mph NNW17.2 kmh NNW 16.8 mph27.0 kmh 29.73 in1006.8 mb 0.00 in0.0 mm 0.00 in0.0 mm 0.00 in0.0 mm
09:31 AM 87.6°F30.9°C 69.0°F20.6°C 54% 6.0 mph NW9.7 kmh NW 16.8 mph27.0 kmh 29.73 in1006.8 mb 0.00 in0.0 mm 0.00 in0.0 mm 0.00 in0.0 mm
09:32 AM 87.6°F30.9°C 69.0°F20.6°C 54% 9.8 mph NNW15.8 kmh NNW 16.8 mph27.0 kmh 29.73 in1006.8 mb 0.00 in0.0 mm 0.00 in0.0 mm 0.00 in0.0 mm
09:33 AM 87.8°F31.0°C 68.6°F20.3°C 53% 8.3 mph NNW13.4 kmh NNW 16.8 mph27.0 kmh 29.73 in1006.8 mb 0.00 in0.0 mm 0.00 in0.0 mm 0.00 in0.0 mm
09:34 AM 87.8°F31.0°C 68.6°F20.3°C 53% 9.2 mph NNW14.8 kmh NNW 16.8 mph27.0 kmh 29.73 in1006.8 mb 0.00 in0.0 mm 0.00 in0.0 mm 0.00 in0.0 mm
09:35 AM 88.0°F31.1°C 68.8°F20.4°C 53% 10.7 mph NNW17.2 kmh NNW 16.8 mph27.0 kmh 29.73 in1006.8 mb 0.00 in0.0 mm 0.00 in0.0 mm 0.00 in0.0 mm
09:36 AM 88.0°F31.1°C 68.8°F20.4°C 53% 12.1 mph NNW19.5 kmh NNW 16.8 mph27.0 kmh 29.73 in1006.8 mb 0.00 in0.0 mm 0.00 in0.0 mm 0.00 in0.0 mm
09:37 AM 88.0°F31.1°C 68.8°F20.4°C 53% 10.7 mph NNW17.2 kmh NNW 16.8 mph27.0 kmh 29.73 in1006.8 mb 0.00 in0.0 mm 0.00 in0.0 mm 0.00 in0.0 mm
09:38 AM 87.8°F31.0°C 68.6°F20.3°C 53% 9.8 mph N15.8 kmh N 16.8 mph27.0 kmh 29.73 in1006.8 mb 0.00 in0.0 mm 0.00 in0.0 mm 0.00 in0.0 mm
09:39 AM 87.8°F31.0°C 68.6°F20.3°C 53% 9.8 mph N15.8 kmh N 15.9 mph25.6 kmh 29.73 in1006.8 mb 0.00 in0.0 mm 0.00 in0.0 mm 0.00 in0.0 mm
09:40 AM 88.0°F31.1°C 68.8°F20.4°C 53% 10.7 mph N17.2 kmh N 15.9 mph25.6 kmh 29.73 in1006.8 mb 0.00 in0.0 mm 0.00 in0.0 mm 0.00 in0.0 mm
09:41 AM 88.0°F31.1°C 68.8°F20.4°C 53% 8.3 mph N13.4 kmh N 15.9 mph25.6 kmh 29.72 in1006.4 mb 0.00 in0.0 mm 0.00 in0.0 mm 0.00 in0.0 mm
09:42 AM 88.0°F31.1°C 68.8°F20.4°C 53% 7.6 mph N12.2 kmh N 15.9 mph25.6 kmh 29.73 in1006.8 mb 0.00 in0.0 mm 0.00 in0.0 mm 0.00 in0.0 mm
09:43 AM 88.2°F31.2°C 68.9°F20.5°C 53% 9.8 mph N15.8 kmh N 15.9 mph25.6 kmh 29.73 in1006.8 mb 0.00 in0.0 mm 0.00 in0.0 mm 0.00 in0.0 mm
09:44 AM 88.3°F31.3°C 69.1°F20.6°C 53% 6.9 mph N11.1 kmh N 15.9 mph25.6 kmh 29.73 in1006.8 mb 0.00 in0.0 mm 0.00 in0.0 mm 0.00 in0.0 mm
09:45 AM 88.3°F31.3°C 69.1°F20.6°C 53% 6.9 mph N11.1 kmh N 15.9 mph25.6 kmh 29.73 in1006.8 mb 0.00 in0.0 mm 0.00 in0.0 mm 0.00 in0.0 mm
09:46 AM 88.3°F31.3°C 68.5°F20.3°C 52% 6.9 mph NNW11.1 kmh NNW 15.9 mph25.6 kmh 29.73 in1006.8 mb 0.00 in0.0 mm 0.00 in0.0 mm 0.00 in0.0 mm
09:47 AM 88.7°F31.5°C 68.9°F20.5°C 52% 6.0 mph NNW9.7 kmh NNW 15.9 mph25.6 kmh 29.73 in1006.8 mb 0.00 in0.0 mm 0.00 in0.0 mm 0.00 in0.0 mm
09:48 AM 88.9°F31.6°C 69.0°F20.6°C 52% 6.9 mph NNW11.1 kmh NNW 15.2 mph24.5 kmh 29.73 in1006.8 mb 0.00 in0.0 mm 0.00 in0.0 mm 0.00 in0.0 mm
09:49 AM 89.1°F31.7°C 69.2°F20.7°C 52% 9.8 mph N15.8 kmh N 15.2 mph24.5 kmh 29.73 in1006.8 mb 0.00 in0.0 mm 0.00 in0.0 mm 0.00 in0.0 mm
09:50 AM 89.2°F31.8°C 69.4°F20.8°C 52% 11.4 mph N18.3 kmh N 15.9 mph25.6 kmh 29.73 in1006.8 mb 0.00 in0.0 mm 0.00 in0.0 mm 0.00 in0.0 mm
09:51 AM 89.2°F31.8°C 69.4°F20.8°C 52% 9.2 mph N14.8 kmh N 15.9 mph25.6 kmh 29.73 in1006.8 mb 0.00 in0.0 mm 0.00 in0.0 mm 0.00 in0.0 mm
09:52 AM 89.1°F31.7°C 69.2°F20.7°C 52% 13.0 mph N20.9 kmh N 15.9 mph25.6 kmh 29.73 in1006.8 mb 0.00 in0.0 mm 0.00 in0.0 mm 0.00 in0.0 mm
09:53 AM 89.1°F31.7°C 68.6°F20.3°C 51% 12.1 mph N19.5 kmh N 17.4 mph28.0 kmh 29.73 in1006.8 mb 0.00 in0.0 mm 0.00 in0.0 mm 0.00 in0.0 mm
09:54 AM 89.1°F31.7°C 68.1°F20.1°C 50% 13.0 mph N20.9 kmh N 22.1 mph35.6 kmh 29.73 in1006.8 mb 0.00 in0.0 mm 0.00 in0.0 mm 0.00 in0.0 mm
09:55 AM 89.2°F31.8°C 67.6°F19.8°C 49% 9.8 mph N15.8 kmh N 22.1 mph35.6 kmh 29.73 in1006.8 mb 0.00 in0.0 mm 0.00 in0.0 mm 0.00 in0.0 mm
09:56 AM 89.2°F31.8°C 67.6°F19.8°C 49% 8.3 mph N13.4 kmh N 22.1 mph35.6 kmh 29.73 in1006.8 mb 0.00 in0.0 mm 0.00 in0.0 mm 0.00 in0.0 mm
09:57 AM 89.2°F31.8°C 67.6°F19.8°C 49% 11.4 mph N18.3 kmh N 22.1 mph35.6 kmh 29.73 in1006.8 mb 0.00 in0.0 mm 0.00 in0.0 mm 0.00 in0.0 mm
09:58 AM 89.4°F31.9°C 67.8°F19.9°C 49% 9.8 mph N15.8 kmh N 22.1 mph35.6 kmh 29.73 in1006.8 mb 0.00 in0.0 mm 0.00 in0.0 mm 0.00 in0.0 mm
09:59 AM 89.4°F31.9°C 67.8°F19.9°C 49% 13.0 mph N20.9 kmh N 22.1 mph35.6 kmh 29.73 in1006.8 mb 0.00 in0.0 mm 0.00 in0.0 mm 0.00 in0.0 mm
10:00 AM 89.4°F31.9°C 67.8°F19.9°C 49% 8.3 mph N13.4 kmh N 22.1 mph35.6 kmh 29.73 in1006.8 mb 0.00 in0.0 mm 0.00 in0.0 mm 0.00 in0.0 mm
10:01 AM 89.6°F32.0°C 67.4°F19.7°C 48% 10.7 mph N17.2 kmh N 22.1 mph35.6 kmh 29.73 in1006.8 mb 0.00 in0.0 mm 0.00 in0.0 mm 0.00 in0.0 mm
10:02 AM 89.6°F32.0°C 67.4°F19.7°C 48% 9.2 mph N14.8 kmh N 22.1 mph35.6 kmh 29.73 in1006.8 mb 0.00 in0.0 mm 0.00 in0.0 mm 0.00 in0.0 mm
10:03 AM 89.6°F32.0°C 67.4°F19.7°C 48% 8.3 mph NNW13.4 kmh NNW 22.1 mph35.6 kmh 29.73 in1006.8 mb 0.00 in0.0 mm 0.00 in0.0 mm 0.00 in0.0 mm
10:04 AM 89.8°F32.1°C 67.5°F19.7°C 48% 9.2 mph NNW14.8 kmh NNW 22.1 mph35.6 kmh 29.73 in1006.8 mb 0.00 in0.0 mm 0.00 in0.0 mm 0.00 in0.0 mm
10:05 AM 89.8°F32.1°C 67.5°F19.7°C 48% 10.7 mph NNW17.2 kmh NNW 18.3 mph29.5 kmh 29.73 in1006.8 mb 0.00 in0.0 mm 0.00 in0.0 mm 0.00 in0.0 mm
10:06 AM 89.8°F32.1°C 67.5°F19.7°C 48% 6.9 mph NNW11.1 kmh NNW 18.3 mph29.5 kmh 29.73 in1006.8 mb 0.00 in0.0 mm 0.00 in0.0 mm 0.00 in0.0 mm
10:07 AM 90.0°F32.2°C 67.7°F19.8°C 48% 9.8 mph NNW15.8 kmh NNW 18.3 mph29.5 kmh 29.73 in1006.8 mb 0.00 in0.0 mm 0.00 in0.0 mm 0.00 in0.0 mm
10:08 AM 90.1°F32.3°C 67.3°F19.6°C 47% 7.6 mph NNW12.2 kmh NNW 18.3 mph29.5 kmh 29.73 in1006.8 mb 0.00 in0.0 mm 0.00 in0.0 mm 0.00 in0.0 mm
10:09 AM 90.3°F32.4°C 67.4°F19.7°C 47% 10.7 mph NNW17.2 kmh NNW 18.3 mph29.5 kmh 29.73 in1006.8 mb 0.00 in0.0 mm 0.00 in0.0 mm 0.00 in0.0 mm
10:10 AM 90.3°F32.4°C 66.8°F19.3°C 46% 8.3 mph NNW13.4 kmh NNW 18.3 mph29.5 kmh 29.73 in1006.8 mb 0.00 in0.0 mm 0.00 in0.0 mm 0.00 in0.0 mm
10:11 AM 90.3°F32.4°C 66.8°F19.3°C 46% 9.8 mph NNW15.8 kmh NNW 18.3 mph29.5 kmh 29.73 in1006.8 mb 0.00 in0.0 mm 0.00 in0.0 mm 0.00 in0.0 mm
10:12 AM 90.5°F32.5°C 66.3°F19.1°C 45% 6.0 mph NNW9.7 kmh NNW 18.3 mph29.5 kmh 29.73 in1006.8 mb 0.00 in0.0 mm 0.00 in0.0 mm 0.00 in0.0 mm
10:13 AM 90.7°F32.6°C 66.5°F19.2°C 45% 6.9 mph NNW11.1 kmh NNW 18.3 mph29.5 kmh 29.73 in1006.8 mb 0.00 in0.0 mm 0.00 in0.0 mm 0.00 in0.0 mm
10:14 AM 90.9°F32.7°C 66.6°F19.2°C 45% 13.0 mph N20.9 kmh N 21.3 mph34.3 kmh 29.74 in1007.1 mb 0.00 in0.0 mm 0.00 in0.0 mm 0.00 in0.0 mm
10:15 AM 90.9°F32.7°C 66.6°F19.2°C 45% 15.2 mph NNW24.5 kmh NNW 21.3 mph34.3 kmh 29.73 in1006.8 mb 0.00 in0.0 mm 0.00 in0.0 mm 0.00 in0.0 mm
10:16 AM 90.7°F32.6°C 66.5°F19.2°C 45% 14.5 mph N23.3 kmh N 21.3 mph34.3 kmh 29.73 in1006.8 mb 0.00 in0.0 mm 0.00 in0.0 mm 0.00 in0.0 mm
10:17 AM 90.5°F32.5°C 66.3°F19.1°C 45% 13.0 mph N20.9 kmh N 21.3 mph34.3 kmh 29.73 in1006.8 mb 0.00 in0.0 mm 0.00 in0.0 mm 0.00 in0.0 mm
10:18 AM 90.3°F32.4°C 66.2°F19.0°C 45% 14.5 mph N23.3 kmh N 21.3 mph34.3 kmh 29.73 in1006.8 mb 0.00 in0.0 mm 0.00 in0.0 mm 0.00 in0.0 mm
10:19 AM 90.1°F32.3°C 66.0°F18.9°C 45% 11.4 mph N18.3 kmh N 21.3 mph34.3 kmh 29.73 in1006.8 mb 0.00 in0.0 mm 0.00 in0.0 mm 0.00 in0.0 mm
10:20 AM 90.1°F32.3°C 66.0°F18.9°C 45% 12.1 mph N19.5 kmh N 21.3 mph34.3 kmh 29.73 in1006.8 mb 0.00 in0.0 mm 0.00 in0.0 mm 0.00 in0.0 mm
10:21 AM 90.1°F32.3°C 66.0°F18.9°C 45% 6.0 mph N9.7 kmh N 21.3 mph34.3 kmh 29.73 in1006.8 mb 0.00 in0.0 mm 0.00 in0.0 mm 0.00 in0.0 mm
10:22 AM 90.5°F32.5°C 66.3°F19.1°C 45% 13.0 mph NNW20.9 kmh NNW 21.3 mph34.3 kmh 29.74 in1007.1 mb 0.00 in0.0 mm 0.00 in0.0 mm 0.00 in0.0 mm
10:23 AM 90.7°F32.6°C 66.5°F19.2°C 45% 7.6 mph NNW12.2 kmh NNW 21.3 mph34.3 kmh 29.73 in1006.8 mb 0.00 in0.0 mm 0.00 in0.0 mm 0.00 in0.0 mm
10:24 AM 90.9°F32.7°C 66.6°F19.2°C 45% 9.8 mph NNW15.8 kmh NNW 19.7 mph31.7 kmh 29.73 in1006.8 mb 0.00 in0.0 mm 0.00 in0.0 mm 0.00 in0.0 mm
10:25 AM 90.9°F32.7°C 66.6°F19.2°C 45% 8.3 mph NNW13.4 kmh NNW 19.0 mph30.6 kmh 29.73 in1006.8 mb 0.00 in0.0 mm 0.00 in0.0 mm 0.00 in0.0 mm
10:26 AM 91.0°F32.8°C 66.8°F19.3°C 45% 8.3 mph NNW13.4 kmh NNW 19.0 mph30.6 kmh 29.73 in1006.8 mb 0.00 in0.0 mm 0.00 in0.0 mm 0.00 in0.0 mm
10:27 AM 91.2°F32.9°C 67.0°F19.4°C 45% 7.6 mph NNW12.2 kmh NNW 19.0 mph30.6 kmh 29.74 in1007.1 mb 0.00 in0.0 mm 0.00 in0.0 mm 0.00 in0.0 mm
10:28 AM 91.2°F32.9°C 67.0°F19.4°C 45% 9.8 mph N15.8 kmh N 19.0 mph30.6 kmh 29.73 in1006.8 mb 0.00 in0.0 mm 0.00 in0.0 mm 0.00 in0.0 mm
10:29 AM 91.4°F33.0°C 67.8°F19.9°C 46% 11.4 mph N18.3 kmh N 18.3 mph29.5 kmh 29.73 in1006.8 mb 0.00 in0.0 mm 0.00 in0.0 mm 0.00 in0.0 mm
10:30 AM 91.4°F33.0°C 67.8°F19.9°C 46% 7.6 mph NNW12.2 kmh NNW 18.3 mph29.5 kmh 29.73 in1006.8 mb 0.00 in0.0 mm 0.00 in0.0 mm 0.00 in0.0 mm
10:31 AM 91.4°F33.0°C 67.8°F19.9°C 46% 6.9 mph N11.1 kmh N 18.3 mph29.5 kmh 29.73 in1006.8 mb 0.00 in0.0 mm 0.00 in0.0 mm 0.00 in0.0 mm
10:32 AM 91.6°F33.1°C 67.9°F19.9°C 46% 5.4 mph N8.7 kmh N 18.3 mph29.5 kmh 29.73 in1006.8 mb 0.00 in0.0 mm 0.00 in0.0 mm 0.00 in0.0 mm
10:33 AM 91.6°F33.1°C 67.9°F19.9°C 46% 9.8 mph NNW15.8 kmh NNW 15.9 mph25.6 kmh 29.73 in1006.8 mb 0.00 in0.0 mm 0.00 in0.0 mm 0.00 in0.0 mm
10:34 AM 91.6°F33.1°C 67.9°F19.9°C 46% 6.9 mph N11.1 kmh N 15.9 mph25.6 kmh 29.73 in1006.8 mb 0.00 in0.0 mm 0.00 in0.0 mm 0.00 in0.0 mm
10:35 AM 91.6°F33.1°C 67.9°F19.9°C 46% 9.8 mph N15.8 kmh N 15.9 mph25.6 kmh 29.73 in1006.8 mb 0.00 in0.0 mm 0.00 in0.0 mm 0.00 in0.0 mm
10:36 AM 91.6°F33.1°C 67.9°F19.9°C 46% 9.8 mph NNW15.8 kmh NNW 15.9 mph25.6 kmh 29.73 in1006.8 mb 0.00 in0.0 mm 0.00 in0.0 mm 0.00 in0.0 mm
10:37 AM 91.8°F33.2°C 68.1°F20.1°C 46% 9.2 mph NNW14.8 kmh NNW 15.9 mph25.6 kmh 29.74 in1007.1 mb 0.00 in0.0 mm 0.00 in0.0 mm 0.00 in0.0 mm
10:38 AM 91.8°F33.2°C 68.1°F20.1°C 46% 9.8 mph NW15.8 kmh NW 15.9 mph25.6 kmh 29.73 in1006.8 mb 0.00 in0.0 mm 0.00 in0.0 mm 0.00 in0.0 mm
10:39 AM 91.8°F33.2°C 68.1°F20.1°C 46% 8.3 mph NW13.4 kmh NW 15.9 mph25.6 kmh 29.73 in1006.8 mb 0.00 in0.0 mm 0.00 in0.0 mm 0.00 in0.0 mm
10:40 AM 91.8°F33.2°C 68.1°F20.1°C 46% 10.7 mph NW17.2 kmh NW 15.9 mph25.6 kmh 29.74 in1007.1 mb 0.00 in0.0 mm 0.00 in0.0 mm 0.00 in0.0 mm
10:41 AM 91.8°F33.2°C 68.1°F20.1°C 46% 10.7 mph NW17.2 kmh NW 15.9 mph25.6 kmh 29.73 in1006.8 mb 0.00 in0.0 mm 0.00 in0.0 mm 0.00 in0.0 mm
10:42 AM 91.6°F33.1°C 67.9°F19.9°C 46% 6.9 mph NW11.1 kmh NW 15.9 mph25.6 kmh 29.73 in1006.8 mb 0.00 in0.0 mm 0.00 in0.0 mm 0.00 in0.0 mm
10:43 AM 91.6°F33.1°C 67.9°F19.9°C 46% 7.6 mph NNW12.2 kmh NNW 15.9 mph25.6 kmh 29.73 in1006.8 mb 0.00 in0.0 mm 0.00 in0.0 mm 0.00 in0.0 mm
10:44 AM 91.8°F33.2°C 68.1°F20.1°C 46% 10.7 mph NNW17.2 kmh NNW 15.9 mph25.6 kmh 29.73 in1006.8 mb 0.00 in0.0 mm 0.00 in0.0 mm 0.00 in0.0 mm
10:45 AM 91.8°F33.2°C 68.1°F20.1°C 46% 9.8 mph NNW15.8 kmh NNW 15.9 mph25.6 kmh 29.73 in1006.8 mb 0.00 in0.0 mm 0.00 in0.0 mm 0.00 in0.0 mm
10:46 AM 91.8°F33.2°C 68.1°F20.1°C 46% 12.1 mph NNW19.5 kmh NNW 16.8 mph27.0 kmh 29.73 in1006.8 mb 0.00 in0.0 mm 0.00 in0.0 mm 0.00 in0.0 mm
10:47 AM 91.8°F33.2°C 68.1°F20.1°C 46% 12.1 mph N19.5 kmh N 18.3 mph29.5 kmh 29.73 in1006.8 mb 0.00 in0.0 mm 0.00 in0.0 mm 0.00 in0.0 mm
10:48 AM 91.8°F33.2°C 68.1°F20.1°C 46% 9.2 mph N14.8 kmh N 18.3 mph29.5 kmh 29.73 in1006.8 mb 0.00 in0.0 mm 0.00 in0.0 mm 0.00 in0.0 mm
10:49 AM 91.8°F33.2°C 68.1°F20.1°C 46% 8.3 mph N13.4 kmh N 18.3 mph29.5 kmh 29.73 in1006.8 mb 0.00 in0.0 mm 0.00 in0.0 mm 0.00 in0.0 mm
10:50 AM 91.8°F33.2°C 68.1°F20.1°C 46% 8.3 mph N13.4 kmh N 18.3 mph29.5 kmh 29.73 in1006.8 mb 0.00 in0.0 mm 0.00 in0.0 mm 0.00 in0.0 mm
10:51 AM 91.9°F33.3°C 68.3°F20.2°C 46% 7.6 mph N12.2 kmh N 18.3 mph29.5 kmh 29.73 in1006.8 mb 0.00 in0.0 mm 0.00 in0.0 mm 0.00 in0.0 mm
10:52 AM 92.1°F33.4°C 68.4°F20.2°C 46% 9.8 mph N15.8 kmh N 19.7 mph31.7 kmh 29.73 in1006.8 mb 0.00 in0.0 mm 0.00 in0.0 mm 0.00 in0.0 mm
10:53 AM 92.1°F33.4°C 68.4°F20.2°C 46% 7.6 mph N12.2 kmh N 19.7 mph31.7 kmh 29.73 in1006.8 mb 0.00 in0.0 mm 0.00 in0.0 mm 0.00 in0.0 mm
10:54 AM 92.1°F33.4°C 68.4°F20.2°C 46% 11.4 mph N18.3 kmh N 19.7 mph31.7 kmh 29.73 in1006.8 mb 0.00 in0.0 mm 0.00 in0.0 mm 0.00 in0.0 mm
10:55 AM 92.1°F33.4°C 68.4°F20.2°C 46% 10.7 mph N17.2 kmh N 19.7 mph31.7 kmh 29.73 in1006.8 mb 0.00 in0.0 mm 0.00 in0.0 mm 0.00 in0.0 mm
10:56 AM 92.1°F33.4°C 68.4°F20.2°C 46% 14.5 mph N23.3 kmh N 19.7 mph31.7 kmh 29.73 in1006.8 mb 0.00 in0.0 mm 0.00 in0.0 mm 0.00 in0.0 mm
10:57 AM 91.9°F33.3°C 68.3°F20.2°C 46% 11.4 mph N18.3 kmh N 19.7 mph31.7 kmh 29.73 in1006.8 mb 0.00 in0.0 mm 0.00 in0.0 mm 0.00 in0.0 mm
10:58 AM 91.8°F33.2°C 68.1°F20.1°C 46% 15.2 mph N24.5 kmh N 19.7 mph31.7 kmh 29.73 in1006.8 mb 0.00 in0.0 mm 0.00 in0.0 mm 0.00 in0.0 mm
10:59 AM 91.8°F33.2°C 68.1°F20.1°C 46% 10.7 mph N17.2 kmh N 19.7 mph31.7 kmh 29.73 in1006.8 mb 0.00 in0.0 mm 0.00 in0.0 mm 0.00 in0.0 mm
11:00 AM 91.6°F33.1°C 67.9°F19.9°C 46% 9.8 mph N15.8 kmh N 19.7 mph31.7 kmh 29.73 in1006.8 mb 0.00 in0.0 mm 0.00 in0.0 mm 0.00 in0.0 mm
11:01 AM 91.6°F33.1°C 67.9°F19.9°C 46% 10.7 mph N17.2 kmh N 19.7 mph31.7 kmh 29.73 in1006.8 mb 0.00 in0.0 mm 0.00 in0.0 mm 0.00 in0.0 mm
11:02 AM 91.6°F33.1°C 67.9°F19.9°C 46% 9.2 mph N14.8 kmh N 19.7 mph31.7 kmh 29.73 in1006.8 mb 0.00 in0.0 mm 0.00 in0.0 mm 0.00 in0.0 mm
11:03 AM 91.8°F33.2°C 68.1°F20.1°C 46% 8.3 mph N13.4 kmh N 19.7 mph31.7 kmh 29.73 in1006.8 mb 0.00 in0.0 mm 0.00 in0.0 mm 0.00 in0.0 mm
11:04 AM 91.8°F33.2°C 68.1°F20.1°C 46% 8.3 mph N13.4 kmh N 19.7 mph31.7 kmh 29.73 in1006.8 mb 0.00 in0.0 mm 0.00 in0.0 mm 0.00 in0.0 mm
11:05 AM 91.9°F33.3°C 68.3°F20.2°C 46% 6.9 mph N11.1 kmh N 19.7 mph31.7 kmh 29.73 in1006.8 mb 0.00 in0.0 mm 0.00 in0.0 mm 0.00 in0.0 mm
11:06 AM 92.5°F33.6°C 68.8°F20.4°C 46% 8.3 mph NNW13.4 kmh NNW 19.7 mph31.7 kmh 29.73 in1006.8 mb 0.00 in0.0 mm 0.00 in0.0 mm 0.00 in0.0 mm
11:07 AM 92.7°F33.7°C 68.9°F20.5°C 46% 7.6 mph NNW12.2 kmh NNW 19.0 mph30.6 kmh 29.72 in1006.4 mb 0.00 in0.0 mm 0.00 in0.0 mm 0.00 in0.0 mm
11:08 AM 92.8°F33.8°C 69.1°F20.6°C 46% 7.6 mph NNW12.2 kmh NNW 19.0 mph30.6 kmh 29.73 in1006.8 mb 0.00 in0.0 mm 0.00 in0.0 mm 0.00 in0.0 mm
11:09 AM 93.0°F33.9°C 68.6°F20.3°C 45% 7.6 mph N12.2 kmh N 18.3 mph29.5 kmh 29.72 in1006.4 mb 0.00 in0.0 mm 0.00 in0.0 mm 0.00 in0.0 mm
11:10 AM 93.0°F33.9°C 68.6°F20.3°C 45% 7.6 mph NNW12.2 kmh NNW 19.0 mph30.6 kmh 29.73 in1006.8 mb 0.00 in0.0 mm 0.00 in0.0 mm 0.00 in0.0 mm
11:11 AM 93.0°F33.9°C 68.6°F20.3°C 45% 8.3 mph NNW13.4 kmh NNW 19.0 mph30.6 kmh 29.73 in1006.8 mb 0.00 in0.0 mm 0.00 in0.0 mm 0.00 in0.0 mm
11:12 AM 93.0°F33.9°C 68.6°F20.3°C 45% 12.1 mph N19.5 kmh N 19.0 mph30.6 kmh 29.73 in1006.8 mb 0.00 in0.0 mm 0.00 in0.0 mm 0.00 in0.0 mm
11:13 AM 93.0°F33.9°C 68.6°F20.3°C 45% 6.9 mph NNW11.1 kmh NNW 19.0 mph30.6 kmh 29.73 in1006.8 mb 0.00 in0.0 mm 0.00 in0.0 mm 0.00 in0.0 mm
11:14 AM 93.0°F33.9°C 68.6°F20.3°C 45% 9.2 mph NNW14.8 kmh NNW 19.0 mph30.6 kmh 29.73 in1006.8 mb 0.00 in0.0 mm 0.00 in0.0 mm 0.00 in0.0 mm
11:15 AM 93.2°F34.0°C 68.1°F20.1°C 44% 7.6 mph NNW12.2 kmh NNW 19.0 mph30.6 kmh 29.73 in1006.8 mb 0.00 in0.0 mm 0.00 in0.0 mm 0.00 in0.0 mm
11:16 AM 93.2°F34.0°C 68.1°F20.1°C 44% 11.4 mph NNW18.3 kmh NNW 19.0 mph30.6 kmh 29.73 in1006.8 mb 0.00 in0.0 mm 0.00 in0.0 mm 0.00 in0.0 mm
11:17 AM 93.4°F34.1°C 68.3°F20.2°C 44% 9.8 mph NNW15.8 kmh NNW 19.0 mph30.6 kmh 29.73 in1006.8 mb 0.00 in0.0 mm 0.00 in0.0 mm 0.00 in0.0 mm
11:18 AM 93.4°F34.1°C 68.3°F20.2°C 44% 9.2 mph NNW14.8 kmh NNW 19.0 mph30.6 kmh 29.72 in1006.4 mb 0.00 in0.0 mm 0.00 in0.0 mm 0.00 in0.0 mm
11:19 AM 93.4°F34.1°C 68.3°F20.2°C 44% 9.8 mph NNW15.8 kmh NNW 19.0 mph30.6 kmh 29.73 in1006.8 mb 0.00 in0.0 mm 0.00 in0.0 mm 0.00 in0.0 mm
11:20 AM 93.4°F34.1°C 68.3°F20.2°C 44% 11.4 mph NNW18.3 kmh NNW 18.3 mph29.5 kmh 29.73 in1006.8 mb 0.00 in0.0 mm 0.00 in0.0 mm 0.00 in0.0 mm
11:21 AM 93.2°F34.0°C 68.1°F20.1°C 44% 8.3 mph NNW13.4 kmh NNW 18.3 mph29.5 kmh 29.73 in1006.8 mb 0.00 in0.0 mm 0.00 in0.0 mm 0.00 in0.0 mm
11:22 AM 93.0°F33.9°C 68.6°F20.3°C 45% 6.9 mph NW11.1 kmh NW 18.3 mph29.5 kmh 29.72 in1006.4 mb 0.00 in0.0 mm 0.00 in0.0 mm 0.00 in0.0 mm
11:23 AM 93.0°F33.9°C 68.6°F20.3°C 45% 9.2 mph NW14.8 kmh NW 18.3 mph29.5 kmh 29.73 in1006.8 mb 0.00 in0.0 mm 0.00 in0.0 mm 0.00 in0.0 mm
11:24 AM 93.0°F33.9°C 68.6°F20.3°C 45% 8.3 mph NW13.4 kmh NW 18.3 mph29.5 kmh 29.72 in1006.4 mb 0.00 in0.0 mm 0.00 in0.0 mm 0.00 in0.0 mm
11:25 AM 93.0°F33.9°C 68.6°F20.3°C 45% 7.6 mph NW12.2 kmh NW 18.3 mph29.5 kmh 29.73 in1006.8 mb 0.00 in0.0 mm 0.00 in0.0 mm 0.00 in0.0 mm
11:26 AM 93.2°F34.0°C 68.1°F20.1°C 44% 15.9 mph NW25.6 kmh NW 22.8 mph36.7 kmh 29.72 in1006.4 mb 0.00 in0.0 mm 0.00 in0.0 mm 0.00 in0.0 mm
11:27 AM 93.2°F34.0°C 68.1°F20.1°C 44% 13.0 mph NW20.9 kmh NW 22.8 mph36.7 kmh 29.73 in1006.8 mb 0.00 in0.0 mm 0.00 in0.0 mm 0.00 in0.0 mm
11:29 AM 93.2°F34.0°C 68.1°F20.1°C 44% 9.8 mph NW15.8 kmh NW 22.8 mph36.7 kmh 29.73 in1006.8 mb 0.00 in0.0 mm 0.00 in0.0 mm 0.00 in0.0 mm
11:31 AM 93.0°F33.9°C 68.6°F20.3°C 45% 11.4 mph NW18.3 kmh NW 22.8 mph36.7 kmh 29.74 in1007.1 mb 0.00 in0.0 mm 0.00 in0.0 mm 0.00 in0.0 mm
11:32 AM 93.0°F33.9°C 68.6°F20.3°C 45% 13.0 mph NNW20.9 kmh NNW 22.8 mph36.7 kmh 29.73 in1006.8 mb 0.00 in0.0 mm 0.00 in0.0 mm 0.00 in0.0 mm
11:33 AM 93.0°F33.9°C 68.6°F20.3°C 45% 7.6 mph NNW12.2 kmh NNW 22.8 mph36.7 kmh 29.73 in1006.8 mb 0.00 in0.0 mm 0.00 in0.0 mm 0.00 in0.0 mm
11:34 AM 93.0°F33.9°C 68.6°F20.3°C 45% 10.7 mph NNW17.2 kmh NNW 22.8 mph36.7 kmh 29.73 in1006.8 mb 0.00 in0.0 mm 0.00 in0.0 mm 0.00 in0.0 mm
11:35 AM 93.0°F33.9°C 68.6°F20.3°C 45% 9.2 mph NNW14.8 kmh NNW 22.8 mph36.7 kmh 29.73 in1006.8 mb 0.00 in0.0 mm 0.00 in0.0 mm 0.00 in0.0 mm
11:36 AM 93.0°F33.9°C 68.0°F20.0°C 44% 11.4 mph NW18.3 kmh NW 22.8 mph36.7 kmh 29.73 in1006.8 mb 0.00 in0.0 mm 0.00 in0.0 mm 0.00 in0.0 mm
11:37 AM 93.0°F33.9°C 68.0°F20.0°C 44% 11.4 mph NW18.3 kmh NW 20.6 mph33.2 kmh 29.72 in1006.4 mb 0.00 in0.0 mm 0.00 in0.0 mm 0.00 in0.0 mm
11:38 AM 93.2°F34.0°C 68.1°F20.1°C 44% 9.8 mph NW15.8 kmh NW 19.0 mph30.6 kmh 29.73 in1006.8 mb 0.00 in0.0 mm 0.00 in0.0 mm 0.00 in0.0 mm
11:41 AM 93.0°F33.9°C 67.9°F19.9°C 44% 9.8 mph NW15.8 kmh NW 19.0 mph30.6 kmh 29.73 in1006.8 mb 0.00 in0.0 mm 0.00 in0.0 mm 0.00 in0.0 mm
11:44 AM 93.2°F34.0°C 68.1°F20.1°C 44% 6.9 mph NW11.1 kmh NW 16.8 mph27.0 kmh 29.72 in1006.4 mb 0.00 in0.0 mm 0.00 in0.0 mm 0.00 in0.0 mm
11:45 AM 93.2°F34.0°C 68.1°F20.1°C 44% 10.7 mph NNW17.2 kmh NNW 16.8 mph27.0 kmh 29.73 in1006.8 mb 0.00 in0.0 mm 0.00 in0.0 mm 0.00 in0.0 mm
11:47 AM 93.4°F34.1°C 67.6°F19.8°C 43% 8.3 mph NW13.4 kmh NW 16.8 mph27.0 kmh 29.72 in1006.4 mb 0.00 in0.0 mm 0.00 in0.0 mm 0.00 in0.0 mm
11:48 AM 93.4°F34.1°C 67.6°F19.8°C 43% 5.4 mph NW8.7 kmh NW 16.8 mph27.0 kmh 29.72 in1006.4 mb 0.00 in0.0 mm 0.00 in0.0 mm 0.00 in0.0 mm
11:49 AM 93.4°F34.1°C 67.6°F19.8°C 43% 6.0 mph NW9.7 kmh NW 15.2 mph24.5 kmh 29.72 in1006.4 mb 0.00 in0.0 mm 0.00 in0.0 mm 0.00 in0.0 mm
11:50 AM 93.6°F34.2°C 67.8°F19.9°C 43% 12.1 mph NW19.5 kmh NW 15.2 mph24.5 kmh 29.71 in1006.1 mb 0.00 in0.0 mm 0.00 in0.0 mm 0.00 in0.0 mm
11:51 AM 93.7°F34.3°C 67.9°F19.9°C 43% 7.6 mph NW12.2 kmh NW 15.2 mph24.5 kmh 29.72 in1006.4 mb 0.00 in0.0 mm 0.00 in0.0 mm 0.00 in0.0 mm
11:52 AM 93.7°F34.3°C 68.6°F20.3°C 44% 9.8 mph NW15.8 kmh NW 17.4 mph28.0 kmh 29.72 in1006.4 mb 0.00 in0.0 mm 0.00 in0.0 mm 0.00 in0.0 mm
11:53 AM 93.9°F34.4°C 68.1°F20.1°C 43% 9.2 mph NW14.8 kmh NW 17.4 mph28.0 kmh 29.72 in1006.4 mb 0.00 in0.0 mm 0.00 in0.0 mm 0.00 in0.0 mm
11:54 AM 94.1°F34.5°C 67.6°F19.8°C 42% 12.1 mph NW19.5 kmh NW 17.4 mph28.0 kmh 29.72 in1006.4 mb 0.00 in0.0 mm 0.00 in0.0 mm 0.00 in0.0 mm
11:55 AM 94.1°F34.5°C 67.6°F19.8°C 42% 13.0 mph NNW20.9 kmh NNW 17.5 mph28.2 kmh 29.71 in1006.1 mb 0.00 in0.0 mm 0.00 in0.0 mm 0.00 in0.0 mm
11:56 AM 94.1°F34.5°C 67.6°F19.8°C 42% 12.1 mph N19.5 kmh N 19.0 mph30.6 kmh 29.72 in1006.4 mb 0.00 in0.0 mm 0.00 in0.0 mm 0.00 in0.0 mm
11:57 AM 94.1°F34.5°C 67.6°F19.8°C 42% 11.4 mph N18.3 kmh N 19.0 mph30.6 kmh 29.72 in1006.4 mb 0.00 in0.0 mm 0.00 in0.0 mm 0.00 in0.0 mm
11:58 AM 93.9°F34.4°C 67.4°F19.7°C 42% 9.8 mph N15.8 kmh N 19.0 mph30.6 kmh 29.72 in1006.4 mb 0.00 in0.0 mm 0.00 in0.0 mm 0.00 in0.0 mm
11:59 AM 94.1°F34.5°C 68.3°F20.2°C 43% 8.3 mph N13.4 kmh N 19.0 mph30.6 kmh 29.72 in1006.4 mb 0.00 in0.0 mm 0.00 in0.0 mm 0.00 in0.0 mm
12:00 PM 94.1°F34.5°C 67.6°F19.8°C 42% 9.2 mph NNW14.8 kmh NNW 19.0 mph30.6 kmh 29.72 in1006.4 mb 0.00 in0.0 mm 0.00 in0.0 mm 0.00 in0.0 mm
12:01 PM 94.3°F34.6°C 67.7°F19.8°C 42% 10.7 mph NNW17.2 kmh NNW 19.0 mph30.6 kmh 29.72 in1006.4 mb 0.00 in0.0 mm 0.00 in0.0 mm 0.00 in0.0 mm
12:02 PM 93.9°F34.4°C 67.4°F19.7°C 42% 11.4 mph N18.3 kmh N 19.0 mph30.6 kmh 29.72 in1006.4 mb 0.00 in0.0 mm 0.00 in0.0 mm 0.00 in0.0 mm
12:03 PM 93.7°F34.3°C 66.6°F19.2°C 41% 9.8 mph N15.8 kmh N 19.0 mph30.6 kmh 29.71 in1006.1 mb 0.00 in0.0 mm 0.00 in0.0 mm 0.00 in0.0 mm
12:04 PM 93.2°F34.0°C 66.8°F19.3°C 42% 13.0 mph NNW20.9 kmh NNW 19.0 mph30.6 kmh 29.71 in1006.1 mb 0.00 in0.0 mm 0.00 in0.0 mm 0.00 in0.0 mm
12:05 PM 93.0°F33.9°C 67.3°F19.6°C 43% 7.6 mph NNW12.2 kmh NNW 19.0 mph30.6 kmh 29.71 in1006.1 mb 0.00 in0.0 mm 0.00 in0.0 mm 0.00 in0.0 mm
12:06 PM 92.8°F33.8°C 67.1°F19.5°C 43% 11.4 mph NNW18.3 kmh NNW 18.3 mph29.5 kmh 29.72 in1006.4 mb 0.00 in0.0 mm 0.00 in0.0 mm 0.00 in0.0 mm
12:07 PM 92.8°F33.8°C 67.1°F19.5°C 43% 9.2 mph NNW14.8 kmh NNW 18.3 mph29.5 kmh 29.72 in1006.4 mb 0.00 in0.0 mm 0.00 in0.0 mm 0.00 in0.0 mm
12:08 PM 92.8°F33.8°C 67.1°F19.5°C 43% 11.4 mph NNW18.3 kmh NNW 18.3 mph29.5 kmh 29.71 in1006.1 mb 0.00 in0.0 mm 0.00 in0.0 mm 0.00 in0.0 mm
12:09 PM 93.2°F34.0°C 66.8°F19.3°C 42% 13.0 mph NNW20.9 kmh NNW 18.3 mph29.5 kmh 29.71 in1006.1 mb 0.00 in0.0 mm 0.00 in0.0 mm 0.00 in0.0 mm
12:10 PM 93.6°F34.2°C 67.1°F19.5°C 42% 8.3 mph NNW13.4 kmh NNW 18.3 mph29.5 kmh 29.71 in1006.1 mb 0.00 in0.0 mm 0.00 in0.0 mm 0.00 in0.0 mm
12:11 PM 93.6°F34.2°C 67.1°F19.5°C 42% 9.8 mph NNW15.8 kmh NNW 18.3 mph29.5 kmh 29.70 in1005.8 mb 0.00 in0.0 mm 0.00 in0.0 mm 0.00 in0.0 mm
12:12 PM 93.7°F34.3°C 67.3°F19.6°C 42% 11.4 mph NNW18.3 kmh NNW 17.4 mph28.0 kmh 29.71 in1006.1 mb 0.00 in0.0 mm 0.00 in0.0 mm 0.00 in0.0 mm
12:13 PM 93.9°F34.4°C 67.4°F19.7°C 42% 9.2 mph NNW14.8 kmh NNW 17.4 mph28.0 kmh 29.71 in1006.1 mb 0.00 in0.0 mm 0.00 in0.0 mm 0.00 in0.0 mm
12:14 PM 94.1°F34.5°C 67.6°F19.8°C 42% 11.4 mph NNW18.3 kmh NNW 17.4 mph28.0 kmh 29.71 in1006.1 mb 0.00 in0.0 mm 0.00 in0.0 mm 0.00 in0.0 mm
12:15 PM 94.3°F34.6°C 67.0°F19.4°C 41% 9.8 mph NNW15.8 kmh NNW 17.4 mph28.0 kmh 29.71 in1006.1 mb 0.00 in0.0 mm 0.00 in0.0 mm 0.00 in0.0 mm
12:16 PM 94.3°F34.6°C 67.0°F19.4°C 41% 8.3 mph NNW13.4 kmh NNW 17.4 mph28.0 kmh 29.71 in1006.1 mb 0.00 in0.0 mm 0.00 in0.0 mm 0.00 in0.0 mm
12:17 PM 94.3°F34.6°C 67.0°F19.4°C 41% 9.8 mph NNW15.8 kmh NNW 17.4 mph28.0 kmh 29.70 in1005.8 mb 0.00 in0.0 mm 0.00 in0.0 mm 0.00 in0.0 mm
12:18 PM 94.3°F34.6°C 67.7°F19.8°C 42% 9.8 mph NNW15.8 kmh NNW 21.3 mph34.3 kmh 29.71 in1006.1 mb 0.00 in0.0 mm 0.00 in0.0 mm 0.00 in0.0 mm
12:19 PM 94.5°F34.7°C 67.2°F19.6°C 41% 9.2 mph NNW14.8 kmh NNW 21.3 mph34.3 kmh 29.71 in1006.1 mb 0.00 in0.0 mm 0.00 in0.0 mm 0.00 in0.0 mm
12:20 PM 94.5°F34.7°C 67.2°F19.6°C 41% 9.8 mph NNW15.8 kmh NNW 21.3 mph34.3 kmh 29.71 in1006.1 mb 0.00 in0.0 mm 0.00 in0.0 mm 0.00 in0.0 mm
12:21 PM 94.5°F34.7°C 67.2°F19.6°C 41% 9.2 mph NNW14.8 kmh NNW 21.3 mph34.3 kmh 29.71 in1006.1 mb 0.00 in0.0 mm 0.00 in0.0 mm 0.00 in0.0 mm
12:22 PM 94.5°F34.7°C 67.2°F19.6°C 41% 10.7 mph NNW17.2 kmh NNW 21.3 mph34.3 kmh 29.71 in1006.1 mb 0.00 in0.0 mm 0.00 in0.0 mm 0.00 in0.0 mm
12:23 PM 94.3°F34.6°C 67.0°F19.4°C 41% 6.0 mph NNW9.7 kmh NNW 21.3 mph34.3 kmh 29.71 in1006.1 mb 0.00 in0.0 mm 0.00 in0.0 mm 0.00 in0.0 mm
12:24 PM 94.1°F34.5°C 66.9°F19.4°C 41% 7.6 mph NNW12.2 kmh NNW 21.3 mph34.3 kmh 29.70 in1005.8 mb 0.00 in0.0 mm 0.00 in0.0 mm 0.00 in0.0 mm
12:25 PM 93.9°F34.4°C 66.7°F19.3°C 41% 7.6 mph NNW12.2 kmh NNW 21.3 mph34.3 kmh 29.71 in1006.1 mb 0.00 in0.0 mm 0.00 in0.0 mm 0.00 in0.0 mm
12:26 PM 93.9°F34.4°C 66.7°F19.3°C 41% 6.9 mph NNW11.1 kmh NNW 21.3 mph34.3 kmh 29.70 in1005.8 mb 0.00 in0.0 mm 0.00 in0.0 mm 0.00 in0.0 mm
12:27 PM 93.7°F34.3°C 67.3°F19.6°C 42% 9.2 mph NNW14.8 kmh NNW 21.3 mph34.3 kmh 29.70 in1005.8 mb 0.00 in0.0 mm 0.00 in0.0 mm 0.00 in0.0 mm
12:28 PM 93.7°F34.3°C 67.3°F19.6°C 42% 5.4 mph NNW8.7 kmh NNW 17.4 mph28.0 kmh 29.71 in1006.1 mb 0.00 in0.0 mm 0.00 in0.0 mm 0.00 in0.0 mm
12:29 PM 93.7°F34.3°C 67.3°F19.6°C 42% 3.1 mph NNW5.0 kmh NNW 16.8 mph27.0 kmh 29.70 in1005.8 mb 0.00 in0.0 mm 0.00 in0.0 mm 0.00 in0.0 mm
12:30 PM 93.9°F34.4°C 67.4°F19.7°C 42% 5.4 mph NNW8.7 kmh NNW 16.8 mph27.0 kmh 29.70 in1005.8 mb 0.00 in0.0 mm 0.00 in0.0 mm 0.00 in0.0 mm
12:31 PM 94.5°F34.7°C 67.2°F19.6°C 41% 9.2 mph NNW14.8 kmh NNW 16.8 mph27.0 kmh 29.70 in1005.8 mb 0.00 in0.0 mm 0.00 in0.0 mm 0.00 in0.0 mm
12:32 PM 94.5°F34.7°C 67.2°F19.6°C 41% 11.4 mph NNW18.3 kmh NNW 16.8 mph27.0 kmh 29.70 in1005.8 mb 0.00 in0.0 mm 0.00 in0.0 mm 0.00 in0.0 mm
12:33 PM 95.0°F35.0°C 66.2°F19.0°C 39% 6.9 mph N11.1 kmh N 14.5 mph23.3 kmh 29.70 in1005.8 mb 0.00 in0.0 mm 0.00 in0.0 mm 0.00 in0.0 mm
12:34 PM 95.0°F35.0°C 66.2°F19.0°C 39% 8.3 mph NNW13.4 kmh NNW 15.9 mph25.6 kmh 29.70 in1005.8 mb 0.00 in0.0 mm 0.00 in0.0 mm 0.00 in0.0 mm
12:35 PM 95.0°F35.0°C 66.2°F19.0°C 39% 8.3 mph NNW13.4 kmh NNW 15.9 mph25.6 kmh 29.70 in1005.8 mb 0.00 in0.0 mm 0.00 in0.0 mm 0.00 in0.0 mm
12:37 PM 95.2°F35.1°C 66.3°F19.1°C 39% 8.3 mph N13.4 kmh N 15.9 mph25.6 kmh 29.70 in1005.8 mb 0.00 in0.0 mm 0.00 in0.0 mm 0.00 in0.0 mm
12:38 PM 95.2°F35.1°C 66.3°F19.1°C 39% 8.3 mph N13.4 kmh N 15.9 mph25.6 kmh 29.70 in1005.8 mb 0.00 in0.0 mm 0.00 in0.0 mm 0.00 in0.0 mm
12:39 PM 95.2°F35.1°C 67.1°F19.5°C 40% 9.8 mph N15.8 kmh N 15.9 mph25.6 kmh 29.69 in1005.4 mb 0.00 in0.0 mm 0.00 in0.0 mm 0.00 in0.0 mm
12:40 PM 95.0°F35.0°C 66.2°F19.0°C 39% 7.6 mph N12.2 kmh N 15.9 mph25.6 kmh 29.70 in1005.8 mb 0.00 in0.0 mm 0.00 in0.0 mm 0.00 in0.0 mm
12:42 PM 95.0°F35.0°C 66.2°F19.0°C 39% 6.9 mph N11.1 kmh N 15.9 mph25.6 kmh 29.69 in1005.4 mb 0.00 in0.0 mm 0.00 in0.0 mm 0.00 in0.0 mm
12:43 PM 94.5°F34.7°C 66.5°F19.2°C 40% 4.5 mph NNW7.2 kmh NNW 15.9 mph25.6 kmh 29.70 in1005.8 mb 0.00 in0.0 mm 0.00 in0.0 mm 0.00 in0.0 mm
12:44 PM 94.5°F34.7°C 67.2°F19.6°C 41% 6.0 mph N9.7 kmh N 15.9 mph25.6 kmh 29.69 in1005.4 mb 0.00 in0.0 mm 0.00 in0.0 mm 0.00 in0.0 mm
12:48 PM 95.0°F35.0°C 66.2°F19.0°C 39% 4.5 mph NW7.2 kmh NW 15.2 mph24.5 kmh 29.69 in1005.4 mb 0.00 in0.0 mm 0.00 in0.0 mm 0.00 in0.0 mm
12:49 PM 95.0°F35.0°C 66.2°F19.0°C 39% 3.8 mph NW6.1 kmh NW 15.2 mph24.5 kmh 29.69 in1005.4 mb 0.00 in0.0 mm 0.00 in0.0 mm 0.00 in0.0 mm
01:07 PM 95.7°F35.4°C 65.3°F18.5°C 37% 5.4 mph NW8.7 kmh NW 7.6 mph12.2 kmh 29.68 in1005.1 mb 0.00 in0.0 mm 0.00 in0.0 mm 0.00 in0.0 mm
01:37 PM 96.8°F36.0°C 65.4°F18.6°C 36% 13.6 mph N21.9 kmh N 16.8 mph27.0 kmh 29.67 in1004.7 mb 0.00 in0.0 mm 0.00 in0.0 mm 0.00 in0.0 mm
02:07 PM 95.7°F35.4°C 64.5°F18.1°C 36% 6.9 mph N11.1 kmh N 13.6 mph21.9 kmh 29.65 in1004.1 mb 0.00 in0.0 mm 0.00 in0.0 mm 0.00 in0.0 mm
02:32 PM 95.7°F35.4°C 64.5°F18.1°C 36% 6.9 mph N11.1 kmh N 13.6 mph21.9 kmh 29.65 in1004.1 mb 0.00 in0.0 mm 0.00 in0.0 mm 0.00 in0.0 mm
02:33 PM 96.3°F35.7°C 64.2°F17.9°C 35% 4.5 mph N7.2 kmh N 9.2 mph14.8 kmh 29.64 in1003.7 mb 0.00 in0.0 mm 0.00 in0.0 mm 0.00 in0.0 mm
02:34 PM 96.1°F35.6°C 64.9°F18.3°C 36% 7.6 mph NNE12.2 kmh NNE 13.0 mph20.9 kmh 29.65 in1004.1 mb 0.00 in0.0 mm 0.00 in0.0 mm 0.00 in0.0 mm
02:35 PM 95.9°F35.5°C 64.7°F18.2°C 36% 8.3 mph NNE13.4 kmh NNE 13.0 mph20.9 kmh 29.64 in1003.7 mb 0.00 in0.0 mm 0.00 in0.0 mm 0.00 in0.0 mm
02:36 PM 95.7°F35.4°C 64.6°F18.1°C 36% 6.9 mph NNE11.1 kmh NNE 13.0 mph20.9 kmh 29.64 in1003.7 mb 0.00 in0.0 mm 0.00 in0.0 mm 0.00 in0.0 mm
02:37 PM 95.9°F35.5°C 64.7°F18.2°C 36% 6.9 mph NNE11.1 kmh NNE 13.0 mph20.9 kmh 29.64 in1003.7 mb 0.00 in0.0 mm 0.00 in0.0 mm 0.00 in0.0 mm
02:38 PM 96.3°F35.7°C 65.0°F18.3°C 36% 15.2 mph NNE24.5 kmh NNE 19.0 mph30.6 kmh 29.63 in1003.4 mb 0.00 in0.0 mm 0.00 in0.0 mm 0.00 in0.0 mm
02:39 PM 96.3°F35.7°C 65.0°F18.3°C 36% 11.4 mph N18.3 kmh N 19.0 mph30.6 kmh 29.64 in1003.7 mb 0.00 in0.0 mm 0.00 in0.0 mm 0.00 in0.0 mm
02:40 PM 96.4°F35.8°C 65.2°F18.4°C 36% 9.8 mph N15.8 kmh N 19.0 mph30.6 kmh 29.64 in1003.7 mb 0.00 in0.0 mm 0.00 in0.0 mm 0.00 in0.0 mm
02:41 PM 96.4°F35.8°C 64.4°F18.0°C 35% 8.3 mph N13.4 kmh N 19.0 mph30.6 kmh 29.64 in1003.7 mb 0.00 in0.0 mm 0.00 in0.0 mm 0.00 in0.0 mm
02:42 PM 96.6°F35.9°C 65.4°F18.6°C 36% 6.9 mph N11.1 kmh N 19.0 mph30.6 kmh 29.64 in1003.7 mb 0.00 in0.0 mm 0.00 in0.0 mm 0.00 in0.0 mm
02:43 PM 96.8°F36.0°C 64.7°F18.2°C 35% 9.8 mph N15.8 kmh N 19.0 mph30.6 kmh 29.63 in1003.4 mb 0.00 in0.0 mm 0.00 in0.0 mm 0.00 in0.0 mm
02:44 PM 97.2°F36.2°C 64.2°F17.9°C 34% 9.2 mph N14.8 kmh N 19.0 mph30.6 kmh 29.64 in1003.7 mb 0.00 in0.0 mm 0.00 in0.0 mm 0.00 in0.0 mm
02:45 PM 97.2°F36.2°C 64.2°F17.9°C 34% 7.6 mph N12.2 kmh N 19.0 mph30.6 kmh 29.64 in1003.7 mb 0.00 in0.0 mm 0.00 in0.0 mm 0.00 in0.0 mm
02:46 PM 97.3°F36.3°C 64.3°F17.9°C 34% 8.3 mph N13.4 kmh N 19.0 mph30.6 kmh 29.64 in1003.7 mb 0.00 in0.0 mm 0.00 in0.0 mm 0.00 in0.0 mm
02:47 PM 97.5°F36.4°C 64.5°F18.1°C 34% 8.3 mph N13.4 kmh N 19.0 mph30.6 kmh 29.63 in1003.4 mb 0.00 in0.0 mm 0.00 in0.0 mm 0.00 in0.0 mm
02:48 PM 97.5°F36.4°C 64.5°F18.1°C 34% 8.3 mph N13.4 kmh N 19.0 mph30.6 kmh 29.64 in1003.7 mb 0.00 in0.0 mm 0.00 in0.0 mm 0.00 in0.0 mm
02:49 PM 97.5°F36.4°C 64.5°F18.1°C 34% 8.3 mph N13.4 kmh N 14.5 mph23.3 kmh 29.63 in1003.4 mb 0.00 in0.0 mm 0.00 in0.0 mm 0.00 in0.0 mm
02:50 PM 97.5°F36.4°C 64.5°F18.1°C 34% 9.2 mph N14.8 kmh N 17.4 mph28.0 kmh 29.63 in1003.4 mb 0.00 in0.0 mm 0.00 in0.0 mm 0.00 in0.0 mm
02:51 PM 97.5°F36.4°C 64.5°F18.1°C 34% 11.4 mph N18.3 kmh N 19.7 mph31.7 kmh 29.64 in1003.7 mb 0.00 in0.0 mm 0.00 in0.0 mm 0.00 in0.0 mm
02:52 PM 97.3°F36.3°C 64.3°F17.9°C 34% 10.7 mph N17.2 kmh N 19.7 mph31.7 kmh 29.63 in1003.4 mb 0.00 in0.0 mm 0.00 in0.0 mm 0.00 in0.0 mm
02:53 PM 97.2°F36.2°C 64.2°F17.9°C 34% 9.2 mph N14.8 kmh N 19.7 mph31.7 kmh 29.63 in1003.4 mb 0.00 in0.0 mm 0.00 in0.0 mm 0.00 in0.0 mm
02:54 PM 96.8°F36.0°C 63.9°F17.7°C 34% 8.3 mph N13.4 kmh N 19.7 mph31.7 kmh 29.64 in1003.7 mb 0.00 in0.0 mm 0.00 in0.0 mm 0.00 in0.0 mm
02:55 PM 96.8°F36.0°C 63.9°F17.7°C 34% 9.2 mph N14.8 kmh N 19.7 mph31.7 kmh 29.63 in1003.4 mb 0.00 in0.0 mm 0.00 in0.0 mm 0.00 in0.0 mm
02:56 PM 96.6°F35.9°C 64.5°F18.1°C 35% 9.8 mph N15.8 kmh N 19.7 mph31.7 kmh 29.63 in1003.4 mb 0.00 in0.0 mm 0.00 in0.0 mm 0.00 in0.0 mm
02:57 PM 96.6°F35.9°C 64.5°F18.1°C 35% 9.2 mph N14.8 kmh N 19.7 mph31.7 kmh 29.63 in1003.4 mb 0.00 in0.0 mm 0.00 in0.0 mm 0.00 in0.0 mm
02:58 PM 96.8°F36.0°C 63.9°F17.7°C 34% 10.7 mph N17.2 kmh N 19.7 mph31.7 kmh 29.63 in1003.4 mb 0.00 in0.0 mm 0.00 in0.0 mm 0.00 in0.0 mm
02:59 PM 96.8°F36.0°C 63.9°F17.7°C 34% 9.8 mph N15.8 kmh N 19.7 mph31.7 kmh 29.62 in1003.0 mb 0.00 in0.0 mm 0.00 in0.0 mm 0.00 in0.0 mm
03:00 PM 96.8°F36.0°C 63.9°F17.7°C 34% 7.6 mph N12.2 kmh N 19.7 mph31.7 kmh 29.63 in1003.4 mb 0.00 in0.0 mm 0.00 in0.0 mm 0.00 in0.0 mm
03:01 PM 97.0°F36.1°C 64.0°F17.8°C 34% 6.0 mph N9.7 kmh N 19.7 mph31.7 kmh 29.63 in1003.4 mb 0.00 in0.0 mm 0.00 in0.0 mm 0.00 in0.0 mm
03:02 PM 97.5°F36.4°C 64.5°F18.1°C 34% 6.0 mph NNW9.7 kmh NNW 15.9 mph25.6 kmh 29.63 in1003.4 mb 0.00 in0.0 mm 0.00 in0.0 mm 0.00 in0.0 mm
03:03 PM 97.9°F36.6°C 64.8°F18.2°C 34% 9.2 mph NNW14.8 kmh NNW 16.8 mph27.0 kmh 29.63 in1003.4 mb 0.00 in0.0 mm 0.00 in0.0 mm 0.00 in0.0 mm
03:04 PM 98.1°F36.7°C 65.0°F18.3°C 34% 8.3 mph NW13.4 kmh NW 16.8 mph27.0 kmh 29.63 in1003.4 mb 0.00 in0.0 mm 0.00 in0.0 mm 0.00 in0.0 mm
03:06 PM 97.9°F36.6°C 64.8°F18.2°C 34% 11.4 mph N18.3 kmh N 17.4 mph28.0 kmh 29.63 in1003.4 mb 0.00 in0.0 mm 0.00 in0.0 mm 0.00 in0.0 mm
03:08 PM 97.7°F36.5°C 64.6°F18.1°C 34% 10.7 mph N17.2 kmh N 17.5 mph28.2 kmh 29.62 in1003.0 mb 0.00 in0.0 mm 0.00 in0.0 mm 0.00 in0.0 mm
03:38 PM 97.9°F36.6°C 64.7°F18.2°C 34% 10.7 mph N17.2 kmh N 13.0 mph20.9 kmh 29.62 in1003.0 mb 0.00 in0.0 mm 0.00 in0.0 mm 0.00 in0.0 mm
03:41 PM 98.2°F36.8°C 64.3°F17.9°C 33% 9.2 mph NNW14.8 kmh NNW 14.5 mph23.3 kmh 29.61 in1002.7 mb 0.00 in0.0 mm 0.00 in0.0 mm 0.00 in0.0 mm
03:42 PM 98.2°F36.8°C 64.3°F17.9°C 33% 9.8 mph NW15.8 kmh NW 14.5 mph23.3 kmh 29.61 in1002.7 mb 0.00 in0.0 mm 0.00 in0.0 mm 0.00 in0.0 mm
03:43 PM 98.2°F36.8°C 65.1°F18.4°C 34% 8.3 mph NNW13.4 kmh NNW 14.5 mph23.3 kmh 29.61 in1002.7 mb 0.00 in0.0 mm 0.00 in0.0 mm 0.00 in0.0 mm
03:44 PM 98.4°F36.9°C 65.3°F18.5°C 34% 7.6 mph N12.2 kmh N 14.5 mph23.3 kmh 29.62 in1003.0 mb 0.00 in0.0 mm 0.00 in0.0 mm 0.00 in0.0 mm
03:45 PM 98.2°F36.8°C 65.1°F18.4°C 34% 10.7 mph N17.2 kmh N 15.9 mph25.6 kmh 29.61 in1002.7 mb 0.00 in0.0 mm 0.00 in0.0 mm 0.00 in0.0 mm
03:46 PM 98.2°F36.8°C 65.1°F18.4°C 34% 10.7 mph N17.2 kmh N 15.9 mph25.6 kmh 29.61 in1002.7 mb 0.00 in0.0 mm 0.00 in0.0 mm 0.00 in0.0 mm
03:47 PM 98.1°F36.7°C 65.0°F18.3°C 34% 8.3 mph N13.4 kmh N 15.9 mph25.6 kmh 29.62 in1003.0 mb 0.00 in0.0 mm 0.00 in0.0 mm 0.00 in0.0 mm
03:48 PM 97.9°F36.6°C 64.8°F18.2°C 34% 9.2 mph N14.8 kmh N 15.9 mph25.6 kmh 29.61 in1002.7 mb 0.00 in0.0 mm 0.00 in0.0 mm 0.00 in0.0 mm
03:49 PM 97.7°F36.5°C 64.7°F18.2°C 34% 9.2 mph N14.8 kmh N 15.9 mph25.6 kmh 29.62 in1003.0 mb 0.00 in0.0 mm 0.00 in0.0 mm 0.00 in0.0 mm
03:50 PM 97.7°F36.5°C 64.7°F18.2°C 34% 9.2 mph N14.8 kmh N 15.9 mph25.6 kmh 29.61 in1002.7 mb 0.00 in0.0 mm 0.00 in0.0 mm 0.00 in0.0 mm
03:51 PM 97.5°F36.4°C 64.5°F18.1°C 34% 7.6 mph N12.2 kmh N 15.9 mph25.6 kmh 29.61 in1002.7 mb 0.00 in0.0 mm 0.00 in0.0 mm 0.00 in0.0 mm
03:52 PM 97.5°F36.4°C 64.5°F18.1°C 34% 6.9 mph N11.1 kmh N 15.9 mph25.6 kmh 29.61 in1002.7 mb 0.00 in0.0 mm 0.00 in0.0 mm 0.00 in0.0 mm
03:53 PM 97.5°F36.4°C 64.5°F18.1°C 34% 7.6 mph N12.2 kmh N 15.9 mph25.6 kmh 29.61 in1002.7 mb 0.00 in0.0 mm 0.00 in0.0 mm 0.00 in0.0 mm
03:54 PM 97.5°F36.4°C 64.5°F18.1°C 34% 13.0 mph N20.9 kmh N 18.3 mph29.5 kmh 29.61 in1002.7 mb 0.00 in0.0 mm 0.00 in0.0 mm 0.00 in0.0 mm
03:55 PM 97.5°F36.4°C 64.5°F18.1°C 34% 10.7 mph NNW17.2 kmh NNW 18.3 mph29.5 kmh 29.61 in1002.7 mb 0.00 in0.0 mm 0.00 in0.0 mm 0.00 in0.0 mm
03:57 PM 97.7°F36.5°C 64.7°F18.2°C 34% 9.2 mph N14.8 kmh N 18.3 mph29.5 kmh 29.61 in1002.7 mb 0.00 in0.0 mm 0.00 in0.0 mm 0.00 in0.0 mm
03:58 PM 97.5°F36.4°C 65.3°F18.5°C 35% 6.9 mph NNE11.1 kmh NNE 18.3 mph29.5 kmh 29.61 in1002.7 mb 0.00 in0.0 mm 0.00 in0.0 mm 0.00 in0.0 mm
03:59 PM 97.3°F36.3°C 65.2°F18.4°C 35% 10.7 mph N17.2 kmh N 18.3 mph29.5 kmh 29.61 in1002.7 mb 0.00 in0.0 mm 0.00 in0.0 mm 0.00 in0.0 mm
04:00 PM 97.2°F36.2°C 65.0°F18.3°C 35% 9.2 mph N14.8 kmh N 18.3 mph29.5 kmh 29.61 in1002.7 mb 0.00 in0.0 mm 0.00 in0.0 mm 0.00 in0.0 mm
04:02 PM 96.8°F36.0°C 65.5°F18.6°C 36% 9.8 mph N15.8 kmh N 18.3 mph29.5 kmh 29.60 in1002.4 mb 0.00 in0.0 mm 0.00 in0.0 mm 0.00 in0.0 mm
04:03 PM 96.8°F36.0°C 66.3°F19.1°C 37% 6.0 mph NNE9.7 kmh NNE 18.3 mph29.5 kmh 29.61 in1002.7 mb 0.00 in0.0 mm 0.00 in0.0 mm 0.00 in0.0 mm
04:04 PM 96.8°F36.0°C 66.3°F19.1°C 37% 6.9 mph NNE11.1 kmh NNE 18.3 mph29.5 kmh 29.61 in1002.7 mb 0.00 in0.0 mm 0.00 in0.0 mm 0.00 in0.0 mm
04:05 PM 97.0°F36.1°C 66.5°F19.2°C 37% 9.2 mph NNE14.8 kmh NNE 16.8 mph27.0 kmh 29.61 in1002.7 mb 0.00 in0.0 mm 0.00 in0.0 mm 0.00 in0.0 mm
04:07 PM 96.8°F36.0°C 66.3°F19.1°C 37% 6.0 mph NNE9.7 kmh NNE 16.8 mph27.0 kmh 29.61 in1002.7 mb 0.00 in0.0 mm 0.00 in0.0 mm 0.00 in0.0 mm
04:08 PM 96.8°F36.0°C 67.1°F19.5°C 38% 9.2 mph NNE14.8 kmh NNE 16.8 mph27.0 kmh 29.61 in1002.7 mb 0.00 in0.0 mm 0.00 in0.0 mm 0.00 in0.0 mm
04:09 PM 96.8°F36.0°C 66.3°F19.1°C 37% 9.8 mph NNE15.8 kmh NNE 16.8 mph27.0 kmh 29.61 in1002.7 mb 0.00 in0.0 mm 0.00 in0.0 mm 0.00 in0.0 mm
04:11 PM 96.1°F35.6°C 66.4°F19.1°C 38% 6.9 mph N11.1 kmh N 14.5 mph23.3 kmh 29.61 in1002.7 mb 0.00 in0.0 mm 0.00 in0.0 mm 0.00 in0.0 mm
04:12 PM 96.1°F35.6°C 67.2°F19.6°C 39% 8.3 mph N13.4 kmh N 14.5 mph23.3 kmh 29.60 in1002.4 mb 0.00 in0.0 mm 0.00 in0.0 mm 0.00 in0.0 mm
04:13 PM 96.1°F35.6°C 67.2°F19.6°C 39% 7.6 mph N12.2 kmh N 14.5 mph23.3 kmh 29.60 in1002.4 mb 0.00 in0.0 mm 0.00 in0.0 mm 0.00 in0.0 mm
04:14 PM 96.1°F35.6°C 67.2°F19.6°C 39% 8.3 mph N13.4 kmh N 14.5 mph23.3 kmh 29.60 in1002.4 mb 0.00 in0.0 mm 0.00 in0.0 mm 0.00 in0.0 mm
04:16 PM 95.9°F35.5°C 66.3°F19.1°C 38% 7.6 mph N12.2 kmh N 14.5 mph23.3 kmh 29.61 in1002.7 mb 0.00 in0.0 mm 0.00 in0.0 mm 0.00 in0.0 mm
04:17 PM 95.9°F35.5°C 66.3°F19.1°C 38% 7.6 mph NNE12.2 kmh NNE 14.5 mph23.3 kmh 29.60 in1002.4 mb 0.00 in0.0 mm 0.00 in0.0 mm 0.00 in0.0 mm
04:18 PM 95.7°F35.4°C 66.1°F18.9°C 38% 3.8 mph NNE6.1 kmh NNE 14.5 mph23.3 kmh 29.60 in1002.4 mb 0.00 in0.0 mm 0.00 in0.0 mm 0.00 in0.0 mm
04:19 PM 95.9°F35.5°C 67.0°F19.4°C 39% 4.5 mph NNE7.2 kmh NNE 12.1 mph19.5 kmh 29.60 in1002.4 mb 0.00 in0.0 mm 0.00 in0.0 mm 0.00 in0.0 mm
04:20 PM 95.9°F35.5°C 67.0°F19.4°C 39% 9.2 mph NNE14.8 kmh NNE 12.1 mph19.5 kmh 29.60 in1002.4 mb 0.00 in0.0 mm 0.00 in0.0 mm 0.00 in0.0 mm
04:21 PM 96.1°F35.6°C 67.2°F19.6°C 39% 6.9 mph N11.1 kmh N 13.6 mph21.9 kmh 29.60 in1002.4 mb 0.00 in0.0 mm 0.00 in0.0 mm 0.00 in0.0 mm
04:22 PM 96.3°F35.7°C 67.4°F19.7°C 39% 9.2 mph N14.8 kmh N 13.6 mph21.9 kmh 29.60 in1002.4 mb 0.00 in0.0 mm 0.00 in0.0 mm 0.00 in0.0 mm
04:24 PM 96.3°F35.7°C 66.6°F19.2°C 38% 7.6 mph N12.2 kmh N 13.7 mph22.0 kmh 29.60 in1002.4 mb 0.00 in0.0 mm 0.00 in0.0 mm 0.00 in0.0 mm
04:25 PM 96.3°F35.7°C 66.6°F19.2°C 38% 9.2 mph N14.8 kmh N 13.7 mph22.0 kmh 29.60 in1002.4 mb 0.00 in0.0 mm 0.00 in0.0 mm 0.00 in0.0 mm
04:26 PM 96.1°F35.6°C 66.4°F19.1°C 38% 7.6 mph N12.2 kmh N 17.4 mph28.0 kmh 29.60 in1002.4 mb 0.00 in0.0 mm 0.00 in0.0 mm 0.00 in0.0 mm
04:27 PM 96.1°F35.6°C 67.2°F19.6°C 39% 5.4 mph N8.7 kmh N 17.4 mph28.0 kmh 29.60 in1002.4 mb 0.00 in0.0 mm 0.00 in0.0 mm 0.00 in0.0 mm
04:28 PM 96.3°F35.7°C 67.4°F19.7°C 39% 8.3 mph N13.4 kmh N 17.4 mph28.0 kmh 29.60 in1002.4 mb 0.00 in0.0 mm 0.00 in0.0 mm 0.00 in0.0 mm
04:29 PM 96.3°F35.7°C 67.4°F19.7°C 39% 6.0 mph N9.7 kmh N 17.4 mph28.0 kmh 29.59 in1002.0 mb 0.00 in0.0 mm 0.00 in0.0 mm 0.00 in0.0 mm
04:30 PM 96.4°F35.8°C 66.8°F19.3°C 38% 9.2 mph N14.8 kmh N 17.4 mph28.0 kmh 29.60 in1002.4 mb 0.00 in0.0 mm 0.00 in0.0 mm 0.00 in0.0 mm
04:31 PM 96.4°F35.8°C 66.8°F19.3°C 38% 5.4 mph N8.7 kmh N 17.4 mph28.0 kmh 29.60 in1002.4 mb 0.00 in0.0 mm 0.00 in0.0 mm 0.00 in0.0 mm
04:32 PM 96.6°F35.9°C 67.7°F19.8°C 39% 7.6 mph N12.2 kmh N 17.4 mph28.0 kmh 29.60 in1002.4 mb 0.00 in0.0 mm 0.00 in0.0 mm 0.00 in0.0 mm
04:33 PM 96.6°F35.9°C 66.9°F19.4°C 38% 10.7 mph N17.2 kmh N 17.4 mph28.0 kmh 29.60 in1002.4 mb 0.00 in0.0 mm 0.00 in0.0 mm 0.00 in0.0 mm
04:34 PM 96.6°F35.9°C 66.9°F19.4°C 38% 11.4 mph N18.3 kmh N 17.4 mph28.0 kmh 29.60 in1002.4 mb 0.00 in0.0 mm 0.00 in0.0 mm 0.00 in0.0 mm
04:35 PM 96.4°F35.8°C 66.8°F19.3°C 38% 9.8 mph N15.8 kmh N 17.4 mph28.0 kmh 29.60 in1002.4 mb 0.00 in0.0 mm 0.00 in0.0 mm 0.00 in0.0 mm
04:36 PM 96.4°F35.8°C 66.8°F19.3°C 38% 8.3 mph N13.4 kmh N 14.5 mph23.3 kmh 29.60 in1002.4 mb 0.00 in0.0 mm 0.00 in0.0 mm 0.00 in0.0 mm
04:37 PM 96.4°F35.8°C 66.8°F19.3°C 38% 7.6 mph NNE12.2 kmh NNE 14.5 mph23.3 kmh 29.59 in1002.0 mb 0.00 in0.0 mm 0.00 in0.0 mm 0.00 in0.0 mm
04:38 PM 96.3°F35.7°C 66.6°F19.2°C 38% 9.8 mph NNE15.8 kmh NNE 14.5 mph23.3 kmh 29.60 in1002.4 mb 0.00 in0.0 mm 0.00 in0.0 mm 0.00 in0.0 mm
04:39 PM 96.3°F35.7°C 66.6°F19.2°C 38% 7.6 mph NNE12.2 kmh NNE 14.5 mph23.3 kmh 29.60 in1002.4 mb 0.00 in0.0 mm 0.00 in0.0 mm 0.00 in0.0 mm
04:40 PM 96.4°F35.8°C 66.8°F19.3°C 38% 6.9 mph NNE11.1 kmh NNE 14.5 mph23.3 kmh 29.59 in1002.0 mb 0.00 in0.0 mm 0.00 in0.0 mm 0.00 in0.0 mm
04:41 PM 96.3°F35.7°C 67.4°F19.7°C 39% 7.6 mph N12.2 kmh N 14.5 mph23.3 kmh 29.59 in1002.0 mb 0.00 in0.0 mm 0.00 in0.0 mm 0.00 in0.0 mm
04:42 PM 96.4°F35.8°C 66.8°F19.3°C 38% 8.3 mph N13.4 kmh N 14.5 mph23.3 kmh 29.59 in1002.0 mb 0.00 in0.0 mm 0.00 in0.0 mm 0.00 in0.0 mm
04:43 PM 96.4°F35.8°C 67.5°F19.7°C 39% 6.0 mph NNE9.7 kmh NNE 14.5 mph23.3 kmh 29.59 in1002.0 mb 0.00 in0.0 mm 0.00 in0.0 mm 0.00 in0.0 mm
04:44 PM 96.4°F35.8°C 67.5°F19.7°C 39% 6.0 mph N9.7 kmh N 14.5 mph23.3 kmh 29.59 in1002.0 mb 0.00 in0.0 mm 0.00 in0.0 mm 0.00 in0.0 mm
04:45 PM 96.4°F35.8°C 67.5°F19.7°C 39% 7.6 mph NNE12.2 kmh NNE 14.5 mph23.3 kmh 29.59 in1002.0 mb 0.00 in0.0 mm 0.00 in0.0 mm 0.00 in0.0 mm
04:46 PM 96.3°F35.7°C 68.1°F20.1°C 40% 6.0 mph N9.7 kmh N 14.5 mph23.3 kmh 29.59 in1002.0 mb 0.00 in0.0 mm 0.00 in0.0 mm 0.00 in0.0 mm
04:47 PM 95.9°F35.5°C 69.2°F20.7°C 42% 9.2 mph N14.8 kmh N 14.5 mph23.3 kmh 29.59 in1002.0 mb 0.00 in0.0 mm 0.00 in0.0 mm 0.00 in0.0 mm
04:48 PM 95.5°F35.3°C 68.9°F20.5°C 42% 8.3 mph N13.4 kmh N 14.5 mph23.3 kmh 29.59 in1002.0 mb 0.00 in0.0 mm 0.00 in0.0 mm 0.00 in0.0 mm
04:49 PM 95.2°F35.1°C 68.5°F20.3°C 42% 4.5 mph N7.2 kmh N 14.5 mph23.3 kmh 29.59 in1002.0 mb 0.00 in0.0 mm 0.00 in0.0 mm 0.00 in0.0 mm
04:50 PM 95.0°F35.0°C 69.1°F20.6°C 43% 7.6 mph NNE12.2 kmh NNE 14.5 mph23.3 kmh 29.59 in1002.0 mb 0.00 in0.0 mm 0.00 in0.0 mm 0.00 in0.0 mm
04:51 PM 95.2°F35.1°C 69.2°F20.7°C 43% 10.7 mph NNE17.2 kmh NNE 15.2 mph24.5 kmh 29.59 in1002.0 mb 0.00 in0.0 mm 0.00 in0.0 mm 0.00 in0.0 mm
04:52 PM 95.2°F35.1°C 67.8°F19.9°C 41% 12.1 mph NNE19.5 kmh NNE 15.2 mph24.5 kmh 29.59 in1002.0 mb 0.00 in0.0 mm 0.00 in0.0 mm 0.00 in0.0 mm
04:53 PM 95.2°F35.1°C 67.1°F19.5°C 40% 8.3 mph NNE13.4 kmh NNE 15.2 mph24.5 kmh 29.59 in1002.0 mb 0.00 in0.0 mm 0.00 in0.0 mm 0.00 in0.0 mm
04:54 PM 95.2°F35.1°C 67.8°F19.9°C 41% 9.2 mph NNE14.8 kmh NNE 15.2 mph24.5 kmh 29.59 in1002.0 mb 0.00 in0.0 mm 0.00 in0.0 mm 0.00 in0.0 mm
04:55 PM 95.2°F35.1°C 67.1°F19.5°C 40% 8.3 mph NNE13.4 kmh NNE 15.2 mph24.5 kmh 29.59 in1002.0 mb 0.00 in0.0 mm 0.00 in0.0 mm 0.00 in0.0 mm
04:56 PM 95.2°F35.1°C 67.8°F19.9°C 41% 7.6 mph NNE12.2 kmh NNE 15.2 mph24.5 kmh 29.59 in1002.0 mb 0.00 in0.0 mm 0.00 in0.0 mm 0.00 in0.0 mm
04:57 PM 95.2°F35.1°C 67.1°F19.5°C 40% 7.6 mph NNE12.2 kmh NNE 15.2 mph24.5 kmh 29.59 in1002.0 mb 0.00 in0.0 mm 0.00 in0.0 mm 0.00 in0.0 mm
04:58 PM 95.4°F35.2°C 68.0°F20.0°C 41% 4.5 mph NNE7.2 kmh NNE 15.2 mph24.5 kmh 29.59 in1002.0 mb 0.00 in0.0 mm 0.00 in0.0 mm 0.00 in0.0 mm
04:59 PM 95.5°F35.3°C 68.2°F20.1°C 41% 5.4 mph NE8.7 kmh NE 15.2 mph24.5 kmh 29.59 in1002.0 mb 0.00 in0.0 mm 0.00 in0.0 mm 0.00 in0.0 mm
05:00 PM 95.5°F35.3°C 68.2°F20.1°C 41% 6.9 mph NNE11.1 kmh NNE 15.2 mph24.5 kmh 29.59 in1002.0 mb 0.00 in0.0 mm 0.00 in0.0 mm 0.00 in0.0 mm
05:01 PM 95.7°F35.4°C 68.3°F20.2°C 41% 5.4 mph NE8.7 kmh NE 15.2 mph24.5 kmh 29.59 in1002.0 mb 0.00 in0.0 mm 0.00 in0.0 mm 0.00 in0.0 mm
05:02 PM 95.7°F35.4°C 68.3°F20.2°C 41% 6.9 mph NE11.1 kmh NE 15.2 mph24.5 kmh 29.59 in1002.0 mb 0.00 in0.0 mm 0.00 in0.0 mm 0.00 in0.0 mm
05:03 PM 95.9°F35.5°C 68.5°F20.3°C 41% 6.0 mph NE9.7 kmh NE 15.2 mph24.5 kmh 29.59 in1002.0 mb 0.00 in0.0 mm 0.00 in0.0 mm 0.00 in0.0 mm
05:04 PM 95.7°F35.4°C 68.3°F20.2°C 41% 6.9 mph NE11.1 kmh NE 15.2 mph24.5 kmh 29.59 in1002.0 mb 0.00 in0.0 mm 0.00 in0.0 mm 0.00 in0.0 mm
05:05 PM 95.7°F35.4°C 69.0°F20.6°C 42% 8.3 mph NE13.4 kmh NE 13.0 mph20.9 kmh 29.59 in1002.0 mb 0.00 in0.0 mm 0.00 in0.0 mm 0.00 in0.0 mm
05:06 PM 95.7°F35.4°C 69.0°F20.6°C 42% 9.2 mph NE14.8 kmh NE 12.1 mph19.5 kmh 29.59 in1002.0 mb 0.00 in0.0 mm 0.00 in0.0 mm 0.00 in0.0 mm
05:07 PM 95.4°F35.2°C 69.4°F20.8°C 43% 5.4 mph NE8.7 kmh NE 12.1 mph19.5 kmh 29.59 in1002.0 mb 0.00 in0.0 mm 0.00 in0.0 mm 0.00 in0.0 mm
05:08 PM 95.2°F35.1°C 69.9°F21.1°C 44% 4.5 mph NE7.2 kmh NE 12.1 mph19.5 kmh 29.59 in1002.0 mb 0.00 in0.0 mm 0.00 in0.0 mm 0.00 in0.0 mm
05:09 PM 95.2°F35.1°C 69.9°F21.1°C 44% 9.2 mph NNE14.8 kmh NNE 14.5 mph23.3 kmh 29.59 in1002.0 mb 0.00 in0.0 mm 0.00 in0.0 mm 0.00 in0.0 mm
05:10 PM 95.0°F35.0°C 70.4°F21.3°C 45% 11.4 mph NNE18.3 kmh NNE 15.2 mph24.5 kmh 29.59 in1002.0 mb 0.00 in0.0 mm 0.00 in0.0 mm 0.00 in0.0 mm
05:11 PM 94.5°F34.7°C 71.2°F21.8°C 47% 4.5 mph NNE7.2 kmh NNE 15.2 mph24.5 kmh 29.59 in1002.0 mb 0.00 in0.0 mm 0.00 in0.0 mm 0.00 in0.0 mm
05:12 PM 94.3°F34.6°C 71.0°F21.7°C 47% 9.2 mph NNE14.8 kmh NNE 15.2 mph24.5 kmh 29.59 in1002.0 mb 0.00 in0.0 mm 0.00 in0.0 mm 0.00 in0.0 mm
05:13 PM 94.3°F34.6°C 71.7°F22.1°C 48% 9.8 mph NNE15.8 kmh NNE 16.8 mph27.0 kmh 29.59 in1002.0 mb 0.00 in0.0 mm 0.00 in0.0 mm 0.00 in0.0 mm
05:14 PM 94.1°F34.5°C 71.5°F21.9°C 48% 7.6 mph N12.2 kmh N 16.8 mph27.0 kmh 29.59 in1002.0 mb 0.00 in0.0 mm 0.00 in0.0 mm 0.00 in0.0 mm
05:15 PM 93.7°F34.3°C 71.2°F21.8°C 48% 8.3 mph N13.4 kmh N 16.8 mph27.0 kmh 29.59 in1002.0 mb 0.00 in0.0 mm 0.00 in0.0 mm 0.00 in0.0 mm
05:16 PM 93.6°F34.2°C 71.6°F22.0°C 49% 9.2 mph NNE14.8 kmh NNE 16.8 mph27.0 kmh 29.59 in1002.0 mb 0.00 in0.0 mm 0.00 in0.0 mm 0.00 in0.0 mm
05:17 PM 93.6°F34.2°C 71.6°F22.0°C 49% 6.9 mph NNE11.1 kmh NNE 16.8 mph27.0 kmh 29.59 in1002.0 mb 0.00 in0.0 mm 0.00 in0.0 mm 0.00 in0.0 mm
05:18 PM 93.4°F34.1°C 71.4°F21.9°C 49% 8.3 mph N13.4 kmh N 16.8 mph27.0 kmh 29.58 in1001.7 mb 0.00 in0.0 mm 0.00 in0.0 mm 0.00 in0.0 mm
05:19 PM 93.4°F34.1°C 71.4°F21.9°C 49% 9.8 mph N15.8 kmh N 16.8 mph27.0 kmh 29.59 in1002.0 mb 0.00 in0.0 mm 0.00 in0.0 mm 0.00 in0.0 mm
05:20 PM 93.4°F34.1°C 71.4°F21.9°C 49% 9.2 mph NNE14.8 kmh NNE 16.8 mph27.0 kmh 29.59 in1002.0 mb 0.00 in0.0 mm 0.00 in0.0 mm 0.00 in0.0 mm
05:21 PM 93.4°F34.1°C 71.4°F21.9°C 49% 8.3 mph NNE13.4 kmh NNE 16.8 mph27.0 kmh 29.59 in1002.0 mb 0.00 in0.0 mm 0.00 in0.0 mm 0.00 in0.0 mm
05:22 PM 93.4°F34.1°C 71.4°F21.9°C 49% 7.6 mph NNE12.2 kmh NNE 16.8 mph27.0 kmh 29.59 in1002.0 mb 0.00 in0.0 mm 0.00 in0.0 mm 0.00 in0.0 mm
05:23 PM 93.4°F34.1°C 71.4°F21.9°C 49% 9.2 mph NE14.8 kmh NE 15.2 mph24.5 kmh 29.58 in1001.7 mb 0.00 in0.0 mm 0.00 in0.0 mm 0.00 in0.0 mm
05:24 PM 93.4°F34.1°C 71.4°F21.9°C 49% 9.2 mph NE14.8 kmh NE 15.2 mph24.5 kmh 29.59 in1002.0 mb 0.00 in0.0 mm 0.00 in0.0 mm 0.00 in0.0 mm
05:25 PM 93.4°F34.1°C 71.4°F21.9°C 49% 7.6 mph NE12.2 kmh NE 15.2 mph24.5 kmh 29.58 in1001.7 mb 0.00 in0.0 mm 0.00 in0.0 mm 0.00 in0.0 mm
05:26 PM 93.4°F34.1°C 71.4°F21.9°C 49% 9.2 mph NE14.8 kmh NE 15.2 mph24.5 kmh 29.58 in1001.7 mb 0.00 in0.0 mm 0.00 in0.0 mm 0.00 in0.0 mm
05:27 PM 93.2°F34.0°C 71.3°F21.8°C 49% 6.0 mph NE9.7 kmh NE 15.2 mph24.5 kmh 29.58 in1001.7 mb 0.00 in0.0 mm 0.00 in0.0 mm 0.00 in0.0 mm
05:28 PM 93.2°F34.0°C 71.3°F21.8°C 49% 9.2 mph NE14.8 kmh NE 15.2 mph24.5 kmh 29.59 in1002.0 mb 0.00 in0.0 mm 0.00 in0.0 mm 0.00 in0.0 mm
05:29 PM 93.0°F33.9°C 72.3°F22.4°C 51% 9.2 mph NE14.8 kmh NE 15.2 mph24.5 kmh 29.58 in1001.7 mb 0.00 in0.0 mm 0.00 in0.0 mm 0.00 in0.0 mm
05:30 PM 92.8°F33.8°C 72.1°F22.3°C 51% 9.2 mph NE14.8 kmh NE 13.6 mph21.9 kmh 29.58 in1001.7 mb 0.00 in0.0 mm 0.00 in0.0 mm 0.00 in0.0 mm
05:31 PM 92.8°F33.8°C 72.1°F22.3°C 51% 8.3 mph NE13.4 kmh NE 13.0 mph20.9 kmh 29.58 in1001.7 mb 0.00 in0.0 mm 0.00 in0.0 mm 0.00 in0.0 mm
05:32 PM 92.8°F33.8°C 72.1°F22.3°C 51% 8.3 mph NE13.4 kmh NE 13.6 mph21.9 kmh 29.58 in1001.7 mb 0.00 in0.0 mm 0.00 in0.0 mm 0.00 in0.0 mm
05:33 PM 92.7°F33.7°C 72.0°F22.2°C 51% 12.1 mph NE19.5 kmh NE 13.6 mph21.9 kmh 29.58 in1001.7 mb 0.00 in0.0 mm 0.00 in0.0 mm 0.00 in0.0 mm
05:34 PM 92.7°F33.7°C 72.0°F22.2°C 51% 10.7 mph NE17.2 kmh NE 15.9 mph25.6 kmh 29.58 in1001.7 mb 0.00 in0.0 mm 0.00 in0.0 mm 0.00 in0.0 mm
05:35 PM 92.5°F33.6°C 71.8°F22.1°C 51% 9.8 mph NNE15.8 kmh NNE 15.9 mph25.6 kmh 29.58 in1001.7 mb 0.00 in0.0 mm 0.00 in0.0 mm 0.00 in0.0 mm
05:36 PM 92.5°F33.6°C 71.8°F22.1°C 51% 9.2 mph NNE14.8 kmh NNE 15.9 mph25.6 kmh 29.59 in1002.0 mb 0.00 in0.0 mm 0.00 in0.0 mm 0.00 in0.0 mm
05:37 PM 92.3°F33.5°C 71.6°F22.0°C 51% 11.4 mph NNE18.3 kmh NNE 15.9 mph25.6 kmh 29.58 in1001.7 mb 0.00 in0.0 mm 0.00 in0.0 mm 0.00 in0.0 mm
05:38 PM 92.3°F33.5°C 71.6°F22.0°C 51% 7.6 mph NNE12.2 kmh NNE 15.9 mph25.6 kmh 29.58 in1001.7 mb 0.00 in0.0 mm 0.00 in0.0 mm 0.00 in0.0 mm
05:39 PM 92.3°F33.5°C 72.2°F22.3°C 52% 10.7 mph NNE17.2 kmh NNE 15.9 mph25.6 kmh 29.59 in1002.0 mb 0.00 in0.0 mm 0.00 in0.0 mm 0.00 in0.0 mm
05:40 PM 92.3°F33.5°C 72.2°F22.3°C 52% 5.4 mph NNE8.7 kmh NNE 15.9 mph25.6 kmh 29.58 in1001.7 mb 0.00 in0.0 mm 0.00 in0.0 mm 0.00 in0.0 mm
05:41 PM 92.3°F33.5°C 72.2°F22.3°C 52% 7.6 mph NNE12.2 kmh NNE 15.9 mph25.6 kmh 29.58 in1001.7 mb 0.00 in0.0 mm 0.00 in0.0 mm 0.00 in0.0 mm
05:42 PM 92.3°F33.5°C 72.2°F22.3°C 52% 3.8 mph NNE6.1 kmh NNE 15.9 mph25.6 kmh 29.58 in1001.7 mb 0.00 in0.0 mm 0.00 in0.0 mm 0.00 in0.0 mm
05:43 PM 92.5°F33.6°C 72.4°F22.4°C 52% 7.6 mph N12.2 kmh N 15.9 mph25.6 kmh 29.58 in1001.7 mb 0.00 in0.0 mm 0.00 in0.0 mm 0.00 in0.0 mm
05:44 PM 92.7°F33.7°C 72.5°F22.5°C 52% 9.2 mph N14.8 kmh N 15.9 mph25.6 kmh 29.58 in1001.7 mb 0.00 in0.0 mm 0.00 in0.0 mm 0.00 in0.0 mm
05:45 PM 92.7°F33.7°C 72.5°F22.5°C 52% 9.2 mph N14.8 kmh N 15.9 mph25.6 kmh 29.58 in1001.7 mb 0.00 in0.0 mm 0.00 in0.0 mm 0.00 in0.0 mm
05:46 PM 92.5°F33.6°C 72.4°F22.4°C 52% 9.8 mph N15.8 kmh N 15.9 mph25.6 kmh 29.58 in1001.7 mb 0.00 in0.0 mm 0.00 in0.0 mm 0.00 in0.0 mm
05:47 PM 92.5°F33.6°C 72.4°F22.4°C 52% 6.0 mph N9.7 kmh N 15.9 mph25.6 kmh 29.59 in1002.0 mb 0.00 in0.0 mm 0.00 in0.0 mm 0.00 in0.0 mm
05:48 PM 92.5°F33.6°C 72.4°F22.4°C 52% 7.6 mph N12.2 kmh N 15.9 mph25.6 kmh 29.58 in1001.7 mb 0.00 in0.0 mm 0.00 in0.0 mm 0.00 in0.0 mm
05:49 PM 92.3°F33.5°C 72.2°F22.3°C 52% 6.9 mph N11.1 kmh N 15.9 mph25.6 kmh 29.58 in1001.7 mb 0.00 in0.0 mm 0.00 in0.0 mm 0.00 in0.0 mm
05:50 PM 92.3°F33.5°C 72.2°F22.3°C 52% 7.6 mph NNE12.2 kmh NNE 15.2 mph24.5 kmh 29.58 in1001.7 mb 0.00 in0.0 mm 0.00 in0.0 mm 0.00 in0.0 mm
05:51 PM 92.3°F33.5°C 72.8°F22.7°C 53% 6.9 mph N11.1 kmh N 15.2 mph24.5 kmh 29.58 in1001.7 mb 0.00 in0.0 mm 0.00 in0.0 mm 0.00 in0.0 mm
05:52 PM 92.5°F33.6°C 72.4°F22.4°C 52% 8.3 mph N13.4 kmh N 15.2 mph24.5 kmh 29.58 in1001.7 mb 0.00 in0.0 mm 0.00 in0.0 mm 0.00 in0.0 mm
05:53 PM 92.5°F33.6°C 72.4°F22.4°C 52% 7.6 mph N12.2 kmh N 15.2 mph24.5 kmh 29.58 in1001.7 mb 0.00 in0.0 mm 0.00 in0.0 mm 0.00 in0.0 mm
05:54 PM 92.3°F33.5°C 72.2°F22.3°C 52% 9.2 mph NNE14.8 kmh NNE 15.2 mph24.5 kmh 29.58 in1001.7 mb 0.00 in0.0 mm 0.00 in0.0 mm 0.00 in0.0 mm
05:55 PM 92.1°F33.4°C 72.6°F22.6°C 53% 9.2 mph NE14.8 kmh NE 13.6 mph21.9 kmh 29.59 in1002.0 mb 0.00 in0.0 mm 0.00 in0.0 mm 0.00 in0.0 mm
05:56 PM 92.1°F33.4°C 72.6°F22.6°C 53% 6.9 mph NE11.1 kmh NE 13.6 mph21.9 kmh 29.58 in1001.7 mb 0.00 in0.0 mm 0.00 in0.0 mm 0.00 in0.0 mm
05:57 PM 92.1°F33.4°C 72.6°F22.6°C 53% 8.3 mph NE13.4 kmh NE 13.6 mph21.9 kmh 29.58 in1001.7 mb 0.00 in0.0 mm 0.00 in0.0 mm 0.00 in0.0 mm
05:58 PM 92.1°F33.4°C 72.6°F22.6°C 53% 5.4 mph NE8.7 kmh NE 13.6 mph21.9 kmh 29.58 in1001.7 mb 0.00 in0.0 mm 0.00 in0.0 mm 0.00 in0.0 mm
05:59 PM 91.9°F33.3°C 72.4°F22.4°C 53% 4.5 mph NE7.2 kmh NE 13.0 mph20.9 kmh 29.59 in1002.0 mb 0.00 in0.0 mm 0.00 in0.0 mm 0.00 in0.0 mm
06:00 PM 91.9°F33.3°C 72.4°F22.4°C 53% 6.9 mph NE11.1 kmh NE 13.0 mph20.9 kmh 29.57 in1001.4 mb 0.00 in0.0 mm 0.00 in0.0 mm 0.00 in0.0 mm
06:01 PM 91.9°F33.3°C 72.4°F22.4°C 53% 7.6 mph NE12.2 kmh NE 13.6 mph21.9 kmh 29.58 in1001.7 mb 0.00 in0.0 mm 0.00 in0.0 mm 0.00 in0.0 mm
06:02 PM 91.9°F33.3°C 72.4°F22.4°C 53% 6.0 mph NE9.7 kmh NE 13.6 mph21.9 kmh 29.58 in1001.7 mb 0.00 in0.0 mm 0.00 in0.0 mm 0.00 in0.0 mm
06:03 PM 91.8°F33.2°C 72.3°F22.4°C 53% 9.2 mph NE14.8 kmh NE 15.2 mph24.5 kmh 29.58 in1001.7 mb 0.00 in0.0 mm 0.00 in0.0 mm 0.00 in0.0 mm
06:04 PM 91.6°F33.1°C 72.1°F22.3°C 53% 6.0 mph NE9.7 kmh NE 15.2 mph24.5 kmh 29.59 in1002.0 mb 0.00 in0.0 mm 0.00 in0.0 mm 0.00 in0.0 mm
06:05 PM 91.4°F33.0°C 71.9°F22.2°C 53% 6.0 mph NNE9.7 kmh NNE 15.2 mph24.5 kmh 29.58 in1001.7 mb 0.00 in0.0 mm 0.00 in0.0 mm 0.00 in0.0 mm
06:06 PM 91.2°F32.9°C 71.8°F22.1°C 53% 6.0 mph NNE9.7 kmh NNE 15.2 mph24.5 kmh 29.58 in1001.7 mb 0.00 in0.0 mm 0.00 in0.0 mm 0.00 in0.0 mm
06:07 PM 91.0°F32.8°C 72.2°F22.3°C 54% 6.9 mph NE11.1 kmh NE 15.2 mph24.5 kmh 29.58 in1001.7 mb 0.00 in0.0 mm 0.00 in0.0 mm 0.00 in0.0 mm
06:08 PM 90.9°F32.7°C 72.0°F22.2°C 54% 7.6 mph NE12.2 kmh NE 15.2 mph24.5 kmh 29.59 in1002.0 mb 0.00 in0.0 mm 0.00 in0.0 mm 0.00 in0.0 mm
06:09 PM 90.7°F32.6°C 71.8°F22.1°C 54% 6.9 mph NE11.1 kmh NE 15.2 mph24.5 kmh 29.58 in1001.7 mb 0.00 in0.0 mm 0.00 in0.0 mm 0.00 in0.0 mm
06:10 PM 90.7°F32.6°C 72.4°F22.4°C 55% 9.8 mph NE15.8 kmh NE 15.2 mph24.5 kmh 29.59 in1002.0 mb 0.00 in0.0 mm 0.00 in0.0 mm 0.00 in0.0 mm
06:11 PM 90.3°F32.4°C 72.0°F22.2°C 55% 7.6 mph NE12.2 kmh NE 15.2 mph24.5 kmh 29.58 in1001.7 mb 0.00 in0.0 mm 0.00 in0.0 mm 0.00 in0.0 mm
06:12 PM 90.3°F32.4°C 72.0°F22.2°C 55% 6.9 mph NE11.1 kmh NE 15.2 mph24.5 kmh 29.58 in1001.7 mb 0.00 in0.0 mm 0.00 in0.0 mm 0.00 in0.0 mm
06:13 PM 90.3°F32.4°C 72.0°F22.2°C 55% 9.2 mph NE14.8 kmh NE 15.2 mph24.5 kmh 29.58 in1001.7 mb 0.00 in0.0 mm 0.00 in0.0 mm 0.00 in0.0 mm
06:14 PM 90.3°F32.4°C 72.0°F22.2°C 55% 9.8 mph NE15.8 kmh NE 13.6 mph21.9 kmh 29.59 in1002.0 mb 0.00 in0.0 mm 0.00 in0.0 mm 0.00 in0.0 mm
06:15 PM 90.1°F32.3°C 72.4°F22.4°C 56% 6.9 mph NE11.1 kmh NE 13.6 mph21.9 kmh 29.58 in1001.7 mb 0.00 in0.0 mm 0.00 in0.0 mm 0.00 in0.0 mm
06:16 PM 90.1°F32.3°C 72.4°F22.4°C 56% 6.9 mph NE11.1 kmh NE 13.6 mph21.9 kmh 29.58 in1001.7 mb 0.00 in0.0 mm 0.00 in0.0 mm 0.00 in0.0 mm
06:17 PM 90.3°F32.4°C 72.0°F22.2°C 55% 7.6 mph NE12.2 kmh NE 13.6 mph21.9 kmh 29.58 in1001.7 mb 0.00 in0.0 mm 0.00 in0.0 mm 0.00 in0.0 mm
06:18 PM 90.3°F32.4°C 72.0°F22.2°C 55% 4.5 mph NE7.2 kmh NE 13.7 mph22.0 kmh 29.58 in1001.7 mb 0.00 in0.0 mm 0.00 in0.0 mm 0.00 in0.0 mm
06:19 PM 90.5°F32.5°C 72.2°F22.3°C 55% 8.3 mph NE13.4 kmh NE 13.7 mph22.0 kmh 29.58 in1001.7 mb 0.00 in0.0 mm 0.00 in0.0 mm 0.00 in0.0 mm
06:20 PM 90.7°F32.6°C 72.4°F22.4°C 55% 8.3 mph NE13.4 kmh NE 13.7 mph22.0 kmh 29.57 in1001.4 mb 0.00 in0.0 mm 0.00 in0.0 mm 0.00 in0.0 mm
06:21 PM 90.7°F32.6°C 72.4°F22.4°C 55% 6.0 mph NE9.7 kmh NE 13.7 mph22.0 kmh 29.58 in1001.7 mb 0.00 in0.0 mm 0.00 in0.0 mm 0.00 in0.0 mm
06:22 PM 90.7°F32.6°C 72.4°F22.4°C 55% 6.9 mph NE11.1 kmh NE 13.7 mph22.0 kmh 29.58 in1001.7 mb 0.00 in0.0 mm 0.00 in0.0 mm 0.00 in0.0 mm
06:23 PM 90.7°F32.6°C 72.4°F22.4°C 55% 3.8 mph NNE6.1 kmh NNE 14.5 mph23.3 kmh 29.59 in1002.0 mb 0.00 in0.0 mm 0.00 in0.0 mm 0.00 in0.0 mm
06:24 PM 90.7°F32.6°C 72.4°F22.4°C 55% 6.9 mph NNE11.1 kmh NNE 14.5 mph23.3 kmh 29.59 in1002.0 mb 0.00 in0.0 mm 0.00 in0.0 mm 0.00 in0.0 mm
06:25 PM 90.7°F32.6°C 72.4°F22.4°C 55% 7.6 mph NNE12.2 kmh NNE 14.5 mph23.3 kmh 29.58 in1001.7 mb 0.00 in0.0 mm 0.00 in0.0 mm 0.00 in0.0 mm
06:26 PM 90.7°F32.6°C 72.4°F22.4°C 55% 5.4 mph NNE8.7 kmh NNE 14.5 mph23.3 kmh 29.58 in1001.7 mb 0.00 in0.0 mm 0.00 in0.0 mm 0.00 in0.0 mm
06:27 PM 90.5°F32.5°C 72.2°F22.3°C 55% 6.9 mph NNE11.1 kmh NNE 14.5 mph23.3 kmh 29.58 in1001.7 mb 0.00 in0.0 mm 0.00 in0.0 mm 0.00 in0.0 mm
06:28 PM 90.5°F32.5°C 72.2°F22.3°C 55% 9.2 mph NNE14.8 kmh NNE 14.5 mph23.3 kmh 29.58 in1001.7 mb 0.00 in0.0 mm 0.00 in0.0 mm 0.00 in0.0 mm
06:29 PM 90.3°F32.4°C 72.0°F22.2°C 55% 6.9 mph NNE11.1 kmh NNE 14.5 mph23.3 kmh 29.58 in1001.7 mb 0.00 in0.0 mm 0.00 in0.0 mm 0.00 in0.0 mm
06:30 PM 90.1°F32.3°C 71.9°F22.2°C 55% 6.0 mph NNE9.7 kmh NNE 14.5 mph23.3 kmh 29.58 in1001.7 mb 0.00 in0.0 mm 0.00 in0.0 mm 0.00 in0.0 mm
06:31 PM 90.0°F32.2°C 71.7°F22.1°C 55% 3.8 mph NNE6.1 kmh NNE 14.5 mph23.3 kmh 29.58 in1001.7 mb 0.00 in0.0 mm 0.00 in0.0 mm 0.00 in0.0 mm
06:32 PM 89.8°F32.1°C 71.5°F21.9°C 55% 7.6 mph NNE12.2 kmh NNE 14.5 mph23.3 kmh 29.58 in1001.7 mb 0.00 in0.0 mm 0.00 in0.0 mm 0.00 in0.0 mm
06:33 PM 89.8°F32.1°C 72.1°F22.3°C 56% 8.3 mph NNE13.4 kmh NNE 13.6 mph21.9 kmh 29.58 in1001.7 mb 0.00 in0.0 mm 0.00 in0.0 mm 0.00 in0.0 mm
06:34 PM 89.6°F32.0°C 71.9°F22.2°C 56% 8.3 mph NNE13.4 kmh NNE 13.6 mph21.9 kmh 29.57 in1001.4 mb 0.00 in0.0 mm 0.00 in0.0 mm 0.00 in0.0 mm
06:35 PM 89.4°F31.9°C 72.2°F22.3°C 57% 6.9 mph NE11.1 kmh NE 13.6 mph21.9 kmh 29.58 in1001.7 mb 0.00 in0.0 mm 0.00 in0.0 mm 0.00 in0.0 mm
06:36 PM 89.2°F31.8°C 72.1°F22.3°C 57% 9.8 mph NE15.8 kmh NE 13.6 mph21.9 kmh 29.57 in1001.4 mb 0.00 in0.0 mm 0.00 in0.0 mm 0.00 in0.0 mm
06:37 PM 89.1°F31.7°C 71.9°F22.2°C 57% 6.0 mph NE9.7 kmh NE 13.6 mph21.9 kmh 29.58 in1001.7 mb 0.00 in0.0 mm 0.00 in0.0 mm 0.00 in0.0 mm
06:38 PM 89.1°F31.7°C 72.4°F22.4°C 58% 9.2 mph NE14.8 kmh NE 13.0 mph20.9 kmh 29.58 in1001.7 mb 0.00 in0.0 mm 0.00 in0.0 mm 0.00 in0.0 mm
06:39 PM 89.1°F31.7°C 72.4°F22.4°C 58% 5.4 mph NE8.7 kmh NE 13.0 mph20.9 kmh 29.58 in1001.7 mb 0.00 in0.0 mm 0.00 in0.0 mm 0.00 in0.0 mm
06:40 PM 89.1°F31.7°C 72.4°F22.4°C 58% 9.8 mph NE15.8 kmh NE 13.0 mph20.9 kmh 29.57 in1001.4 mb 0.00 in0.0 mm 0.00 in0.0 mm 0.00 in0.0 mm
06:41 PM 89.1°F31.7°C 71.9°F22.2°C 57% 8.3 mph NE13.4 kmh NE 13.0 mph20.9 kmh 29.58 in1001.7 mb 0.00 in0.0 mm 0.00 in0.0 mm 0.00 in0.0 mm
06:42 PM 89.1°F31.7°C 71.9°F22.2°C 57% 8.3 mph NE13.4 kmh NE 13.6 mph21.9 kmh 29.58 in1001.7 mb 0.00 in0.0 mm 0.00 in0.0 mm 0.00 in0.0 mm
06:43 PM 89.1°F31.7°C 71.9°F22.2°C 57% 11.4 mph NE18.3 kmh NE 13.6 mph21.9 kmh 29.57 in1001.4 mb 0.00 in0.0 mm 0.00 in0.0 mm 0.00 in0.0 mm
06:44 PM 89.1°F31.7°C 71.4°F21.9°C 56% 8.3 mph NE13.4 kmh NE 13.6 mph21.9 kmh 29.57 in1001.4 mb 0.00 in0.0 mm 0.00 in0.0 mm 0.00 in0.0 mm
06:45 PM 89.1°F31.7°C 71.4°F21.9°C 56% 6.0 mph NE9.7 kmh NE 13.6 mph21.9 kmh 29.58 in1001.7 mb 0.00 in0.0 mm 0.00 in0.0 mm 0.00 in0.0 mm
06:46 PM 89.1°F31.7°C 71.4°F21.9°C 56% 6.9 mph NE11.1 kmh NE 13.6 mph21.9 kmh 29.57 in1001.4 mb 0.00 in0.0 mm 0.00 in0.0 mm 0.00 in0.0 mm
06:47 PM 89.1°F31.7°C 70.9°F21.6°C 55% 6.9 mph NE11.1 kmh NE 13.6 mph21.9 kmh 29.57 in1001.4 mb 0.00 in0.0 mm 0.00 in0.0 mm 0.00 in0.0 mm
06:48 PM 89.1°F31.7°C 70.9°F21.6°C 55% 9.8 mph NE15.8 kmh NE 16.8 mph27.0 kmh 29.57 in1001.4 mb 0.00 in0.0 mm 0.00 in0.0 mm 0.00 in0.0 mm
06:49 PM 89.1°F31.7°C 70.9°F21.6°C 55% 13.0 mph NE20.9 kmh NE 19.7 mph31.7 kmh 29.57 in1001.4 mb 0.00 in0.0 mm 0.00 in0.0 mm 0.00 in0.0 mm
06:50 PM 89.1°F31.7°C 70.9°F21.6°C 55% 7.6 mph NE12.2 kmh NE 19.7 mph31.7 kmh 29.57 in1001.4 mb 0.00 in0.0 mm 0.00 in0.0 mm 0.00 in0.0 mm
06:51 PM 89.1°F31.7°C 70.9°F21.6°C 55% 9.2 mph NE14.8 kmh NE 19.7 mph31.7 kmh 29.57 in1001.4 mb 0.00 in0.0 mm 0.00 in0.0 mm 0.00 in0.0 mm
06:52 PM 89.1°F31.7°C 70.9°F21.6°C 55% 11.4 mph NE18.3 kmh NE 19.7 mph31.7 kmh 29.58 in1001.7 mb 0.00 in0.0 mm 0.00 in0.0 mm 0.00 in0.0 mm
06:53 PM 89.1°F31.7°C 70.3°F21.3°C 54% 8.3 mph NE13.4 kmh NE 19.7 mph31.7 kmh 29.57 in1001.4 mb 0.00 in0.0 mm 0.00 in0.0 mm 0.00 in0.0 mm
06:54 PM 88.7°F31.5°C 70.0°F21.1°C 54% 12.1 mph NE19.5 kmh NE 19.7 mph31.7 kmh 29.57 in1001.4 mb 0.00 in0.0 mm 0.00 in0.0 mm 0.00 in0.0 mm
06:55 PM 88.7°F31.5°C 70.0°F21.1°C 54% 10.7 mph NE17.2 kmh NE 19.7 mph31.7 kmh 29.57 in1001.4 mb 0.00 in0.0 mm 0.00 in0.0 mm 0.00 in0.0 mm
06:56 PM 88.7°F31.5°C 70.0°F21.1°C 54% 12.1 mph NE19.5 kmh NE 19.7 mph31.7 kmh 29.57 in1001.4 mb 0.00 in0.0 mm 0.00 in0.0 mm 0.00 in0.0 mm
06:57 PM 88.7°F31.5°C 70.0°F21.1°C 54% 8.3 mph NE13.4 kmh NE 19.7 mph31.7 kmh 29.57 in1001.4 mb 0.00 in0.0 mm 0.00 in0.0 mm 0.00 in0.0 mm
06:58 PM 88.5°F31.4°C 69.8°F21.0°C 54% 6.0 mph NE9.7 kmh NE 19.7 mph31.7 kmh 29.57 in1001.4 mb 0.00 in0.0 mm 0.00 in0.0 mm 0.00 in0.0 mm
06:59 PM 88.5°F31.4°C 69.8°F21.0°C 54% 7.6 mph NE12.2 kmh NE 17.4 mph28.0 kmh 29.57 in1001.4 mb 0.00 in0.0 mm 0.00 in0.0 mm 0.00 in0.0 mm
07:00 PM 88.5°F31.4°C 69.8°F21.0°C 54% 10.7 mph NE17.2 kmh NE 17.4 mph28.0 kmh 29.57 in1001.4 mb 0.00 in0.0 mm 0.00 in0.0 mm 0.00 in0.0 mm
07:01 PM 88.5°F31.4°C 69.8°F21.0°C 54% 9.2 mph NE14.8 kmh NE 17.4 mph28.0 kmh 29.57 in1001.4 mb 0.00 in0.0 mm 0.00 in0.0 mm 0.00 in0.0 mm
07:02 PM 88.5°F31.4°C 69.3°F20.7°C 53% 11.4 mph NE18.3 kmh NE 17.4 mph28.0 kmh 29.57 in1001.4 mb 0.00 in0.0 mm 0.00 in0.0 mm 0.00 in0.0 mm
07:03 PM 88.5°F31.4°C 69.3°F20.7°C 53% 12.1 mph NE19.5 kmh NE 17.4 mph28.0 kmh 29.57 in1001.4 mb 0.00 in0.0 mm 0.00 in0.0 mm 0.00 in0.0 mm
07:04 PM 88.3°F31.3°C 69.1°F20.6°C 53% 9.2 mph NE14.8 kmh NE 17.4 mph28.0 kmh 29.57 in1001.4 mb 0.00 in0.0 mm 0.00 in0.0 mm 0.00 in0.0 mm
07:05 PM 88.3°F31.3°C 69.1°F20.6°C 53% 9.8 mph NE15.8 kmh NE 17.4 mph28.0 kmh 29.58 in1001.7 mb 0.00 in0.0 mm 0.00 in0.0 mm 0.00 in0.0 mm
07:06 PM 88.3°F31.3°C 69.6°F20.9°C 54% 6.0 mph NNE9.7 kmh NNE 17.4 mph28.0 kmh 29.57 in1001.4 mb 0.00 in0.0 mm 0.00 in0.0 mm 0.00 in0.0 mm
07:07 PM 88.2°F31.2°C 69.5°F20.8°C 54% 6.0 mph NNE9.7 kmh NNE 17.4 mph28.0 kmh 29.57 in1001.4 mb 0.00 in0.0 mm 0.00 in0.0 mm 0.00 in0.0 mm
07:08 PM 88.2°F31.2°C 69.5°F20.8°C 54% 8.3 mph NNE13.4 kmh NNE 17.4 mph28.0 kmh 29.57 in1001.4 mb 0.00 in0.0 mm 0.00 in0.0 mm 0.00 in0.0 mm
07:09 PM 88.2°F31.2°C 69.5°F20.8°C 54% 8.3 mph NNE13.4 kmh NNE 17.4 mph28.0 kmh 29.57 in1001.4 mb 0.00 in0.0 mm 0.00 in0.0 mm 0.00 in0.0 mm
07:10 PM 88.2°F31.2°C 68.9°F20.5°C 53% 6.9 mph NNE11.1 kmh NNE 17.4 mph28.0 kmh 29.57 in1001.4 mb 0.00 in0.0 mm 0.00 in0.0 mm 0.00 in0.0 mm
07:11 PM 88.0°F31.1°C 68.8°F20.4°C 53% 6.9 mph NNE11.1 kmh NNE 17.4 mph28.0 kmh 29.57 in1001.4 mb 0.00 in0.0 mm 0.00 in0.0 mm 0.00 in0.0 mm
07:12 PM 88.0°F31.1°C 69.3°F20.7°C 54% 7.6 mph NNE12.2 kmh NNE 17.4 mph28.0 kmh 29.57 in1001.4 mb 0.00 in0.0 mm 0.00 in0.0 mm 0.00 in0.0 mm
07:13 PM 88.0°F31.1°C 68.8°F20.4°C 53% 6.0 mph NNE9.7 kmh NNE 17.4 mph28.0 kmh 29.57 in1001.4 mb 0.00 in0.0 mm 0.00 in0.0 mm 0.00 in0.0 mm
07:14 PM 88.0°F31.1°C 68.8°F20.4°C 53% 8.3 mph NNE13.4 kmh NNE 14.5 mph23.3 kmh 29.57 in1001.4 mb 0.00 in0.0 mm 0.00 in0.0 mm 0.00 in0.0 mm
07:15 PM 88.0°F31.1°C 68.8°F20.4°C 53% 6.0 mph NNE9.7 kmh NNE 14.5 mph23.3 kmh 29.57 in1001.4 mb 0.00 in0.0 mm 0.00 in0.0 mm 0.00 in0.0 mm
07:16 PM 88.0°F31.1°C 68.8°F20.4°C 53% 5.4 mph NNE8.7 kmh NNE 14.5 mph23.3 kmh 29.58 in1001.7 mb 0.00 in0.0 mm 0.00 in0.0 mm 0.00 in0.0 mm
07:17 PM 88.0°F31.1°C 68.8°F20.4°C 53% 6.9 mph NE11.1 kmh NE 14.5 mph23.3 kmh 29.57 in1001.4 mb 0.00 in0.0 mm 0.00 in0.0 mm 0.00 in0.0 mm
07:18 PM 88.0°F31.1°C 68.8°F20.4°C 53% 8.3 mph NNE13.4 kmh NNE 14.5 mph23.3 kmh 29.57 in1001.4 mb 0.00 in0.0 mm 0.00 in0.0 mm 0.00 in0.0 mm
07:19 PM 88.0°F31.1°C 68.8°F20.4°C 53% 11.4 mph NNE18.3 kmh NNE 15.9 mph25.6 kmh 29.57 in1001.4 mb 0.00 in0.0 mm 0.00 in0.0 mm 0.00 in0.0 mm
07:20 PM 87.8°F31.0°C 68.6°F20.3°C 53% 9.2 mph NNE14.8 kmh NNE 15.9 mph25.6 kmh 29.57 in1001.4 mb 0.00 in0.0 mm 0.00 in0.0 mm 0.00 in0.0 mm
07:21 PM 87.8°F31.0°C 68.6°F20.3°C 53% 7.6 mph NNE12.2 kmh NNE 15.9 mph25.6 kmh 29.57 in1001.4 mb 0.00 in0.0 mm 0.00 in0.0 mm 0.00 in0.0 mm
07:22 PM 87.8°F31.0°C 68.6°F20.3°C 53% 7.6 mph NNE12.2 kmh NNE 15.9 mph25.6 kmh 29.57 in1001.4 mb 0.00 in0.0 mm 0.00 in0.0 mm 0.00 in0.0 mm
07:23 PM 87.8°F31.0°C 68.6°F20.3°C 53% 6.9 mph N11.1 kmh N 15.9 mph25.6 kmh 29.57 in1001.4 mb 0.00 in0.0 mm 0.00 in0.0 mm 0.00 in0.0 mm
07:24 PM 87.8°F31.0°C 68.6°F20.3°C 53% 6.0 mph N9.7 kmh N 15.9 mph25.6 kmh 29.58 in1001.7 mb 0.00 in0.0 mm 0.00 in0.0 mm 0.00 in0.0 mm
07:25 PM 87.6°F30.9°C 69.0°F20.6°C 54% 7.6 mph N12.2 kmh N 16.8 mph27.0 kmh 29.58 in1001.7 mb 0.00 in0.0 mm 0.00 in0.0 mm 0.00 in0.0 mm
07:26 PM 87.6°F30.9°C 69.0°F20.6°C 54% 9.8 mph N15.8 kmh N 16.8 mph27.0 kmh 29.57 in1001.4 mb 0.00 in0.0 mm 0.00 in0.0 mm 0.00 in0.0 mm
07:27 PM 87.6°F30.9°C 69.0°F20.6°C 54% 8.3 mph N13.4 kmh N 16.8 mph27.0 kmh 29.57 in1001.4 mb 0.00 in0.0 mm 0.00 in0.0 mm 0.00 in0.0 mm
07:28 PM 87.6°F30.9°C 69.0°F20.6°C 54% 9.2 mph N14.8 kmh N 16.8 mph27.0 kmh 29.57 in1001.4 mb 0.00 in0.0 mm 0.00 in0.0 mm 0.00 in0.0 mm
07:29 PM 87.6°F30.9°C 69.0°F20.6°C 54% 6.0 mph N9.7 kmh N 16.8 mph27.0 kmh 29.57 in1001.4 mb 0.00 in0.0 mm 0.00 in0.0 mm 0.00 in0.0 mm
07:30 PM 87.4°F30.8°C 68.8°F20.4°C 54% 4.5 mph N7.2 kmh N 16.8 mph27.0 kmh 29.57 in1001.4 mb 0.00 in0.0 mm 0.00 in0.0 mm 0.00 in0.0 mm
07:31 PM 87.4°F30.8°C 68.8°F20.4°C 54% 7.6 mph N12.2 kmh N 16.8 mph27.0 kmh 29.58 in1001.7 mb 0.00 in0.0 mm 0.00 in0.0 mm 0.00 in0.0 mm
07:32 PM 87.4°F30.8°C 68.3°F20.2°C 53% 8.3 mph N13.4 kmh N 16.8 mph27.0 kmh 29.57 in1001.4 mb 0.00 in0.0 mm 0.00 in0.0 mm 0.00 in0.0 mm
07:33 PM 87.4°F30.8°C 68.3°F20.2°C 53% 7.6 mph NNE12.2 kmh NNE 16.8 mph27.0 kmh 29.57 in1001.4 mb 0.00 in0.0 mm 0.00 in0.0 mm 0.00 in0.0 mm
07:34 PM 87.3°F30.7°C 68.1°F20.1°C 53% 10.7 mph NNE17.2 kmh NNE 16.8 mph27.0 kmh 29.57 in1001.4 mb 0.00 in0.0 mm 0.00 in0.0 mm 0.00 in0.0 mm
07:35 PM 87.3°F30.7°C 68.1°F20.1°C 53% 6.0 mph NNE9.7 kmh NNE 16.8 mph27.0 kmh 29.57 in1001.4 mb 0.00 in0.0 mm 0.00 in0.0 mm 0.00 in0.0 mm
07:36 PM 87.3°F30.7°C 68.1°F20.1°C 53% 9.8 mph NNE15.8 kmh NNE 16.8 mph27.0 kmh 29.57 in1001.4 mb 0.00 in0.0 mm 0.00 in0.0 mm 0.00 in0.0 mm
07:37 PM 87.3°F30.7°C 68.1°F20.1°C 53% 7.6 mph NNE12.2 kmh NNE 16.8 mph27.0 kmh 29.57 in1001.4 mb 0.00 in0.0 mm 0.00 in0.0 mm 0.00 in0.0 mm
07:38 PM 87.1°F30.6°C 67.9°F19.9°C 53% 9.2 mph NNE14.8 kmh NNE 16.8 mph27.0 kmh 29.57 in1001.4 mb 0.00 in0.0 mm 0.00 in0.0 mm 0.00 in0.0 mm
07:39 PM 87.1°F30.6°C 67.9°F19.9°C 53% 6.0 mph NNE9.7 kmh NNE 16.8 mph27.0 kmh 29.57 in1001.4 mb 0.00 in0.0 mm 0.00 in0.0 mm 0.00 in0.0 mm
07:40 PM 87.1°F30.6°C 67.9°F19.9°C 53% 9.2 mph NNE14.8 kmh NNE 16.8 mph27.0 kmh 29.57 in1001.4 mb 0.00 in0.0 mm 0.00 in0.0 mm 0.00 in0.0 mm
07:41 PM 87.1°F30.6°C 67.9°F19.9°C 53% 9.8 mph NNE15.8 kmh NNE 16.8 mph27.0 kmh 29.57 in1001.4 mb 0.00 in0.0 mm 0.00 in0.0 mm 0.00 in0.0 mm
07:42 PM 87.1°F30.6°C 67.9°F19.9°C 53% 5.4 mph NNE8.7 kmh NNE 16.8 mph27.0 kmh 29.57 in1001.4 mb 0.00 in0.0 mm 0.00 in0.0 mm 0.00 in0.0 mm
07:43 PM 87.1°F30.6°C 68.5°F20.3°C 54% 7.6 mph N12.2 kmh N 16.8 mph27.0 kmh 29.57 in1001.4 mb 0.00 in0.0 mm 0.00 in0.0 mm 0.00 in0.0 mm
07:44 PM 86.9°F30.5°C 68.3°F20.2°C 54% 6.9 mph N11.1 kmh N 16.8 mph27.0 kmh 29.57 in1001.4 mb 0.00 in0.0 mm 0.00 in0.0 mm 0.00 in0.0 mm
07:45 PM 86.9°F30.5°C 68.3°F20.2°C 54% 6.9 mph N11.1 kmh N 13.0 mph20.9 kmh 29.57 in1001.4 mb 0.00 in0.0 mm 0.00 in0.0 mm 0.00 in0.0 mm
07:46 PM 86.9°F30.5°C 68.3°F20.2°C 54% 9.2 mph NNE14.8 kmh NNE 13.6 mph21.9 kmh 29.58 in1001.7 mb 0.00 in0.0 mm 0.00 in0.0 mm 0.00 in0.0 mm
07:47 PM 86.9°F30.5°C 68.3°F20.2°C 54% 6.0 mph NNE9.7 kmh NNE 13.6 mph21.9 kmh 29.58 in1001.7 mb 0.00 in0.0 mm 0.00 in0.0 mm 0.00 in0.0 mm
07:48 PM 86.9°F30.5°C 68.3°F20.2°C 54% 6.9 mph NNE11.1 kmh NNE 13.6 mph21.9 kmh 29.57 in1001.4 mb 0.00 in0.0 mm 0.00 in0.0 mm 0.00 in0.0 mm
07:49 PM 86.9°F30.5°C 68.3°F20.2°C 54% 8.3 mph NNE13.4 kmh NNE 13.6 mph21.9 kmh 29.58 in1001.7 mb 0.00 in0.0 mm 0.00 in0.0 mm 0.00 in0.0 mm
07:50 PM 86.9°F30.5°C 67.8°F19.9°C 53% 7.6 mph NNE12.2 kmh NNE 13.6 mph21.9 kmh 29.58 in1001.7 mb 0.00 in0.0 mm 0.00 in0.0 mm 0.00 in0.0 mm
07:51 PM 86.9°F30.5°C 68.3°F20.2°C 54% 6.9 mph NNE11.1 kmh NNE 13.6 mph21.9 kmh 29.57 in1001.4 mb 0.00 in0.0 mm 0.00 in0.0 mm 0.00 in0.0 mm
07:52 PM 86.9°F30.5°C 68.3°F20.2°C 54% 6.9 mph NNE11.1 kmh NNE 13.6 mph21.9 kmh 29.58 in1001.7 mb 0.00 in0.0 mm 0.00 in0.0 mm 0.00 in0.0 mm
07:53 PM 86.9°F30.5°C 67.8°F19.9°C 53% 7.6 mph NE12.2 kmh NE 13.6 mph21.9 kmh 29.57 in1001.4 mb 0.00 in0.0 mm 0.00 in0.0 mm 0.00 in0.0 mm
07:54 PM 86.9°F30.5°C 68.3°F20.2°C 54% 10.7 mph NE17.2 kmh NE 15.9 mph25.6 kmh 29.58 in1001.7 mb 0.00 in0.0 mm 0.00 in0.0 mm 0.00 in0.0 mm
07:55 PM 86.9°F30.5°C 67.8°F19.9°C 53% 6.0 mph NE9.7 kmh NE 15.9 mph25.6 kmh 29.57 in1001.4 mb 0.00 in0.0 mm 0.00 in0.0 mm 0.00 in0.0 mm
07:56 PM 86.9°F30.5°C 68.3°F20.2°C 54% 7.6 mph NNE12.2 kmh NNE 15.9 mph25.6 kmh 29.58 in1001.7 mb 0.00 in0.0 mm 0.00 in0.0 mm 0.00 in0.0 mm
07:57 PM 86.9°F30.5°C 68.3°F20.2°C 54% 7.6 mph NNE12.2 kmh NNE 15.9 mph25.6 kmh 29.57 in1001.4 mb 0.00 in0.0 mm 0.00 in0.0 mm 0.00 in0.0 mm
07:58 PM 86.9°F30.5°C 68.3°F20.2°C 54% 8.3 mph NNE13.4 kmh NNE 15.9 mph25.6 kmh 29.58 in1001.7 mb 0.00 in0.0 mm 0.00 in0.0 mm 0.00 in0.0 mm
07:59 PM 86.9°F30.5°C 68.3°F20.2°C 54% 7.6 mph N12.2 kmh N 15.9 mph25.6 kmh 29.58 in1001.7 mb 0.00 in0.0 mm 0.00 in0.0 mm 0.00 in0.0 mm
08:00 PM 86.9°F30.5°C 68.3°F20.2°C 54% 9.2 mph NNE14.8 kmh NNE 15.9 mph25.6 kmh 29.58 in1001.7 mb 0.00 in0.0 mm 0.00 in0.0 mm 0.00 in0.0 mm
08:01 PM 86.9°F30.5°C 67.8°F19.9°C 53% 6.0 mph NNE9.7 kmh NNE 15.9 mph25.6 kmh 29.57 in1001.4 mb 0.00 in0.0 mm 0.00 in0.0 mm 0.00 in0.0 mm
08:02 PM 86.9°F30.5°C 68.3°F20.2°C 54% 6.9 mph NNE11.1 kmh NNE 16.8 mph27.0 kmh 29.57 in1001.4 mb 0.00 in0.0 mm 0.00 in0.0 mm 0.00 in0.0 mm
08:03 PM 86.9°F30.5°C 68.3°F20.2°C 54% 7.6 mph NNE12.2 kmh NNE 16.8 mph27.0 kmh 29.58 in1001.7 mb 0.00 in0.0 mm 0.00 in0.0 mm 0.00 in0.0 mm
08:04 PM 86.9°F30.5°C 68.3°F20.2°C 54% 8.3 mph NNE13.4 kmh NNE 16.8 mph27.0 kmh 29.58 in1001.7 mb 0.00 in0.0 mm 0.00 in0.0 mm 0.00 in0.0 mm
08:05 PM 86.7°F30.4°C 68.1°F20.1°C 54% 6.0 mph NNE9.7 kmh NNE 16.8 mph27.0 kmh 29.58 in1001.7 mb 0.00 in0.0 mm 0.00 in0.0 mm 0.00 in0.0 mm
08:06 PM 86.7°F30.4°C 68.1°F20.1°C 54% 4.5 mph NNE7.2 kmh NNE 16.8 mph27.0 kmh 29.58 in1001.7 mb 0.00 in0.0 mm 0.00 in0.0 mm 0.00 in0.0 mm
08:07 PM 86.7°F30.4°C 68.1°F20.1°C 54% 7.6 mph NNE12.2 kmh NNE 16.8 mph27.0 kmh 29.58 in1001.7 mb 0.00 in0.0 mm 0.00 in0.0 mm 0.00 in0.0 mm
08:08 PM 86.7°F30.4°C 68.1°F20.1°C 54% 6.0 mph NE9.7 kmh NE 16.8 mph27.0 kmh 29.58 in1001.7 mb 0.00 in0.0 mm 0.00 in0.0 mm 0.00 in0.0 mm
08:09 PM 86.7°F30.4°C 68.1°F20.1°C 54% 9.2 mph NNE14.8 kmh NNE 16.8 mph27.0 kmh 29.58 in1001.7 mb 0.00 in0.0 mm 0.00 in0.0 mm 0.00 in0.0 mm
08:10 PM 86.5°F30.3°C 68.0°F20.0°C 54% 5.4 mph NNE8.7 kmh NNE 16.8 mph27.0 kmh 29.57 in1001.4 mb 0.00 in0.0 mm 0.00 in0.0 mm 0.00 in0.0 mm
08:11 PM 86.5°F30.3°C 68.0°F20.0°C 54% 6.9 mph NNE11.1 kmh NNE 16.8 mph27.0 kmh 29.58 in1001.7 mb 0.00 in0.0 mm 0.00 in0.0 mm 0.00 in0.0 mm
08:12 PM 86.5°F30.3°C 68.0°F20.0°C 54% 6.9 mph N11.1 kmh N 13.0 mph20.9 kmh 29.58 in1001.7 mb 0.00 in0.0 mm 0.00 in0.0 mm 0.00 in0.0 mm
08:13 PM 86.5°F30.3°C 68.0°F20.0°C 54% 9.2 mph N14.8 kmh N 13.0 mph20.9 kmh 29.58 in1001.7 mb 0.00 in0.0 mm 0.00 in0.0 mm 0.00 in0.0 mm
08:14 PM 86.5°F30.3°C 68.0°F20.0°C 54% 8.3 mph N13.4 kmh N 14.5 mph23.3 kmh 29.58 in1001.7 mb 0.00 in0.0 mm 0.00 in0.0 mm 0.00 in0.0 mm
08:15 PM 86.5°F30.3°C 68.5°F20.3°C 55% 9.8 mph N15.8 kmh N 15.9 mph25.6 kmh 29.58 in1001.7 mb 0.00 in0.0 mm 0.00 in0.0 mm 0.00 in0.0 mm
08:16 PM 86.5°F30.3°C 68.5°F20.3°C 55% 9.2 mph N14.8 kmh N 15.9 mph25.6 kmh 29.58 in1001.7 mb 0.00 in0.0 mm 0.00 in0.0 mm 0.00 in0.0 mm
08:17 PM 86.5°F30.3°C 68.5°F20.3°C 55% 6.0 mph N9.7 kmh N 15.9 mph25.6 kmh 29.57 in1001.4 mb 0.00 in0.0 mm 0.00 in0.0 mm 0.00 in0.0 mm
08:18 PM 86.5°F30.3°C 68.5°F20.3°C 55% 7.6 mph N12.2 kmh N 15.9 mph25.6 kmh 29.58 in1001.7 mb 0.00 in0.0 mm 0.00 in0.0 mm 0.00 in0.0 mm
08:19 PM 86.5°F30.3°C 68.5°F20.3°C 55% 6.9 mph N11.1 kmh N 15.9 mph25.6 kmh 29.58 in1001.7 mb 0.00 in0.0 mm 0.00 in0.0 mm 0.00 in0.0 mm
08:20 PM 86.5°F30.3°C 68.5°F20.3°C 55% 9.2 mph N14.8 kmh N 15.9 mph25.6 kmh 29.58 in1001.7 mb 0.00 in0.0 mm 0.00 in0.0 mm 0.00 in0.0 mm
08:21 PM 86.5°F30.3°C 68.5°F20.3°C 55% 7.6 mph N12.2 kmh N 15.9 mph25.6 kmh 29.58 in1001.7 mb 0.00 in0.0 mm 0.00 in0.0 mm 0.00 in0.0 mm
08:22 PM 86.5°F30.3°C 68.5°F20.3°C 55% 8.3 mph N13.4 kmh N 15.9 mph25.6 kmh 29.58 in1001.7 mb 0.00 in0.0 mm 0.00 in0.0 mm 0.00 in0.0 mm
08:23 PM 86.5°F30.3°C 68.0°F20.0°C 54% 6.9 mph N11.1 kmh N 15.9 mph25.6 kmh 29.58 in1001.7 mb 0.00 in0.0 mm 0.00 in0.0 mm 0.00 in0.0 mm
08:24 PM 86.5°F30.3°C 68.0°F20.0°C 54% 6.0 mph N9.7 kmh N 15.9 mph25.6 kmh 29.58 in1001.7 mb 0.00 in0.0 mm 0.00 in0.0 mm 0.00 in0.0 mm
08:25 PM 86.5°F30.3°C 68.0°F20.0°C 54% 5.4 mph N8.7 kmh N 15.9 mph25.6 kmh 29.58 in1001.7 mb 0.00 in0.0 mm 0.00 in0.0 mm 0.00 in0.0 mm
08:26 PM 86.5°F30.3°C 68.0°F20.0°C 54% 5.4 mph NNE8.7 kmh NNE 13.6 mph21.9 kmh 29.58 in1001.7 mb 0.00 in0.0 mm 0.00 in0.0 mm 0.00 in0.0 mm
08:27 PM 86.5°F30.3°C 68.0°F20.0°C 54% 6.9 mph N11.1 kmh N 12.1 mph19.5 kmh 29.58 in1001.7 mb 0.00 in0.0 mm 0.00 in0.0 mm 0.00 in0.0 mm
08:28 PM 86.5°F30.3°C 68.0°F20.0°C 54% 7.6 mph N12.2 kmh N 12.1 mph19.5 kmh 29.59 in1002.0 mb 0.00 in0.0 mm 0.00 in0.0 mm 0.00 in0.0 mm
08:29 PM 86.5°F30.3°C 68.0°F20.0°C 54% 6.0 mph N9.7 kmh N 12.1 mph19.5 kmh 29.58 in1001.7 mb 0.00 in0.0 mm 0.00 in0.0 mm 0.00 in0.0 mm
08:30 PM 86.5°F30.3°C 68.0°F20.0°C 54% 9.2 mph N14.8 kmh N 13.6 mph21.9 kmh 29.58 in1001.7 mb 0.00 in0.0 mm 0.00 in0.0 mm 0.00 in0.0 mm
08:31 PM 86.5°F30.3°C 68.0°F20.0°C 54% 6.9 mph N11.1 kmh N 13.6 mph21.9 kmh 29.59 in1002.0 mb 0.00 in0.0 mm 0.00 in0.0 mm 0.00 in0.0 mm
08:32 PM 86.5°F30.3°C 68.0°F20.0°C 54% 7.6 mph N12.2 kmh N 13.6 mph21.9 kmh 29.59 in1002.0 mb 0.00 in0.0 mm 0.00 in0.0 mm 0.00 in0.0 mm
08:33 PM 86.5°F30.3°C 68.0°F20.0°C 54% 4.5 mph N7.2 kmh N 13.6 mph21.9 kmh 29.59 in1002.0 mb 0.00 in0.0 mm 0.00 in0.0 mm 0.00 in0.0 mm
08:34 PM 86.5°F30.3°C 68.0°F20.0°C 54% 7.6 mph N12.2 kmh N 13.6 mph21.9 kmh 29.59 in1002.0 mb 0.00 in0.0 mm 0.00 in0.0 mm 0.00 in0.0 mm
08:35 PM 86.5°F30.3°C 68.0°F20.0°C 54% 7.6 mph N12.2 kmh N 13.6 mph21.9 kmh 29.59 in1002.0 mb 0.00 in0.0 mm 0.00 in0.0 mm 0.00 in0.0 mm
08:36 PM 86.5°F30.3°C 68.0°F20.0°C 54% 8.3 mph N13.4 kmh N 13.6 mph21.9 kmh 29.58 in1001.7 mb 0.00 in0.0 mm 0.00 in0.0 mm 0.00 in0.0 mm
08:37 PM 86.5°F30.3°C 67.4°F19.7°C 53% 9.2 mph N14.8 kmh N 13.6 mph21.9 kmh 29.59 in1002.0 mb 0.00 in0.0 mm 0.00 in0.0 mm 0.00 in0.0 mm
08:38 PM 86.5°F30.3°C 67.4°F19.7°C 53% 8.3 mph N13.4 kmh N 13.6 mph21.9 kmh 29.59 in1002.0 mb 0.00 in0.0 mm 0.00 in0.0 mm 0.00 in0.0 mm
08:39 PM 86.5°F30.3°C 67.4°F19.7°C 53% 5.4 mph N8.7 kmh N 13.6 mph21.9 kmh 29.58 in1001.7 mb 0.00 in0.0 mm 0.00 in0.0 mm 0.00 in0.0 mm
08:40 PM 86.4°F30.2°C 67.3°F19.6°C 53% 8.3 mph N13.4 kmh N 13.6 mph21.9 kmh 29.59 in1002.0 mb 0.00 in0.0 mm 0.00 in0.0 mm 0.00 in0.0 mm
08:41 PM 86.4°F30.2°C 67.3°F19.6°C 53% 6.9 mph N11.1 kmh N 13.6 mph21.9 kmh 29.59 in1002.0 mb 0.00 in0.0 mm 0.00 in0.0 mm 0.00 in0.0 mm
08:42 PM 86.4°F30.2°C 67.3°F19.6°C 53% 5.4 mph N8.7 kmh N 13.6 mph21.9 kmh 29.59 in1002.0 mb 0.00 in0.0 mm 0.00 in0.0 mm 0.00 in0.0 mm
08:43 PM 86.4°F30.2°C 67.3°F19.6°C 53% 5.4 mph N8.7 kmh N 13.6 mph21.9 kmh 29.59 in1002.0 mb 0.00 in0.0 mm 0.00 in0.0 mm 0.00 in0.0 mm
08:44 PM 86.4°F30.2°C 67.3°F19.6°C 53% 12.1 mph N19.5 kmh N 14.5 mph23.3 kmh 29.59 in1002.0 mb 0.00 in0.0 mm 0.00 in0.0 mm 0.00 in0.0 mm
08:45 PM 86.4°F30.2°C 67.3°F19.6°C 53% 7.6 mph N12.2 kmh N 14.5 mph23.3 kmh 29.59 in1002.0 mb 0.00 in0.0 mm 0.00 in0.0 mm 0.00 in0.0 mm
08:46 PM 86.4°F30.2°C 67.3°F19.6°C 53% 4.5 mph N7.2 kmh N 14.5 mph23.3 kmh 29.59 in1002.0 mb 0.00 in0.0 mm 0.00 in0.0 mm 0.00 in0.0 mm
08:47 PM 86.2°F30.1°C 67.1°F19.5°C 53% 6.0 mph NNE9.7 kmh NNE 14.5 mph23.3 kmh 29.59 in1002.0 mb 0.00 in0.0 mm 0.00 in0.0 mm 0.00 in0.0 mm
08:48 PM 86.2°F30.1°C 67.1°F19.5°C 53% 8.3 mph NNE13.4 kmh NNE 14.5 mph23.3 kmh 29.59 in1002.0 mb 0.00 in0.0 mm 0.00 in0.0 mm 0.00 in0.0 mm
08:49 PM 86.2°F30.1°C 67.1°F19.5°C 53% 7.6 mph NNE12.2 kmh NNE 14.5 mph23.3 kmh 29.59 in1002.0 mb 0.00 in0.0 mm 0.00 in0.0 mm 0.00 in0.0 mm
08:50 PM 86.2°F30.1°C 67.1°F19.5°C 53% 6.0 mph NNE9.7 kmh NNE 14.5 mph23.3 kmh 29.59 in1002.0 mb 0.00 in0.0 mm 0.00 in0.0 mm 0.00 in0.0 mm
08:51 PM 86.2°F30.1°C 67.1°F19.5°C 53% 3.8 mph NE6.1 kmh NE 14.5 mph23.3 kmh 29.59 in1002.0 mb 0.00 in0.0 mm 0.00 in0.0 mm 0.00 in0.0 mm
08:52 PM 86.2°F30.1°C 67.1°F19.5°C 53% 7.6 mph NE12.2 kmh NE 14.5 mph23.3 kmh 29.59 in1002.0 mb 0.00 in0.0 mm 0.00 in0.0 mm 0.00 in0.0 mm
08:53 PM 86.2°F30.1°C 67.1°F19.5°C 53% 7.6 mph NE12.2 kmh NE 14.5 mph23.3 kmh 29.59 in1002.0 mb 0.00 in0.0 mm 0.00 in0.0 mm 0.00 in0.0 mm
08:54 PM 86.0°F30.0°C 66.9°F19.4°C 53% 6.9 mph NE11.1 kmh NE 14.5 mph23.3 kmh 29.59 in1002.0 mb 0.00 in0.0 mm 0.00 in0.0 mm 0.00 in0.0 mm
08:55 PM 86.0°F30.0°C 66.9°F19.4°C 53% 3.8 mph NE6.1 kmh NE 12.1 mph19.5 kmh 29.59 in1002.0 mb 0.00 in0.0 mm 0.00 in0.0 mm 0.00 in0.0 mm
08:56 PM 86.0°F30.0°C 66.9°F19.4°C 53% 4.5 mph NE7.2 kmh NE 12.1 mph19.5 kmh 29.59 in1002.0 mb 0.00 in0.0 mm 0.00 in0.0 mm 0.00 in0.0 mm
08:57 PM 86.0°F30.0°C 66.9°F19.4°C 53% 7.6 mph NE12.2 kmh NE 12.1 mph19.5 kmh 29.59 in1002.0 mb 0.00 in0.0 mm 0.00 in0.0 mm 0.00 in0.0 mm
08:58 PM 86.0°F30.0°C 66.9°F19.4°C 53% 6.9 mph NNE11.1 kmh NNE 12.1 mph19.5 kmh 29.59 in1002.0 mb 0.00 in0.0 mm 0.00 in0.0 mm 0.00 in0.0 mm
08:59 PM 86.0°F30.0°C 66.9°F19.4°C 53% 6.9 mph NNE11.1 kmh NNE 12.1 mph19.5 kmh 29.59 in1002.0 mb 0.00 in0.0 mm 0.00 in0.0 mm 0.00 in0.0 mm
09:00 PM 86.0°F30.0°C 66.9°F19.4°C 53% 6.0 mph NNE9.7 kmh NNE 12.1 mph19.5 kmh 29.59 in1002.0 mb 0.00 in0.0 mm 0.00 in0.0 mm 0.00 in0.0 mm
09:01 PM 85.8°F29.9°C 67.3°F19.6°C 54% 6.0 mph NNE9.7 kmh NNE 12.1 mph19.5 kmh 29.59 in1002.0 mb 0.00 in0.0 mm 0.00 in0.0 mm 0.00 in0.0 mm
09:02 PM 85.8°F29.9°C 67.3°F19.6°C 54% 5.4 mph NNE8.7 kmh NNE 12.1 mph19.5 kmh 29.59 in1002.0 mb 0.00 in0.0 mm 0.00 in0.0 mm 0.00 in0.0 mm
09:03 PM 85.8°F29.9°C 67.3°F19.6°C 54% 6.9 mph N11.1 kmh N 13.6 mph21.9 kmh 29.59 in1002.0 mb 0.00 in0.0 mm 0.00 in0.0 mm 0.00 in0.0 mm
09:04 PM 85.8°F29.9°C 67.3°F19.6°C 54% 8.3 mph N13.4 kmh N 13.6 mph21.9 kmh 29.59 in1002.0 mb 0.00 in0.0 mm 0.00 in0.0 mm 0.00 in0.0 mm
09:05 PM 85.8°F29.9°C 67.3°F19.6°C 54% 6.9 mph N11.1 kmh N 13.6 mph21.9 kmh 29.59 in1002.0 mb 0.00 in0.0 mm 0.00 in0.0 mm 0.00 in0.0 mm
09:06 PM 85.8°F29.9°C 67.3°F19.6°C 54% 7.6 mph NNE12.2 kmh NNE 13.6 mph21.9 kmh 29.60 in1002.4 mb 0.00 in0.0 mm 0.00 in0.0 mm 0.00 in0.0 mm
09:07 PM 85.8°F29.9°C 67.3°F19.6°C 54% 4.5 mph N7.2 kmh N 13.6 mph21.9 kmh 29.60 in1002.4 mb 0.00 in0.0 mm 0.00 in0.0 mm 0.00 in0.0 mm
09:08 PM 85.8°F29.9°C 67.3°F19.6°C 54% 7.6 mph N12.2 kmh N 13.6 mph21.9 kmh 29.59 in1002.0 mb 0.00 in0.0 mm 0.00 in0.0 mm 0.00 in0.0 mm
09:09 PM 85.8°F29.9°C 67.3°F19.6°C 54% 3.8 mph N6.1 kmh N 13.6 mph21.9 kmh 29.60 in1002.4 mb 0.00 in0.0 mm 0.00 in0.0 mm 0.00 in0.0 mm
09:10 PM 85.8°F29.9°C 67.3°F19.6°C 54% 5.4 mph N8.7 kmh N 13.6 mph21.9 kmh 29.60 in1002.4 mb 0.00 in0.0 mm 0.00 in0.0 mm 0.00 in0.0 mm
09:11 PM 85.6°F29.8°C 67.1°F19.5°C 54% 6.9 mph N11.1 kmh N 13.6 mph21.9 kmh 29.60 in1002.4 mb 0.00 in0.0 mm 0.00 in0.0 mm 0.00 in0.0 mm
09:12 PM 85.6°F29.8°C 67.1°F19.5°C 54% 6.9 mph NNE11.1 kmh NNE 13.6 mph21.9 kmh 29.60 in1002.4 mb 0.00 in0.0 mm 0.00 in0.0 mm 0.00 in0.0 mm
09:13 PM 85.6°F29.8°C 67.1°F19.5°C 54% 7.6 mph N12.2 kmh N 11.4 mph18.3 kmh 29.59 in1002.0 mb 0.00 in0.0 mm 0.00 in0.0 mm 0.00 in0.0 mm
09:14 PM 85.6°F29.8°C 67.1°F19.5°C 54% 4.5 mph N7.2 kmh N 11.4 mph18.3 kmh 29.60 in1002.4 mb 0.00 in0.0 mm 0.00 in0.0 mm 0.00 in0.0 mm
09:15 PM 85.6°F29.8°C 67.1°F19.5°C 54% 8.3 mph N13.4 kmh N 12.1 mph19.5 kmh 29.60 in1002.4 mb 0.00 in0.0 mm 0.00 in0.0 mm 0.00 in0.0 mm
09:16 PM 85.5°F29.7°C 67.0°F19.4°C 54% 7.6 mph N12.2 kmh N 12.1 mph19.5 kmh 29.60 in1002.4 mb 0.00 in0.0 mm 0.00 in0.0 mm 0.00 in0.0 mm
09:17 PM 85.5°F29.7°C 67.0°F19.4°C 54% 6.0 mph N9.7 kmh N 12.1 mph19.5 kmh 29.59 in1002.0 mb 0.00 in0.0 mm 0.00 in0.0 mm 0.00 in0.0 mm
09:18 PM 85.5°F29.7°C 67.0°F19.4°C 54% 3.8 mph N6.1 kmh N 12.1 mph19.5 kmh 29.59 in1002.0 mb 0.00 in0.0 mm 0.00 in0.0 mm 0.00 in0.0 mm
09:19 PM 85.5°F29.7°C 67.0°F19.4°C 54% 6.0 mph N9.7 kmh N 12.1 mph19.5 kmh 29.60 in1002.4 mb 0.00 in0.0 mm 0.00 in0.0 mm 0.00 in0.0 mm
09:20 PM 85.3°F29.6°C 66.8°F19.3°C 54% 6.0 mph N9.7 kmh N 12.1 mph19.5 kmh 29.60 in1002.4 mb 0.00 in0.0 mm 0.00 in0.0 mm 0.00 in0.0 mm
09:21 PM 85.3°F29.6°C 66.8°F19.3°C 54% 6.9 mph N11.1 kmh N 12.1 mph19.5 kmh 29.60 in1002.4 mb 0.00 in0.0 mm 0.00 in0.0 mm 0.00 in0.0 mm
09:22 PM 85.3°F29.6°C 66.8°F19.3°C 54% 4.5 mph N7.2 kmh N 12.1 mph19.5 kmh 29.60 in1002.4 mb 0.00 in0.0 mm 0.00 in0.0 mm 0.00 in0.0 mm
09:23 PM 85.3°F29.6°C 67.3°F19.6°C 55% 6.9 mph N11.1 kmh N 12.1 mph19.5 kmh 29.59 in1002.0 mb 0.00 in0.0 mm 0.00 in0.0 mm 0.00 in0.0 mm
09:24 PM 85.3°F29.6°C 67.3°F19.6°C 55% 7.6 mph N12.2 kmh N 12.1 mph19.5 kmh 29.60 in1002.4 mb 0.00 in0.0 mm 0.00 in0.0 mm 0.00 in0.0 mm
09:25 PM 85.1°F29.5°C 67.2°F19.6°C 55% 6.9 mph N11.1 kmh N 12.1 mph19.5 kmh 29.59 in1002.0 mb 0.00 in0.0 mm 0.00 in0.0 mm 0.00 in0.0 mm
09:26 PM 85.1°F29.5°C 67.2°F19.6°C 55% 6.0 mph N9.7 kmh N 12.1 mph19.5 kmh 29.59 in1002.0 mb 0.00 in0.0 mm 0.00 in0.0 mm 0.00 in0.0 mm
09:27 PM 85.1°F29.5°C 67.2°F19.6°C 55% 9.2 mph N14.8 kmh N 12.1 mph19.5 kmh 29.60 in1002.4 mb 0.00 in0.0 mm 0.00 in0.0 mm 0.00 in0.0 mm
09:28 PM 85.1°F29.5°C 67.2°F19.6°C 55% 6.0 mph N9.7 kmh N 12.1 mph19.5 kmh 29.60 in1002.4 mb 0.00 in0.0 mm 0.00 in0.0 mm 0.00 in0.0 mm
09:29 PM 85.1°F29.5°C 67.2°F19.6°C 55% 3.8 mph N6.1 kmh N 12.1 mph19.5 kmh 29.60 in1002.4 mb 0.00 in0.0 mm 0.00 in0.0 mm 0.00 in0.0 mm
09:30 PM 85.1°F29.5°C 67.2°F19.6°C 55% 3.8 mph N6.1 kmh N 12.1 mph19.5 kmh 29.60 in1002.4 mb 0.00 in0.0 mm 0.00 in0.0 mm 0.00 in0.0 mm
09:31 PM 84.9°F29.4°C 67.0°F19.4°C 55% 5.4 mph N8.7 kmh N 12.1 mph19.5 kmh 29.60 in1002.4 mb 0.00 in0.0 mm 0.00 in0.0 mm 0.00 in0.0 mm
09:32 PM 84.9°F29.4°C 67.0°F19.4°C 55% 8.3 mph N13.4 kmh N 13.0 mph20.9 kmh 29.60 in1002.4 mb 0.00 in0.0 mm 0.00 in0.0 mm 0.00 in0.0 mm
09:33 PM 84.9°F29.4°C 67.0°F19.4°C 55% 6.0 mph N9.7 kmh N 13.0 mph20.9 kmh 29.60 in1002.4 mb 0.00 in0.0 mm 0.00 in0.0 mm 0.00 in0.0 mm
09:34 PM 84.9°F29.4°C 67.0°F19.4°C 55% 6.9 mph N11.1 kmh N 13.0 mph20.9 kmh 29.60 in1002.4 mb 0.00 in0.0 mm 0.00 in0.0 mm 0.00 in0.0 mm
09:35 PM 84.9°F29.4°C 67.0°F19.4°C 55% 6.0 mph N9.7 kmh N 13.0 mph20.9 kmh 29.59 in1002.0 mb 0.00 in0.0 mm 0.00 in0.0 mm 0.00 in0.0 mm
09:36 PM 84.9°F29.4°C 67.0°F19.4°C 55% 3.8 mph N6.1 kmh N 13.0 mph20.9 kmh 29.59 in1002.0 mb 0.00 in0.0 mm 0.00 in0.0 mm 0.00 in0.0 mm
09:37 PM 84.9°F29.4°C 67.0°F19.4°C 55% 3.1 mph N5.0 kmh N 13.0 mph20.9 kmh 29.60 in1002.4 mb 0.00 in0.0 mm 0.00 in0.0 mm 0.00 in0.0 mm
09:38 PM 84.9°F29.4°C 67.0°F19.4°C 55% 6.0 mph N9.7 kmh N 13.0 mph20.9 kmh 29.60 in1002.4 mb 0.00 in0.0 mm 0.00 in0.0 mm 0.00 in0.0 mm
09:39 PM 84.9°F29.4°C 67.0°F19.4°C 55% 9.8 mph N15.8 kmh N 13.0 mph20.9 kmh 29.60 in1002.4 mb 0.00 in0.0 mm 0.00 in0.0 mm 0.00 in0.0 mm
09:40 PM 84.9°F29.4°C 67.0°F19.4°C 55% 7.6 mph N12.2 kmh N 13.0 mph20.9 kmh 29.59 in1002.0 mb 0.00 in0.0 mm 0.00 in0.0 mm 0.00 in0.0 mm
09:41 PM 84.9°F29.4°C 67.0°F19.4°C 55% 5.4 mph N8.7 kmh N 13.0 mph20.9 kmh 29.59 in1002.0 mb 0.00 in0.0 mm 0.00 in0.0 mm 0.00 in0.0 mm
09:42 PM 84.9°F29.4°C 67.0°F19.4°C 55% 5.4 mph N8.7 kmh N 13.0 mph20.9 kmh 29.59 in1002.0 mb 0.00 in0.0 mm 0.00 in0.0 mm 0.00 in0.0 mm
09:43 PM 84.7°F29.3°C 66.8°F19.3°C 55% 6.9 mph N11.1 kmh N 13.0 mph20.9 kmh 29.60 in1002.4 mb 0.00 in0.0 mm 0.00 in0.0 mm 0.00 in0.0 mm
09:44 PM 84.7°F29.3°C 66.8°F19.3°C 55% 6.0 mph N9.7 kmh N 13.0 mph20.9 kmh 29.59 in1002.0 mb 0.00 in0.0 mm 0.00 in0.0 mm 0.00 in0.0 mm
09:45 PM 84.7°F29.3°C 66.8°F19.3°C 55% 4.5 mph N7.2 kmh N 13.0 mph20.9 kmh 29.59 in1002.0 mb 0.00 in0.0 mm 0.00 in0.0 mm 0.00 in0.0 mm
09:46 PM 84.7°F29.3°C 66.8°F19.3°C 55% 6.0 mph N9.7 kmh N 13.0 mph20.9 kmh 29.60 in1002.4 mb 0.00 in0.0 mm 0.00 in0.0 mm 0.00 in0.0 mm
09:47 PM 84.7°F29.3°C 66.8°F19.3°C 55% 4.5 mph N7.2 kmh N 13.0 mph20.9 kmh 29.59 in1002.0 mb 0.00 in0.0 mm 0.00 in0.0 mm 0.00 in0.0 mm
09:48 PM 84.7°F29.3°C 66.8°F19.3°C 55% 7.6 mph N12.2 kmh N 13.0 mph20.9 kmh 29.59 in1002.0 mb 0.00 in0.0 mm 0.00 in0.0 mm 0.00 in0.0 mm
09:49 PM 84.6°F29.2°C 66.7°F19.3°C 55% 5.4 mph N8.7 kmh N 13.0 mph20.9 kmh 29.59 in1002.0 mb 0.00 in0.0 mm 0.00 in0.0 mm 0.00 in0.0 mm
09:50 PM 84.6°F29.2°C 66.7°F19.3°C 55% 5.4 mph N8.7 kmh N 11.4 mph18.3 kmh 29.60 in1002.4 mb 0.00 in0.0 mm 0.00 in0.0 mm 0.00 in0.0 mm
09:51 PM 84.6°F29.2°C 66.7°F19.3°C 55% 7.6 mph NNW12.2 kmh NNW 11.4 mph18.3 kmh 29.59 in1002.0 mb 0.00 in0.0 mm 0.00 in0.0 mm 0.00 in0.0 mm
09:52 PM 84.6°F29.2°C 66.7°F19.3°C 55% 8.3 mph N13.4 kmh N 11.4 mph18.3 kmh 29.59 in1002.0 mb 0.00 in0.0 mm 0.00 in0.0 mm 0.00 in0.0 mm
09:53 PM 84.4°F29.1°C 66.5°F19.2°C 55% 7.6 mph N12.2 kmh N 11.4 mph18.3 kmh 29.59 in1002.0 mb 0.00 in0.0 mm 0.00 in0.0 mm 0.00 in0.0 mm
09:54 PM 84.4°F29.1°C 66.5°F19.2°C 55% 6.9 mph NNE11.1 kmh NNE 11.4 mph18.3 kmh 29.59 in1002.0 mb 0.00 in0.0 mm 0.00 in0.0 mm 0.00 in0.0 mm
09:55 PM 84.4°F29.1°C 66.5°F19.2°C 55% 6.9 mph N11.1 kmh N 11.4 mph18.3 kmh 29.59 in1002.0 mb 0.00 in0.0 mm 0.00 in0.0 mm 0.00 in0.0 mm
09:56 PM 84.4°F29.1°C 66.5°F19.2°C 55% 6.0 mph N9.7 kmh N 11.4 mph18.3 kmh 29.60 in1002.4 mb 0.00 in0.0 mm 0.00 in0.0 mm 0.00 in0.0 mm
09:57 PM 84.4°F29.1°C 66.5°F19.2°C 55% 5.4 mph N8.7 kmh N 11.4 mph18.3 kmh 29.60 in1002.4 mb 0.00 in0.0 mm 0.00 in0.0 mm 0.00 in0.0 mm
09:58 PM 84.4°F29.1°C 66.5°F19.2°C 55% 9.2 mph N14.8 kmh N 12.1 mph19.5 kmh 29.59 in1002.0 mb 0.00 in0.0 mm 0.00 in0.0 mm 0.00 in0.0 mm
09:59 PM 84.2°F29.0°C 66.3°F19.1°C 55% 6.9 mph N11.1 kmh N 12.1 mph19.5 kmh 29.60 in1002.4 mb 0.00 in0.0 mm 0.00 in0.0 mm 0.00 in0.0 mm
10:00 PM 84.2°F29.0°C 66.3°F19.1°C 55% 8.3 mph NNW13.4 kmh NNW 12.1 mph19.5 kmh 29.60 in1002.4 mb 0.00 in0.0 mm 0.00 in0.0 mm 0.00 in0.0 mm
10:01 PM 84.2°F29.0°C 66.3°F19.1°C 55% 8.3 mph NNW13.4 kmh NNW 13.0 mph20.9 kmh 29.60 in1002.4 mb 0.00 in0.0 mm 0.00 in0.0 mm 0.00 in0.0 mm
10:02 PM 84.2°F29.0°C 66.3°F19.1°C 55% 7.6 mph NNW12.2 kmh NNW 13.0 mph20.9 kmh 29.60 in1002.4 mb 0.00 in0.0 mm 0.00 in0.0 mm 0.00 in0.0 mm
10:03 PM 84.0°F28.9°C 66.7°F19.3°C 56% 9.2 mph NNW14.8 kmh NNW 13.0 mph20.9 kmh 29.60 in1002.4 mb 0.00 in0.0 mm 0.00 in0.0 mm 0.00 in0.0 mm
10:04 PM 84.0°F28.9°C 66.7°F19.3°C 56% 5.4 mph NNW8.7 kmh NNW 13.0 mph20.9 kmh 29.60 in1002.4 mb 0.00 in0.0 mm 0.00 in0.0 mm 0.00 in0.0 mm
10:05 PM 84.0°F28.9°C 66.7°F19.3°C 56% 5.4 mph NW8.7 kmh NW 13.0 mph20.9 kmh 29.60 in1002.4 mb 0.00 in0.0 mm 0.00 in0.0 mm 0.00 in0.0 mm
10:06 PM 83.8°F28.8°C 66.5°F19.2°C 56% 7.6 mph NNW12.2 kmh NNW 13.0 mph20.9 kmh 29.61 in1002.7 mb 0.00 in0.0 mm 0.00 in0.0 mm 0.00 in0.0 mm